<?xml version="1.0" encoding="UTF-8" standalone="no" ?>
<gpx xmlns="http://www.topografix.com/GPX/1/1" xmlns:xsi="http://www.w3.org/2001/XMLSchema-instance" xsi:schemaLocation="http://www.topografix.com/GPX/1/1 http://www.topografix.com/GPX/1/1/gpx.xsd" version="1.1" creator="VisuGPX - https://www.visugpx.com">
  <metadata>
    <name>CORSE - Cascades des anglais Madunuccia - PEDESTRE - Vizzavona (2B) - Boucle de la gare, aux cascades, au col, Madunuccia.</name>
    <desc><![CDATA[Deux petites randonnées faites en une seule]]></desc>
  </metadata>
  <wpt lat="42.11801" lon="9.10886">
    <ele>1148.411865</ele>
    <name><![CDATA[Anglais Mj]]></name>
    <desc><![CDATA[24-JUN-14 9:46:26]]></desc>
    <cmt><![CDATA[24-JUN-14 9:46:26]]></cmt>
  </wpt>
  <wpt lat="42.10483" lon="9.11914">
    <ele>1383.8</ele>
    <name><![CDATA[bergeries Pozz]]></name>
  </wpt>
  <wpt lat="42.1281" lon="9.13252">
    <ele>915.3</ele>
    <name><![CDATA[D&part Gare]]></name>
  </wpt>
  <wpt lat="42.1091" lon="9.11453">
    <ele>1203.5</ele>
    <name><![CDATA[relais tv]]></name>
  </wpt>
  <wpt lat="42.10681" lon="9.12616">
    <ele>1549.4</ele>
    <name><![CDATA[Rocher Madonuc]]></name>
  </wpt>
  <trk>
    <name><![CDATA[ACTIVE LOG 001]]></name>
    <trkseg>
      <trkpt lat="42.12873" lon="9.13428">
        <ele>900.412109</ele>
        <time>2014-06-24T06:37:46Z</time>
      </trkpt>
      <trkpt lat="42.12873" lon="9.13427">
        <ele>901.373291</ele>
        <time>2014-06-24T06:37:47Z</time>
      </trkpt>
      <trkpt lat="42.12873" lon="9.13427">
        <ele>900.892578</ele>
        <time>2014-06-24T06:37:48Z</time>
      </trkpt>
      <trkpt lat="42.12874" lon="9.13429">
        <ele>901.854004</ele>
        <time>2014-06-24T06:38:15Z</time>
      </trkpt>
      <trkpt lat="42.1287" lon="9.13425">
        <ele>904.737793</ele>
        <time>2014-06-24T06:38:37Z</time>
      </trkpt>
      <trkpt lat="42.12867" lon="9.13421">
        <ele>904.737793</ele>
        <time>2014-06-24T06:38:53Z</time>
      </trkpt>
      <trkpt lat="42.12865" lon="9.13419">
        <ele>904.737793</ele>
        <time>2014-06-24T06:39:15Z</time>
      </trkpt>
      <trkpt lat="42.12865" lon="9.13418">
        <ele>904.737793</ele>
        <time>2014-06-24T06:39:22Z</time>
      </trkpt>
      <trkpt lat="42.12856" lon="9.13407">
        <ele>905.218506</ele>
        <time>2014-06-24T06:39:39Z</time>
      </trkpt>
      <trkpt lat="42.12847" lon="9.13394">
        <ele>906.179688</ele>
        <time>2014-06-24T06:39:55Z</time>
      </trkpt>
      <trkpt lat="42.12845" lon="9.13394">
        <ele>905.699219</ele>
        <time>2014-06-24T06:39:57Z</time>
      </trkpt>
      <trkpt lat="42.12837" lon="9.13392">
        <ele>905.699219</ele>
        <time>2014-06-24T06:40:03Z</time>
      </trkpt>
      <trkpt lat="42.12822" lon="9.13388">
        <ele>908.102783</ele>
        <time>2014-06-24T06:40:21Z</time>
      </trkpt>
      <trkpt lat="42.12817" lon="9.13384">
        <ele>909.063965</ele>
        <time>2014-06-24T06:40:34Z</time>
      </trkpt>
      <trkpt lat="42.12803" lon="9.13374">
        <ele>911.467285</ele>
        <time>2014-06-24T06:40:51Z</time>
      </trkpt>
      <trkpt lat="42.12785" lon="9.13357">
        <ele>913.389893</ele>
        <time>2014-06-24T06:41:10Z</time>
      </trkpt>
      <trkpt lat="42.1278" lon="9.13341">
        <ele>914.831787</ele>
        <time>2014-06-24T06:41:22Z</time>
      </trkpt>
      <trkpt lat="42.12787" lon="9.13319">
        <ele>917.715576</ele>
        <time>2014-06-24T06:41:40Z</time>
      </trkpt>
      <trkpt lat="42.1279" lon="9.1331">
        <ele>918.196289</ele>
        <time>2014-06-24T06:41:56Z</time>
      </trkpt>
      <trkpt lat="42.12784" lon="9.1331">
        <ele>918.196289</ele>
        <time>2014-06-24T06:42:32Z</time>
      </trkpt>
      <trkpt lat="42.12779" lon="9.13313">
        <ele>918.677002</ele>
        <time>2014-06-24T06:42:38Z</time>
      </trkpt>
      <trkpt lat="42.12763" lon="9.13326">
        <ele>921.560791</ele>
        <time>2014-06-24T06:42:57Z</time>
      </trkpt>
      <trkpt lat="42.12758" lon="9.13303">
        <ele>923.483643</ele>
        <time>2014-06-24T06:43:14Z</time>
      </trkpt>
      <trkpt lat="42.12752" lon="9.13281">
        <ele>925.40625</ele>
        <time>2014-06-24T06:43:31Z</time>
      </trkpt>
      <trkpt lat="42.12746" lon="9.13259">
        <ele>926.848389</ele>
        <time>2014-06-24T06:43:47Z</time>
      </trkpt>
      <trkpt lat="42.12742" lon="9.13251">
        <ele>927.80957</ele>
        <time>2014-06-24T06:43:53Z</time>
      </trkpt>
      <trkpt lat="42.1273" lon="9.13224">
        <ele>928.770996</ele>
        <time>2014-06-24T06:44:15Z</time>
      </trkpt>
      <trkpt lat="42.12727" lon="9.13227">
        <ele>930.212891</ele>
        <time>2014-06-24T06:44:19Z</time>
      </trkpt>
      <trkpt lat="42.12725" lon="9.13253">
        <ele>932.135498</ele>
        <time>2014-06-24T06:44:36Z</time>
      </trkpt>
      <trkpt lat="42.12715" lon="9.13273">
        <ele>934.058105</ele>
        <time>2014-06-24T06:44:52Z</time>
      </trkpt>
      <trkpt lat="42.12708" lon="9.13284">
        <ele>935.019531</ele>
        <time>2014-06-24T06:45:09Z</time>
      </trkpt>
      <trkpt lat="42.12707" lon="9.13284">
        <ele>935.019531</ele>
        <time>2014-06-24T06:45:11Z</time>
      </trkpt>
      <trkpt lat="42.12705" lon="9.13284">
        <ele>935.019531</ele>
        <time>2014-06-24T06:45:13Z</time>
      </trkpt>
      <trkpt lat="42.12703" lon="9.13274">
        <ele>934.538818</ele>
        <time>2014-06-24T06:45:22Z</time>
      </trkpt>
      <trkpt lat="42.12707" lon="9.13274">
        <ele>935.019531</ele>
        <time>2014-06-24T06:45:32Z</time>
      </trkpt>
      <trkpt lat="42.12708" lon="9.13272">
        <ele>935.019531</ele>
        <time>2014-06-24T06:45:37Z</time>
      </trkpt>
      <trkpt lat="42.12704" lon="9.13266">
        <ele>936.941895</ele>
        <time>2014-06-24T06:45:42Z</time>
      </trkpt>
      <trkpt lat="42.12691" lon="9.13246">
        <ele>937.90332</ele>
        <time>2014-06-24T06:46:03Z</time>
      </trkpt>
      <trkpt lat="42.12687" lon="9.13225">
        <ele>939.345215</ele>
        <time>2014-06-24T06:46:20Z</time>
      </trkpt>
      <trkpt lat="42.12687" lon="9.13222">
        <ele>939.345215</ele>
        <time>2014-06-24T06:46:22Z</time>
      </trkpt>
      <trkpt lat="42.12687" lon="9.13192">
        <ele>939.825928</ele>
        <time>2014-06-24T06:46:40Z</time>
      </trkpt>
      <trkpt lat="42.12686" lon="9.13191">
        <ele>939.345215</ele>
        <time>2014-06-24T06:46:41Z</time>
      </trkpt>
      <trkpt lat="42.12677" lon="9.13164">
        <ele>941.748779</ele>
        <time>2014-06-24T06:46:58Z</time>
      </trkpt>
      <trkpt lat="42.1266" lon="9.13142">
        <ele>943.190674</ele>
        <time>2014-06-24T06:47:17Z</time>
      </trkpt>
      <trkpt lat="42.12656" lon="9.13137">
        <ele>943.671387</ele>
        <time>2014-06-24T06:47:21Z</time>
      </trkpt>
      <trkpt lat="42.12641" lon="9.13124">
        <ele>943.190674</ele>
        <time>2014-06-24T06:47:37Z</time>
      </trkpt>
      <trkpt lat="42.12629" lon="9.13118">
        <ele>943.671387</ele>
        <time>2014-06-24T06:47:49Z</time>
      </trkpt>
      <trkpt lat="42.12614" lon="9.13117">
        <ele>943.190674</ele>
        <time>2014-06-24T06:48:01Z</time>
      </trkpt>
      <trkpt lat="42.12604" lon="9.13118">
        <ele>943.190674</ele>
        <time>2014-06-24T06:48:09Z</time>
      </trkpt>
      <trkpt lat="42.12581" lon="9.1312">
        <ele>943.671387</ele>
        <time>2014-06-24T06:48:26Z</time>
      </trkpt>
      <trkpt lat="42.12572" lon="9.13115">
        <ele>944.632568</ele>
        <time>2014-06-24T06:48:38Z</time>
      </trkpt>
      <trkpt lat="42.12568" lon="9.13111">
        <ele>945.113281</ele>
        <time>2014-06-24T06:48:53Z</time>
      </trkpt>
      <trkpt lat="42.12567" lon="9.13105">
        <ele>945.113281</ele>
        <time>2014-06-24T06:49:06Z</time>
      </trkpt>
      <trkpt lat="42.12561" lon="9.13088">
        <ele>946.074707</ele>
        <time>2014-06-24T06:49:19Z</time>
      </trkpt>
      <trkpt lat="42.12561" lon="9.13087">
        <ele>946.55542</ele>
        <time>2014-06-24T06:49:22Z</time>
      </trkpt>
      <trkpt lat="42.12569" lon="9.13075">
        <ele>946.55542</ele>
        <time>2014-06-24T06:49:34Z</time>
      </trkpt>
      <trkpt lat="42.12571" lon="9.13075">
        <ele>946.55542</ele>
        <time>2014-06-24T06:49:36Z</time>
      </trkpt>
      <trkpt lat="42.12581" lon="9.13073">
        <ele>945.593994</ele>
        <time>2014-06-24T06:49:46Z</time>
      </trkpt>
      <trkpt lat="42.12585" lon="9.13071">
        <ele>945.593994</ele>
        <time>2014-06-24T06:49:49Z</time>
      </trkpt>
      <trkpt lat="42.12606" lon="9.13059">
        <ele>945.593994</ele>
        <time>2014-06-24T06:50:08Z</time>
      </trkpt>
      <trkpt lat="42.12625" lon="9.13042">
        <ele>945.593994</ele>
        <time>2014-06-24T06:50:25Z</time>
      </trkpt>
      <trkpt lat="42.1264" lon="9.13025">
        <ele>945.593994</ele>
        <time>2014-06-24T06:50:41Z</time>
      </trkpt>
      <trkpt lat="42.12649" lon="9.13011">
        <ele>946.55542</ele>
        <time>2014-06-24T06:50:54Z</time>
      </trkpt>
      <trkpt lat="42.12645" lon="9.12998">
        <ele>946.074707</ele>
        <time>2014-06-24T06:51:07Z</time>
      </trkpt>
      <trkpt lat="42.1264" lon="9.12988">
        <ele>945.113281</ele>
        <time>2014-06-24T06:51:15Z</time>
      </trkpt>
      <trkpt lat="42.12632" lon="9.12979">
        <ele>944.632568</ele>
        <time>2014-06-24T06:51:33Z</time>
      </trkpt>
      <trkpt lat="42.12625" lon="9.12968">
        <ele>944.1521</ele>
        <time>2014-06-24T06:51:47Z</time>
      </trkpt>
      <trkpt lat="42.12629" lon="9.12948">
        <ele>945.113281</ele>
        <time>2014-06-24T06:52:00Z</time>
      </trkpt>
      <trkpt lat="42.12636" lon="9.12932">
        <ele>947.516602</ele>
        <time>2014-06-24T06:52:14Z</time>
      </trkpt>
      <trkpt lat="42.12647" lon="9.12918">
        <ele>949.439209</ele>
        <time>2014-06-24T06:52:32Z</time>
      </trkpt>
      <trkpt lat="42.12648" lon="9.1291">
        <ele>950.881104</ele>
        <time>2014-06-24T06:52:46Z</time>
      </trkpt>
      <trkpt lat="42.12628" lon="9.1291">
        <ele>951.842529</ele>
        <time>2014-06-24T06:53:03Z</time>
      </trkpt>
      <trkpt lat="42.12624" lon="9.12909">
        <ele>951.842529</ele>
        <time>2014-06-24T06:53:07Z</time>
      </trkpt>
      <trkpt lat="42.12615" lon="9.12909">
        <ele>951.842529</ele>
        <time>2014-06-24T06:53:15Z</time>
      </trkpt>
      <trkpt lat="42.12593" lon="9.12904">
        <ele>952.803711</ele>
        <time>2014-06-24T06:53:33Z</time>
      </trkpt>
      <trkpt lat="42.12583" lon="9.12898">
        <ele>953.284424</ele>
        <time>2014-06-24T06:53:47Z</time>
      </trkpt>
      <trkpt lat="42.12575" lon="9.12892">
        <ele>953.765137</ele>
        <time>2014-06-24T06:54:19Z</time>
      </trkpt>
      <trkpt lat="42.12569" lon="9.12892">
        <ele>953.765137</ele>
        <time>2014-06-24T06:54:24Z</time>
      </trkpt>
      <trkpt lat="42.12551" lon="9.12886">
        <ele>956.168457</ele>
        <time>2014-06-24T06:54:40Z</time>
      </trkpt>
      <trkpt lat="42.12535" lon="9.12879">
        <ele>957.129883</ele>
        <time>2014-06-24T06:54:56Z</time>
      </trkpt>
      <trkpt lat="42.12517" lon="9.12873">
        <ele>958.091309</ele>
        <time>2014-06-24T06:55:12Z</time>
      </trkpt>
      <trkpt lat="42.12516" lon="9.12872">
        <ele>958.091309</ele>
        <time>2014-06-24T06:55:13Z</time>
      </trkpt>
      <trkpt lat="42.12493" lon="9.12863">
        <ele>959.533203</ele>
        <time>2014-06-24T06:55:33Z</time>
      </trkpt>
      <trkpt lat="42.12468" lon="9.12853">
        <ele>960.975098</ele>
        <time>2014-06-24T06:55:53Z</time>
      </trkpt>
      <trkpt lat="42.12449" lon="9.12844">
        <ele>961.936523</ele>
        <time>2014-06-24T06:56:09Z</time>
      </trkpt>
      <trkpt lat="42.12433" lon="9.12833">
        <ele>962.897705</ele>
        <time>2014-06-24T06:56:23Z</time>
      </trkpt>
      <trkpt lat="42.1241" lon="9.12815">
        <ele>964.820313</ele>
        <time>2014-06-24T06:56:44Z</time>
      </trkpt>
      <trkpt lat="42.12394" lon="9.12813">
        <ele>965.781738</ele>
        <time>2014-06-24T06:57:00Z</time>
      </trkpt>
      <trkpt lat="42.12377" lon="9.12819">
        <ele>965.781738</ele>
        <time>2014-06-24T06:57:15Z</time>
      </trkpt>
      <trkpt lat="42.12359" lon="9.12826">
        <ele>966.262207</ele>
        <time>2014-06-24T06:57:30Z</time>
      </trkpt>
      <trkpt lat="42.12349" lon="9.1283">
        <ele>967.223633</ele>
        <time>2014-06-24T06:57:37Z</time>
      </trkpt>
      <trkpt lat="42.1233" lon="9.12843">
        <ele>968.665527</ele>
        <time>2014-06-24T06:57:54Z</time>
      </trkpt>
      <trkpt lat="42.12312" lon="9.12855">
        <ele>969.14624</ele>
        <time>2014-06-24T06:58:11Z</time>
      </trkpt>
      <trkpt lat="42.12289" lon="9.12864">
        <ele>969.626953</ele>
        <time>2014-06-24T06:58:29Z</time>
      </trkpt>
      <trkpt lat="42.1227" lon="9.12862">
        <ele>969.626953</ele>
        <time>2014-06-24T06:58:44Z</time>
      </trkpt>
      <trkpt lat="42.12257" lon="9.12855">
        <ele>970.107422</ele>
        <time>2014-06-24T06:59:00Z</time>
      </trkpt>
      <trkpt lat="42.12235" lon="9.12855">
        <ele>972.510986</ele>
        <time>2014-06-24T06:59:18Z</time>
      </trkpt>
      <trkpt lat="42.12222" lon="9.12857">
        <ele>972.991699</ele>
        <time>2014-06-24T06:59:29Z</time>
      </trkpt>
      <trkpt lat="42.12206" lon="9.12847">
        <ele>973.472412</ele>
        <time>2014-06-24T06:59:44Z</time>
      </trkpt>
      <trkpt lat="42.12201" lon="9.12842">
        <ele>973.472412</ele>
        <time>2014-06-24T06:59:49Z</time>
      </trkpt>
      <trkpt lat="42.12179" lon="9.12814">
        <ele>974.914307</ele>
        <time>2014-06-24T07:00:13Z</time>
      </trkpt>
      <trkpt lat="42.12164" lon="9.12792">
        <ele>976.836914</ele>
        <time>2014-06-24T07:00:32Z</time>
      </trkpt>
      <trkpt lat="42.1216" lon="9.12787">
        <ele>977.317627</ele>
        <time>2014-06-24T07:00:37Z</time>
      </trkpt>
      <trkpt lat="42.12153" lon="9.12786">
        <ele>977.798096</ele>
        <time>2014-06-24T07:00:50Z</time>
      </trkpt>
      <trkpt lat="42.12146" lon="9.12782">
        <ele>978.759521</ele>
        <time>2014-06-24T07:00:58Z</time>
      </trkpt>
      <trkpt lat="42.12141" lon="9.12778">
        <ele>978.759521</ele>
        <time>2014-06-24T07:01:02Z</time>
      </trkpt>
      <trkpt lat="42.12139" lon="9.12776">
        <ele>978.759521</ele>
        <time>2014-06-24T07:01:04Z</time>
      </trkpt>
      <trkpt lat="42.12136" lon="9.12774">
        <ele>979.23999</ele>
        <time>2014-06-24T07:01:07Z</time>
      </trkpt>
      <trkpt lat="42.12121" lon="9.12761">
        <ele>980.201416</ele>
        <time>2014-06-24T07:01:21Z</time>
      </trkpt>
      <trkpt lat="42.12109" lon="9.12749">
        <ele>981.643311</ele>
        <time>2014-06-24T07:01:36Z</time>
      </trkpt>
      <trkpt lat="42.12103" lon="9.12736">
        <ele>982.604736</ele>
        <time>2014-06-24T07:01:47Z</time>
      </trkpt>
      <trkpt lat="42.121" lon="9.12731">
        <ele>983.085205</ele>
        <time>2014-06-24T07:01:51Z</time>
      </trkpt>
      <trkpt lat="42.12097" lon="9.12724">
        <ele>983.565918</ele>
        <time>2014-06-24T07:01:56Z</time>
      </trkpt>
      <trkpt lat="42.12092" lon="9.12703">
        <ele>985.008057</ele>
        <time>2014-06-24T07:02:12Z</time>
      </trkpt>
      <trkpt lat="42.12092" lon="9.12702">
        <ele>985.008057</ele>
        <time>2014-06-24T07:02:13Z</time>
      </trkpt>
      <trkpt lat="42.12089" lon="9.12698">
        <ele>985.969238</ele>
        <time>2014-06-24T07:02:16Z</time>
      </trkpt>
      <trkpt lat="42.12085" lon="9.1269">
        <ele>986.449951</ele>
        <time>2014-06-24T07:02:26Z</time>
      </trkpt>
      <trkpt lat="42.12082" lon="9.12687">
        <ele>985.969238</ele>
        <time>2014-06-24T07:02:29Z</time>
      </trkpt>
      <trkpt lat="42.12074" lon="9.12664">
        <ele>987.891846</ele>
        <time>2014-06-24T07:02:45Z</time>
      </trkpt>
      <trkpt lat="42.12072" lon="9.12651">
        <ele>989.333984</ele>
        <time>2014-06-24T07:02:56Z</time>
      </trkpt>
      <trkpt lat="42.12063" lon="9.12623">
        <ele>990.775879</ele>
        <time>2014-06-24T07:03:14Z</time>
      </trkpt>
      <trkpt lat="42.12058" lon="9.1261">
        <ele>992.218018</ele>
        <time>2014-06-24T07:03:23Z</time>
      </trkpt>
      <trkpt lat="42.12053" lon="9.12587">
        <ele>994.140625</ele>
        <time>2014-06-24T07:03:38Z</time>
      </trkpt>
      <trkpt lat="42.12052" lon="9.12582">
        <ele>994.140625</ele>
        <time>2014-06-24T07:03:42Z</time>
      </trkpt>
      <trkpt lat="42.12051" lon="9.12561">
        <ele>995.58252</ele>
        <time>2014-06-24T07:03:57Z</time>
      </trkpt>
      <trkpt lat="42.12055" lon="9.12544">
        <ele>997.505127</ele>
        <time>2014-06-24T07:04:10Z</time>
      </trkpt>
      <trkpt lat="42.12065" lon="9.12533">
        <ele>998.947021</ele>
        <time>2014-06-24T07:04:23Z</time>
      </trkpt>
      <trkpt lat="42.12079" lon="9.12526">
        <ele>1001.350342</ele>
        <time>2014-06-24T07:04:38Z</time>
      </trkpt>
      <trkpt lat="42.12086" lon="9.12516">
        <ele>1003.272949</ele>
        <time>2014-06-24T07:04:51Z</time>
      </trkpt>
      <trkpt lat="42.12079" lon="9.12496">
        <ele>1003.753662</ele>
        <time>2014-06-24T07:05:09Z</time>
      </trkpt>
      <trkpt lat="42.12074" lon="9.1248">
        <ele>1004.715088</ele>
        <time>2014-06-24T07:05:21Z</time>
      </trkpt>
      <trkpt lat="42.12071" lon="9.12458">
        <ele>1007.118408</ele>
        <time>2014-06-24T07:05:35Z</time>
      </trkpt>
      <trkpt lat="42.1207" lon="9.12455">
        <ele>1006.637695</ele>
        <time>2014-06-24T07:05:37Z</time>
      </trkpt>
      <trkpt lat="42.12067" lon="9.12439">
        <ele>1007.599121</ele>
        <time>2014-06-24T07:05:51Z</time>
      </trkpt>
      <trkpt lat="42.12064" lon="9.12426">
        <ele>1010.002197</ele>
        <time>2014-06-24T07:06:02Z</time>
      </trkpt>
      <trkpt lat="42.12058" lon="9.12414">
        <ele>1009.521729</ele>
        <time>2014-06-24T07:06:12Z</time>
      </trkpt>
      <trkpt lat="42.12055" lon="9.12411">
        <ele>1010.48291</ele>
        <time>2014-06-24T07:06:15Z</time>
      </trkpt>
      <trkpt lat="42.12055" lon="9.1241">
        <ele>1010.963623</ele>
        <time>2014-06-24T07:06:16Z</time>
      </trkpt>
      <trkpt lat="42.12047" lon="9.1239">
        <ele>1012.88623</ele>
        <time>2014-06-24T07:06:33Z</time>
      </trkpt>
      <trkpt lat="42.12043" lon="9.1238">
        <ele>1012.88623</ele>
        <time>2014-06-24T07:06:43Z</time>
      </trkpt>
      <trkpt lat="42.12038" lon="9.12372">
        <ele>1013.847412</ele>
        <time>2014-06-24T07:06:54Z</time>
      </trkpt>
      <trkpt lat="42.12032" lon="9.12363">
        <ele>1015.289551</ele>
        <time>2014-06-24T07:07:11Z</time>
      </trkpt>
      <trkpt lat="42.12027" lon="9.12357">
        <ele>1016.250732</ele>
        <time>2014-06-24T07:07:19Z</time>
      </trkpt>
      <trkpt lat="42.12014" lon="9.12343">
        <ele>1016.731445</ele>
        <time>2014-06-24T07:07:35Z</time>
      </trkpt>
      <trkpt lat="42.12012" lon="9.12339">
        <ele>1017.212158</ele>
        <time>2014-06-24T07:07:38Z</time>
      </trkpt>
      <trkpt lat="42.12" lon="9.12327">
        <ele>1018.654053</ele>
        <time>2014-06-24T07:07:50Z</time>
      </trkpt>
      <trkpt lat="42.11999" lon="9.12326">
        <ele>1018.654053</ele>
        <time>2014-06-24T07:07:51Z</time>
      </trkpt>
      <trkpt lat="42.11997" lon="9.12321">
        <ele>1019.615479</ele>
        <time>2014-06-24T07:07:55Z</time>
      </trkpt>
      <trkpt lat="42.11982" lon="9.12308">
        <ele>1021.538086</ele>
        <time>2014-06-24T07:08:11Z</time>
      </trkpt>
      <trkpt lat="42.11979" lon="9.12304">
        <ele>1022.018799</ele>
        <time>2014-06-24T07:08:16Z</time>
      </trkpt>
      <trkpt lat="42.11961" lon="9.12292">
        <ele>1023.941406</ele>
        <time>2014-06-24T07:08:32Z</time>
      </trkpt>
      <trkpt lat="42.11949" lon="9.12282">
        <ele>1025.383301</ele>
        <time>2014-06-24T07:08:44Z</time>
      </trkpt>
      <trkpt lat="42.1194" lon="9.12268">
        <ele>1026.344727</ele>
        <time>2014-06-24T07:08:56Z</time>
      </trkpt>
      <trkpt lat="42.1193" lon="9.12249">
        <ele>1028.267334</ele>
        <time>2014-06-24T07:09:13Z</time>
      </trkpt>
      <trkpt lat="42.11928" lon="9.12243">
        <ele>1028.748047</ele>
        <time>2014-06-24T07:09:18Z</time>
      </trkpt>
      <trkpt lat="42.11926" lon="9.12223">
        <ele>1030.189941</ele>
        <time>2014-06-24T07:09:31Z</time>
      </trkpt>
      <trkpt lat="42.11925" lon="9.12219">
        <ele>1030.189941</ele>
        <time>2014-06-24T07:09:33Z</time>
      </trkpt>
      <trkpt lat="42.11922" lon="9.12213">
        <ele>1030.670654</ele>
        <time>2014-06-24T07:09:38Z</time>
      </trkpt>
      <trkpt lat="42.11921" lon="9.12207">
        <ele>1030.670654</ele>
        <time>2014-06-24T07:09:42Z</time>
      </trkpt>
      <trkpt lat="42.11919" lon="9.12205">
        <ele>1030.670654</ele>
        <time>2014-06-24T07:09:44Z</time>
      </trkpt>
      <trkpt lat="42.11914" lon="9.12191">
        <ele>1031.631836</ele>
        <time>2014-06-24T07:09:54Z</time>
      </trkpt>
      <trkpt lat="42.11914" lon="9.12187">
        <ele>1032.112549</ele>
        <time>2014-06-24T07:09:57Z</time>
      </trkpt>
      <trkpt lat="42.11908" lon="9.12171">
        <ele>1033.554443</ele>
        <time>2014-06-24T07:10:08Z</time>
      </trkpt>
      <trkpt lat="42.11902" lon="9.12151">
        <ele>1034.515869</ele>
        <time>2014-06-24T07:10:22Z</time>
      </trkpt>
      <trkpt lat="42.11898" lon="9.12134">
        <ele>1035.477051</ele>
        <time>2014-06-24T07:10:33Z</time>
      </trkpt>
      <trkpt lat="42.11894" lon="9.12126">
        <ele>1035.957764</ele>
        <time>2014-06-24T07:10:39Z</time>
      </trkpt>
      <trkpt lat="42.11893" lon="9.12121">
        <ele>1035.957764</ele>
        <time>2014-06-24T07:10:42Z</time>
      </trkpt>
      <trkpt lat="42.11883" lon="9.12102">
        <ele>1036.919189</ele>
        <time>2014-06-24T07:10:57Z</time>
      </trkpt>
      <trkpt lat="42.11872" lon="9.12093">
        <ele>1038.361328</ele>
        <time>2014-06-24T07:11:09Z</time>
      </trkpt>
      <trkpt lat="42.11866" lon="9.1209">
        <ele>1039.32251</ele>
        <time>2014-06-24T07:11:15Z</time>
      </trkpt>
      <trkpt lat="42.11855" lon="9.12082">
        <ele>1039.803223</ele>
        <time>2014-06-24T07:11:29Z</time>
      </trkpt>
      <trkpt lat="42.11851" lon="9.12073">
        <ele>1040.283936</ele>
        <time>2014-06-24T07:11:36Z</time>
      </trkpt>
      <trkpt lat="42.11837" lon="9.12058">
        <ele>1041.245117</ele>
        <time>2014-06-24T07:11:51Z</time>
      </trkpt>
      <trkpt lat="42.11833" lon="9.12054">
        <ele>1041.245117</ele>
        <time>2014-06-24T07:11:55Z</time>
      </trkpt>
      <trkpt lat="42.11829" lon="9.1205">
        <ele>1041.245117</ele>
        <time>2014-06-24T07:11:59Z</time>
      </trkpt>
      <trkpt lat="42.11813" lon="9.12035">
        <ele>1042.687256</ele>
        <time>2014-06-24T07:12:16Z</time>
      </trkpt>
      <trkpt lat="42.11795" lon="9.12024">
        <ele>1044.609619</ele>
        <time>2014-06-24T07:12:33Z</time>
      </trkpt>
      <trkpt lat="42.11785" lon="9.1202">
        <ele>1045.571045</ele>
        <time>2014-06-24T07:12:41Z</time>
      </trkpt>
      <trkpt lat="42.11779" lon="9.11995">
        <ele>1046.532471</ele>
        <time>2014-06-24T07:12:57Z</time>
      </trkpt>
      <trkpt lat="42.11774" lon="9.11987">
        <ele>1046.051758</ele>
        <time>2014-06-24T07:13:03Z</time>
      </trkpt>
      <trkpt lat="42.11767" lon="9.11964">
        <ele>1048.454834</ele>
        <time>2014-06-24T07:13:18Z</time>
      </trkpt>
      <trkpt lat="42.11766" lon="9.11961">
        <ele>1048.454834</ele>
        <time>2014-06-24T07:13:20Z</time>
      </trkpt>
      <trkpt lat="42.11764" lon="9.1195">
        <ele>1048.454834</ele>
        <time>2014-06-24T07:13:27Z</time>
      </trkpt>
      <trkpt lat="42.11758" lon="9.11938">
        <ele>1048.935547</ele>
        <time>2014-06-24T07:13:35Z</time>
      </trkpt>
      <trkpt lat="42.1175" lon="9.11919">
        <ele>1050.858154</ele>
        <time>2014-06-24T07:13:48Z</time>
      </trkpt>
      <trkpt lat="42.11746" lon="9.11908">
        <ele>1050.858154</ele>
        <time>2014-06-24T07:13:56Z</time>
      </trkpt>
      <trkpt lat="42.11747" lon="9.1189">
        <ele>1051.81958</ele>
        <time>2014-06-24T07:14:11Z</time>
      </trkpt>
      <trkpt lat="42.11748" lon="9.11874">
        <ele>1051.81958</ele>
        <time>2014-06-24T07:14:22Z</time>
      </trkpt>
      <trkpt lat="42.11745" lon="9.11854">
        <ele>1052.781006</ele>
        <time>2014-06-24T07:14:36Z</time>
      </trkpt>
      <trkpt lat="42.11745" lon="9.11851">
        <ele>1052.781006</ele>
        <time>2014-06-24T07:14:38Z</time>
      </trkpt>
      <trkpt lat="42.11741" lon="9.11838">
        <ele>1054.703613</ele>
        <time>2014-06-24T07:14:50Z</time>
      </trkpt>
      <trkpt lat="42.11741" lon="9.11835">
        <ele>1055.184326</ele>
        <time>2014-06-24T07:14:52Z</time>
      </trkpt>
      <trkpt lat="42.1174" lon="9.11817">
        <ele>1056.626221</ele>
        <time>2014-06-24T07:15:08Z</time>
      </trkpt>
      <trkpt lat="42.1174" lon="9.11801">
        <ele>1056.626221</ele>
        <time>2014-06-24T07:15:20Z</time>
      </trkpt>
      <trkpt lat="42.11739" lon="9.11799">
        <ele>1056.626221</ele>
        <time>2014-06-24T07:15:22Z</time>
      </trkpt>
      <trkpt lat="42.11737" lon="9.11793">
        <ele>1056.145508</ele>
        <time>2014-06-24T07:15:26Z</time>
      </trkpt>
      <trkpt lat="42.11737" lon="9.11776">
        <ele>1057.587646</ele>
        <time>2014-06-24T07:15:39Z</time>
      </trkpt>
      <trkpt lat="42.11742" lon="9.11759">
        <ele>1059.990723</ele>
        <time>2014-06-24T07:15:52Z</time>
      </trkpt>
      <trkpt lat="42.11737" lon="9.11744">
        <ele>1059.990723</ele>
        <time>2014-06-24T07:16:05Z</time>
      </trkpt>
      <trkpt lat="42.1173" lon="9.11738">
        <ele>1059.990723</ele>
        <time>2014-06-24T07:16:15Z</time>
      </trkpt>
      <trkpt lat="42.11718" lon="9.11722">
        <ele>1059.990723</ele>
        <time>2014-06-24T07:16:30Z</time>
      </trkpt>
      <trkpt lat="42.11718" lon="9.11719">
        <ele>1059.990723</ele>
        <time>2014-06-24T07:16:32Z</time>
      </trkpt>
      <trkpt lat="42.11713" lon="9.1171">
        <ele>1060.471436</ele>
        <time>2014-06-24T07:16:38Z</time>
      </trkpt>
      <trkpt lat="42.11706" lon="9.11696">
        <ele>1061.913574</ele>
        <time>2014-06-24T07:16:52Z</time>
      </trkpt>
      <trkpt lat="42.11705" lon="9.11693">
        <ele>1061.913574</ele>
        <time>2014-06-24T07:16:54Z</time>
      </trkpt>
      <trkpt lat="42.11698" lon="9.11679">
        <ele>1062.874756</ele>
        <time>2014-06-24T07:17:07Z</time>
      </trkpt>
      <trkpt lat="42.11707" lon="9.11671">
        <ele>1063.355469</ele>
        <time>2014-06-24T07:17:19Z</time>
      </trkpt>
      <trkpt lat="42.11714" lon="9.11659">
        <ele>1064.31665</ele>
        <time>2014-06-24T07:17:35Z</time>
      </trkpt>
      <trkpt lat="42.11721" lon="9.11648">
        <ele>1064.797363</ele>
        <time>2014-06-24T07:17:46Z</time>
      </trkpt>
      <trkpt lat="42.11727" lon="9.11636">
        <ele>1066.719971</ele>
        <time>2014-06-24T07:18:03Z</time>
      </trkpt>
      <trkpt lat="42.11729" lon="9.11623">
        <ele>1067.200684</ele>
        <time>2014-06-24T07:18:16Z</time>
      </trkpt>
      <trkpt lat="42.11727" lon="9.11616">
        <ele>1068.162109</ele>
        <time>2014-06-24T07:18:25Z</time>
      </trkpt>
      <trkpt lat="42.11735" lon="9.11592">
        <ele>1070.56543</ele>
        <time>2014-06-24T07:18:38Z</time>
      </trkpt>
      <trkpt lat="42.11736" lon="9.1159">
        <ele>1070.56543</ele>
        <time>2014-06-24T07:18:39Z</time>
      </trkpt>
      <trkpt lat="42.11736" lon="9.11577">
        <ele>1071.526611</ele>
        <time>2014-06-24T07:18:51Z</time>
      </trkpt>
      <trkpt lat="42.11734" lon="9.11571">
        <ele>1072.007324</ele>
        <time>2014-06-24T07:18:56Z</time>
      </trkpt>
      <trkpt lat="42.11743" lon="9.11554">
        <ele>1071.526611</ele>
        <time>2014-06-24T07:19:07Z</time>
      </trkpt>
      <trkpt lat="42.11747" lon="9.1154">
        <ele>1073.449463</ele>
        <time>2014-06-24T07:19:18Z</time>
      </trkpt>
      <trkpt lat="42.11747" lon="9.11525">
        <ele>1073.929932</ele>
        <time>2014-06-24T07:19:28Z</time>
      </trkpt>
      <trkpt lat="42.11745" lon="9.11514">
        <ele>1074.410645</ele>
        <time>2014-06-24T07:19:38Z</time>
      </trkpt>
      <trkpt lat="42.1174" lon="9.11504">
        <ele>1074.410645</ele>
        <time>2014-06-24T07:19:47Z</time>
      </trkpt>
      <trkpt lat="42.1174" lon="9.11501">
        <ele>1074.410645</ele>
        <time>2014-06-24T07:19:49Z</time>
      </trkpt>
      <trkpt lat="42.11736" lon="9.11493">
        <ele>1074.410645</ele>
        <time>2014-06-24T07:19:54Z</time>
      </trkpt>
      <trkpt lat="42.11739" lon="9.11486">
        <ele>1075.371826</ele>
        <time>2014-06-24T07:19:58Z</time>
      </trkpt>
      <trkpt lat="42.1174" lon="9.1147">
        <ele>1075.852539</ele>
        <time>2014-06-24T07:20:07Z</time>
      </trkpt>
      <trkpt lat="42.11734" lon="9.11459">
        <ele>1076.813965</ele>
        <time>2014-06-24T07:20:20Z</time>
      </trkpt>
      <trkpt lat="42.11728" lon="9.11437">
        <ele>1078.736572</ele>
        <time>2014-06-24T07:20:39Z</time>
      </trkpt>
      <trkpt lat="42.11721" lon="9.11427">
        <ele>1078.736572</ele>
        <time>2014-06-24T07:20:50Z</time>
      </trkpt>
      <trkpt lat="42.11719" lon="9.11417">
        <ele>1079.217041</ele>
        <time>2014-06-24T07:20:57Z</time>
      </trkpt>
      <trkpt lat="42.11718" lon="9.11404">
        <ele>1080.178467</ele>
        <time>2014-06-24T07:21:03Z</time>
      </trkpt>
      <trkpt lat="42.11716" lon="9.11397">
        <ele>1081.620361</ele>
        <time>2014-06-24T07:21:06Z</time>
      </trkpt>
      <trkpt lat="42.11711" lon="9.11382">
        <ele>1081.620361</ele>
        <time>2014-06-24T07:21:18Z</time>
      </trkpt>
      <trkpt lat="42.11706" lon="9.11372">
        <ele>1082.581787</ele>
        <time>2014-06-24T07:21:27Z</time>
      </trkpt>
      <trkpt lat="42.11704" lon="9.1136">
        <ele>1082.581787</ele>
        <time>2014-06-24T07:21:36Z</time>
      </trkpt>
      <trkpt lat="42.11702" lon="9.11351">
        <ele>1083.062256</ele>
        <time>2014-06-24T07:21:41Z</time>
      </trkpt>
      <trkpt lat="42.11695" lon="9.11337">
        <ele>1084.023926</ele>
        <time>2014-06-24T07:21:50Z</time>
      </trkpt>
      <trkpt lat="42.11694" lon="9.11327">
        <ele>1084.504639</ele>
        <time>2014-06-24T07:21:55Z</time>
      </trkpt>
      <trkpt lat="42.11692" lon="9.11322">
        <ele>1085.46582</ele>
        <time>2014-06-24T07:21:58Z</time>
      </trkpt>
      <trkpt lat="42.11684" lon="9.1131">
        <ele>1084.504639</ele>
        <time>2014-06-24T07:22:08Z</time>
      </trkpt>
      <trkpt lat="42.11672" lon="9.11296">
        <ele>1085.946533</ele>
        <time>2014-06-24T07:22:20Z</time>
      </trkpt>
      <trkpt lat="42.11671" lon="9.11289">
        <ele>1085.946533</ele>
        <time>2014-06-24T07:22:24Z</time>
      </trkpt>
      <trkpt lat="42.11667" lon="9.11273">
        <ele>1085.946533</ele>
        <time>2014-06-24T07:22:41Z</time>
      </trkpt>
      <trkpt lat="42.11664" lon="9.11256">
        <ele>1084.985352</ele>
        <time>2014-06-24T07:22:51Z</time>
      </trkpt>
      <trkpt lat="42.11657" lon="9.11242">
        <ele>1084.504639</ele>
        <time>2014-06-24T07:23:03Z</time>
      </trkpt>
      <trkpt lat="42.11647" lon="9.11239">
        <ele>1083.542969</ele>
        <time>2014-06-24T07:23:15Z</time>
      </trkpt>
      <trkpt lat="42.11642" lon="9.11242">
        <ele>1083.062256</ele>
        <time>2014-06-24T07:23:31Z</time>
      </trkpt>
      <trkpt lat="42.11632" lon="9.11253">
        <ele>1082.581787</ele>
        <time>2014-06-24T07:23:49Z</time>
      </trkpt>
      <trkpt lat="42.11626" lon="9.11257">
        <ele>1083.062256</ele>
        <time>2014-06-24T07:23:55Z</time>
      </trkpt>
      <trkpt lat="42.11633" lon="9.11244">
        <ele>1083.062256</ele>
        <time>2014-06-24T07:24:04Z</time>
      </trkpt>
      <trkpt lat="42.11638" lon="9.11236">
        <ele>1083.062256</ele>
        <time>2014-06-24T07:24:14Z</time>
      </trkpt>
      <trkpt lat="42.11637" lon="9.11243">
        <ele>1083.062256</ele>
        <time>2014-06-24T07:24:33Z</time>
      </trkpt>
      <trkpt lat="42.1164" lon="9.1124">
        <ele>1084.504639</ele>
        <time>2014-06-24T07:24:42Z</time>
      </trkpt>
      <trkpt lat="42.11631" lon="9.11239">
        <ele>1084.023926</ele>
        <time>2014-06-24T07:24:57Z</time>
      </trkpt>
      <trkpt lat="42.11634" lon="9.11228">
        <ele>1084.023926</ele>
        <time>2014-06-24T07:25:03Z</time>
      </trkpt>
      <trkpt lat="42.11634" lon="9.11224">
        <ele>1085.946533</ele>
        <time>2014-06-24T07:25:06Z</time>
      </trkpt>
      <trkpt lat="42.11633" lon="9.11221">
        <ele>1084.023926</ele>
        <time>2014-06-24T07:25:08Z</time>
      </trkpt>
      <trkpt lat="42.11621" lon="9.11206">
        <ele>1085.46582</ele>
        <time>2014-06-24T07:25:19Z</time>
      </trkpt>
      <trkpt lat="42.11621" lon="9.11203">
        <ele>1085.946533</ele>
        <time>2014-06-24T07:25:22Z</time>
      </trkpt>
      <trkpt lat="42.1162" lon="9.11198">
        <ele>1085.46582</ele>
        <time>2014-06-24T07:25:26Z</time>
      </trkpt>
      <trkpt lat="42.11621" lon="9.11196">
        <ele>1085.946533</ele>
        <time>2014-06-24T07:25:28Z</time>
      </trkpt>
      <trkpt lat="42.11617" lon="9.11185">
        <ele>1086.427246</ele>
        <time>2014-06-24T07:25:37Z</time>
      </trkpt>
      <trkpt lat="42.11612" lon="9.11184">
        <ele>1087.869141</ele>
        <time>2014-06-24T07:25:47Z</time>
      </trkpt>
      <trkpt lat="42.11609" lon="9.11175">
        <ele>1087.869141</ele>
        <time>2014-06-24T07:25:54Z</time>
      </trkpt>
      <trkpt lat="42.11604" lon="9.11161">
        <ele>1088.349854</ele>
        <time>2014-06-24T07:26:07Z</time>
      </trkpt>
      <trkpt lat="42.11604" lon="9.11156">
        <ele>1090.272461</ele>
        <time>2014-06-24T07:26:14Z</time>
      </trkpt>
      <trkpt lat="42.11605" lon="9.11138">
        <ele>1092.195068</ele>
        <time>2014-06-24T07:26:27Z</time>
      </trkpt>
      <trkpt lat="42.11609" lon="9.11129">
        <ele>1092.675781</ele>
        <time>2014-06-24T07:26:37Z</time>
      </trkpt>
      <trkpt lat="42.1161" lon="9.11118">
        <ele>1093.15625</ele>
        <time>2014-06-24T07:26:50Z</time>
      </trkpt>
      <trkpt lat="42.11616" lon="9.1111">
        <ele>1094.117676</ele>
        <time>2014-06-24T07:26:57Z</time>
      </trkpt>
      <trkpt lat="42.11618" lon="9.11103">
        <ele>1094.598145</ele>
        <time>2014-06-24T07:27:10Z</time>
      </trkpt>
      <trkpt lat="42.11626" lon="9.11093">
        <ele>1096.520996</ele>
        <time>2014-06-24T07:27:24Z</time>
      </trkpt>
      <trkpt lat="42.11628" lon="9.11092">
        <ele>1095.55957</ele>
        <time>2014-06-24T07:27:37Z</time>
      </trkpt>
      <trkpt lat="42.11629" lon="9.11092">
        <ele>1096.040283</ele>
        <time>2014-06-24T07:27:38Z</time>
      </trkpt>
      <trkpt lat="42.11634" lon="9.11089">
        <ele>1096.040283</ele>
        <time>2014-06-24T07:27:41Z</time>
      </trkpt>
      <trkpt lat="42.11636" lon="9.11077">
        <ele>1097.962891</ele>
        <time>2014-06-24T07:27:51Z</time>
      </trkpt>
      <trkpt lat="42.11642" lon="9.11068">
        <ele>1098.924072</ele>
        <time>2014-06-24T07:28:05Z</time>
      </trkpt>
      <trkpt lat="42.11645" lon="9.11064">
        <ele>1100.366455</ele>
        <time>2014-06-24T07:28:17Z</time>
      </trkpt>
      <trkpt lat="42.11649" lon="9.11056">
        <ele>1100.846924</ele>
        <time>2014-06-24T07:28:29Z</time>
      </trkpt>
      <trkpt lat="42.11652" lon="9.11049">
        <ele>1101.327637</ele>
        <time>2014-06-24T07:28:41Z</time>
      </trkpt>
      <trkpt lat="42.11657" lon="9.11048">
        <ele>1102.288818</ele>
        <time>2014-06-24T07:28:54Z</time>
      </trkpt>
      <trkpt lat="42.11663" lon="9.11045">
        <ele>1105.172852</ele>
        <time>2014-06-24T07:29:13Z</time>
      </trkpt>
      <trkpt lat="42.11656" lon="9.11051">
        <ele>1104.692139</ele>
        <time>2014-06-24T07:29:29Z</time>
      </trkpt>
      <trkpt lat="42.11665" lon="9.11045">
        <ele>1105.653564</ele>
        <time>2014-06-24T07:29:44Z</time>
      </trkpt>
      <trkpt lat="42.11666" lon="9.11041">
        <ele>1106.134033</ele>
        <time>2014-06-24T07:29:53Z</time>
      </trkpt>
      <trkpt lat="42.11664" lon="9.11037">
        <ele>1106.614746</ele>
        <time>2014-06-24T07:30:14Z</time>
      </trkpt>
      <trkpt lat="42.11662" lon="9.11031">
        <ele>1109.498779</ele>
        <time>2014-06-24T07:30:45Z</time>
      </trkpt>
      <trkpt lat="42.11662" lon="9.11024">
        <ele>1109.979248</ele>
        <time>2014-06-24T07:30:54Z</time>
      </trkpt>
      <trkpt lat="42.11662" lon="9.11024">
        <ele>1109.979248</ele>
        <time>2014-06-24T07:31:19Z</time>
      </trkpt>
      <trkpt lat="42.11666" lon="9.11023">
        <ele>1109.979248</ele>
        <time>2014-06-24T07:31:59Z</time>
      </trkpt>
      <trkpt lat="42.11661" lon="9.11024">
        <ele>1110.459961</ele>
        <time>2014-06-24T07:32:39Z</time>
      </trkpt>
      <trkpt lat="42.11653" lon="9.11026">
        <ele>1109.979248</ele>
        <time>2014-06-24T07:33:18Z</time>
      </trkpt>
      <trkpt lat="42.11657" lon="9.11029">
        <ele>1109.979248</ele>
        <time>2014-06-24T07:33:28Z</time>
      </trkpt>
      <trkpt lat="42.11668" lon="9.11024">
        <ele>1110.940674</ele>
        <time>2014-06-24T07:34:13Z</time>
      </trkpt>
      <trkpt lat="42.11662" lon="9.11022">
        <ele>1111.9021</ele>
        <time>2014-06-24T07:34:30Z</time>
      </trkpt>
      <trkpt lat="42.11658" lon="9.11014">
        <ele>1111.421387</ele>
        <time>2014-06-24T07:35:07Z</time>
      </trkpt>
      <trkpt lat="42.11662" lon="9.11017">
        <ele>1111.421387</ele>
        <time>2014-06-24T07:35:53Z</time>
      </trkpt>
      <trkpt lat="42.11671" lon="9.11013">
        <ele>1112.863281</ele>
        <time>2014-06-24T07:36:15Z</time>
      </trkpt>
      <trkpt lat="42.11675" lon="9.11007">
        <ele>1114.785889</ele>
        <time>2014-06-24T07:36:27Z</time>
      </trkpt>
      <trkpt lat="42.11685" lon="9.11">
        <ele>1115.747314</ele>
        <time>2014-06-24T07:36:45Z</time>
      </trkpt>
      <trkpt lat="42.11696" lon="9.10991">
        <ele>1117.189453</ele>
        <time>2014-06-24T07:37:00Z</time>
      </trkpt>
      <trkpt lat="42.11707" lon="9.10983">
        <ele>1120.073242</ele>
        <time>2014-06-24T07:37:18Z</time>
      </trkpt>
      <trkpt lat="42.11711" lon="9.10975">
        <ele>1119.592773</ele>
        <time>2014-06-24T07:37:29Z</time>
      </trkpt>
      <trkpt lat="42.11715" lon="9.10964">
        <ele>1121.99585</ele>
        <time>2014-06-24T07:37:45Z</time>
      </trkpt>
      <trkpt lat="42.11728" lon="9.10968">
        <ele>1121.99585</ele>
        <time>2014-06-24T07:37:57Z</time>
      </trkpt>
      <trkpt lat="42.11737" lon="9.10979">
        <ele>1122.476563</ele>
        <time>2014-06-24T07:38:13Z</time>
      </trkpt>
      <trkpt lat="42.1173" lon="9.10977">
        <ele>1121.99585</ele>
        <time>2014-06-24T07:38:25Z</time>
      </trkpt>
      <trkpt lat="42.11726" lon="9.10975">
        <ele>1122.957275</ele>
        <time>2014-06-24T07:38:29Z</time>
      </trkpt>
      <trkpt lat="42.11723" lon="9.10962">
        <ele>1122.957275</ele>
        <time>2014-06-24T07:38:41Z</time>
      </trkpt>
      <trkpt lat="42.11724" lon="9.10955">
        <ele>1124.879883</ele>
        <time>2014-06-24T07:38:51Z</time>
      </trkpt>
      <trkpt lat="42.11721" lon="9.10945">
        <ele>1128.244385</ele>
        <time>2014-06-24T07:39:04Z</time>
      </trkpt>
      <trkpt lat="42.11729" lon="9.10939">
        <ele>1129.205566</ele>
        <time>2014-06-24T07:39:16Z</time>
      </trkpt>
      <trkpt lat="42.11733" lon="9.10933">
        <ele>1132.089844</ele>
        <time>2014-06-24T07:39:28Z</time>
      </trkpt>
      <trkpt lat="42.11735" lon="9.10929">
        <ele>1133.051025</ele>
        <time>2014-06-24T07:39:42Z</time>
      </trkpt>
      <trkpt lat="42.11746" lon="9.10914">
        <ele>1134.012451</ele>
        <time>2014-06-24T07:40:10Z</time>
      </trkpt>
      <trkpt lat="42.11756" lon="9.10905">
        <ele>1136.89624</ele>
        <time>2014-06-24T07:40:24Z</time>
      </trkpt>
      <trkpt lat="42.11757" lon="9.10898">
        <ele>1137.857666</ele>
        <time>2014-06-24T07:40:37Z</time>
      </trkpt>
      <trkpt lat="42.11758" lon="9.10895">
        <ele>1138.338379</ele>
        <time>2014-06-24T07:40:44Z</time>
      </trkpt>
      <trkpt lat="42.11766" lon="9.10898">
        <ele>1139.780273</ele>
        <time>2014-06-24T07:40:59Z</time>
      </trkpt>
      <trkpt lat="42.11766" lon="9.10912">
        <ele>1138.819092</ele>
        <time>2014-06-24T07:41:11Z</time>
      </trkpt>
      <trkpt lat="42.11767" lon="9.1091">
        <ele>1139.299561</ele>
        <time>2014-06-24T07:41:54Z</time>
      </trkpt>
      <trkpt lat="42.11779" lon="9.10899">
        <ele>1139.780273</ele>
        <time>2014-06-24T07:42:21Z</time>
      </trkpt>
      <trkpt lat="42.11784" lon="9.109">
        <ele>1139.780273</ele>
        <time>2014-06-24T07:42:32Z</time>
      </trkpt>
      <trkpt lat="42.11787" lon="9.10908">
        <ele>1140.741455</ele>
        <time>2014-06-24T07:42:41Z</time>
      </trkpt>
      <trkpt lat="42.1178" lon="9.10913">
        <ele>1141.222168</ele>
        <time>2014-06-24T07:42:58Z</time>
      </trkpt>
      <trkpt lat="42.11783" lon="9.10898">
        <ele>1142.664307</ele>
        <time>2014-06-24T07:43:23Z</time>
      </trkpt>
      <trkpt lat="42.11788" lon="9.10898">
        <ele>1143.625488</ele>
        <time>2014-06-24T07:43:34Z</time>
      </trkpt>
      <trkpt lat="42.11795" lon="9.10893">
        <ele>1145.548096</ele>
        <time>2014-06-24T07:43:59Z</time>
      </trkpt>
      <trkpt lat="42.11799" lon="9.10895">
        <ele>1145.548096</ele>
        <time>2014-06-24T07:44:04Z</time>
      </trkpt>
      <trkpt lat="42.11805" lon="9.10895">
        <ele>1145.548096</ele>
        <time>2014-06-24T07:44:08Z</time>
      </trkpt>
      <trkpt lat="42.1181" lon="9.10897">
        <ele>1146.98999</ele>
        <time>2014-06-24T07:44:19Z</time>
      </trkpt>
      <trkpt lat="42.11811" lon="9.109">
        <ele>1146.028809</ele>
        <time>2014-06-24T07:44:30Z</time>
      </trkpt>
      <trkpt lat="42.11799" lon="9.1088">
        <ele>1146.509521</ele>
        <time>2014-06-24T07:45:35Z</time>
      </trkpt>
      <trkpt lat="42.11805" lon="9.10889">
        <ele>1147.951416</ele>
        <time>2014-06-24T07:46:43Z</time>
      </trkpt>
      <trkpt lat="42.11805" lon="9.1089">
        <ele>1147.951416</ele>
        <time>2014-06-24T07:46:47Z</time>
      </trkpt>
      <trkpt lat="42.11806" lon="9.10893">
        <ele>1149.874268</ele>
        <time>2014-06-24T07:47:15Z</time>
      </trkpt>
      <trkpt lat="42.11806" lon="9.10894">
        <ele>1148.432129</ele>
        <time>2014-06-24T07:47:28Z</time>
      </trkpt>
      <trkpt lat="42.11796" lon="9.1091">
        <ele>1150.835449</ele>
        <time>2014-06-24T07:48:23Z</time>
      </trkpt>
      <trkpt lat="42.11808" lon="9.10899">
        <ele>1150.835449</ele>
        <time>2014-06-24T07:49:07Z</time>
      </trkpt>
      <trkpt lat="42.11802" lon="9.1089">
        <ele>1151.796875</ele>
        <time>2014-06-24T07:49:25Z</time>
      </trkpt>
      <trkpt lat="42.11793" lon="9.10888">
        <ele>1152.277344</ele>
        <time>2014-06-24T07:49:36Z</time>
      </trkpt>
      <trkpt lat="42.11792" lon="9.10888">
        <ele>1152.758057</ele>
        <time>2014-06-24T07:49:38Z</time>
      </trkpt>
      <trkpt lat="42.11781" lon="9.10885">
        <ele>1152.277344</ele>
        <time>2014-06-24T07:49:55Z</time>
      </trkpt>
      <trkpt lat="42.11784" lon="9.10871">
        <ele>1153.23877</ele>
        <time>2014-06-24T07:50:13Z</time>
      </trkpt>
      <trkpt lat="42.11787" lon="9.10862">
        <ele>1155.64209</ele>
        <time>2014-06-24T07:50:29Z</time>
      </trkpt>
      <trkpt lat="42.11782" lon="9.10859">
        <ele>1157.083984</ele>
        <time>2014-06-24T07:50:45Z</time>
      </trkpt>
      <trkpt lat="42.11782" lon="9.10857">
        <ele>1158.525879</ele>
        <time>2014-06-24T07:50:48Z</time>
      </trkpt>
      <trkpt lat="42.11774" lon="9.10849">
        <ele>1158.525879</ele>
        <time>2014-06-24T07:51:02Z</time>
      </trkpt>
      <trkpt lat="42.11766" lon="9.10843">
        <ele>1159.487305</ele>
        <time>2014-06-24T07:51:35Z</time>
      </trkpt>
      <trkpt lat="42.11756" lon="9.1084">
        <ele>1161.409912</ele>
        <time>2014-06-24T07:51:51Z</time>
      </trkpt>
      <trkpt lat="42.11748" lon="9.10842">
        <ele>1161.890625</ele>
        <time>2014-06-24T07:52:03Z</time>
      </trkpt>
      <trkpt lat="42.11742" lon="9.10841">
        <ele>1162.851807</ele>
        <time>2014-06-24T07:52:16Z</time>
      </trkpt>
      <trkpt lat="42.11733" lon="9.10848">
        <ele>1163.812988</ele>
        <time>2014-06-24T07:52:31Z</time>
      </trkpt>
      <trkpt lat="42.11729" lon="9.10855">
        <ele>1163.33252</ele>
        <time>2014-06-24T07:52:44Z</time>
      </trkpt>
      <trkpt lat="42.11718" lon="9.10862">
        <ele>1163.33252</ele>
        <time>2014-06-24T07:53:01Z</time>
      </trkpt>
      <trkpt lat="42.11711" lon="9.10863">
        <ele>1164.293945</ele>
        <time>2014-06-24T07:53:15Z</time>
      </trkpt>
      <trkpt lat="42.11706" lon="9.10862">
        <ele>1164.774658</ele>
        <time>2014-06-24T07:53:29Z</time>
      </trkpt>
      <trkpt lat="42.11696" lon="9.10866">
        <ele>1166.697266</ele>
        <time>2014-06-24T07:53:44Z</time>
      </trkpt>
      <trkpt lat="42.11688" lon="9.10872">
        <ele>1165.255371</ele>
        <time>2014-06-24T07:53:58Z</time>
      </trkpt>
      <trkpt lat="42.11679" lon="9.10875">
        <ele>1163.812988</ele>
        <time>2014-06-24T07:54:13Z</time>
      </trkpt>
      <trkpt lat="42.11669" lon="9.10875">
        <ele>1164.293945</ele>
        <time>2014-06-24T07:54:27Z</time>
      </trkpt>
      <trkpt lat="42.11659" lon="9.10878">
        <ele>1165.736084</ele>
        <time>2014-06-24T07:54:42Z</time>
      </trkpt>
      <trkpt lat="42.11649" lon="9.10878">
        <ele>1168.619873</ele>
        <time>2014-06-24T07:54:54Z</time>
      </trkpt>
      <trkpt lat="42.1164" lon="9.10876">
        <ele>1170.061768</ele>
        <time>2014-06-24T07:55:08Z</time>
      </trkpt>
      <trkpt lat="42.11635" lon="9.10875">
        <ele>1172.465088</ele>
        <time>2014-06-24T07:55:16Z</time>
      </trkpt>
      <trkpt lat="42.11626" lon="9.1088">
        <ele>1174.387695</ele>
        <time>2014-06-24T07:55:30Z</time>
      </trkpt>
      <trkpt lat="42.11616" lon="9.10889">
        <ele>1175.82959</ele>
        <time>2014-06-24T07:55:43Z</time>
      </trkpt>
      <trkpt lat="42.11608" lon="9.10894">
        <ele>1176.791016</ele>
        <time>2014-06-24T07:55:52Z</time>
      </trkpt>
      <trkpt lat="42.11597" lon="9.10899">
        <ele>1176.791016</ele>
        <time>2014-06-24T07:56:08Z</time>
      </trkpt>
      <trkpt lat="42.11591" lon="9.10901">
        <ele>1177.271729</ele>
        <time>2014-06-24T07:56:22Z</time>
      </trkpt>
      <trkpt lat="42.11584" lon="9.10905">
        <ele>1177.271729</ele>
        <time>2014-06-24T07:56:35Z</time>
      </trkpt>
      <trkpt lat="42.11577" lon="9.10909">
        <ele>1178.23291</ele>
        <time>2014-06-24T07:56:49Z</time>
      </trkpt>
      <trkpt lat="42.11575" lon="9.10912">
        <ele>1177.752197</ele>
        <time>2014-06-24T07:56:53Z</time>
      </trkpt>
      <trkpt lat="42.11565" lon="9.10927">
        <ele>1178.23291</ele>
        <time>2014-06-24T07:57:10Z</time>
      </trkpt>
      <trkpt lat="42.11557" lon="9.10935">
        <ele>1177.752197</ele>
        <time>2014-06-24T07:57:22Z</time>
      </trkpt>
      <trkpt lat="42.11551" lon="9.10945">
        <ele>1178.23291</ele>
        <time>2014-06-24T07:57:37Z</time>
      </trkpt>
      <trkpt lat="42.11544" lon="9.10953">
        <ele>1177.752197</ele>
        <time>2014-06-24T07:57:50Z</time>
      </trkpt>
      <trkpt lat="42.11531" lon="9.10964">
        <ele>1177.271729</ele>
        <time>2014-06-24T07:58:06Z</time>
      </trkpt>
      <trkpt lat="42.1153" lon="9.10966">
        <ele>1177.752197</ele>
        <time>2014-06-24T07:58:12Z</time>
      </trkpt>
      <trkpt lat="42.11528" lon="9.10972">
        <ele>1176.791016</ele>
        <time>2014-06-24T07:58:18Z</time>
      </trkpt>
      <trkpt lat="42.11517" lon="9.10981">
        <ele>1179.674805</ele>
        <time>2014-06-24T07:58:35Z</time>
      </trkpt>
      <trkpt lat="42.11509" lon="9.10986">
        <ele>1181.597656</ele>
        <time>2014-06-24T07:58:47Z</time>
      </trkpt>
      <trkpt lat="42.11502" lon="9.10998">
        <ele>1184.962402</ele>
        <time>2014-06-24T07:59:03Z</time>
      </trkpt>
      <trkpt lat="42.11494" lon="9.11006">
        <ele>1185.923584</ele>
        <time>2014-06-24T07:59:17Z</time>
      </trkpt>
      <trkpt lat="42.11487" lon="9.11014">
        <ele>1186.884766</ele>
        <time>2014-06-24T07:59:34Z</time>
      </trkpt>
      <trkpt lat="42.11486" lon="9.11016">
        <ele>1189.288086</ele>
        <time>2014-06-24T07:59:39Z</time>
      </trkpt>
      <trkpt lat="42.11482" lon="9.11027">
        <ele>1190.249512</ele>
        <time>2014-06-24T07:59:50Z</time>
      </trkpt>
      <trkpt lat="42.11479" lon="9.11038">
        <ele>1190.72998</ele>
        <time>2014-06-24T08:00:00Z</time>
      </trkpt>
      <trkpt lat="42.11475" lon="9.1105">
        <ele>1190.72998</ele>
        <time>2014-06-24T08:00:12Z</time>
      </trkpt>
      <trkpt lat="42.11462" lon="9.11062">
        <ele>1192.652832</ele>
        <time>2014-06-24T08:00:27Z</time>
      </trkpt>
      <trkpt lat="42.11453" lon="9.11072">
        <ele>1195.055908</ele>
        <time>2014-06-24T08:00:41Z</time>
      </trkpt>
      <trkpt lat="42.11449" lon="9.11081">
        <ele>1195.536621</ele>
        <time>2014-06-24T08:00:54Z</time>
      </trkpt>
      <trkpt lat="42.11447" lon="9.11083">
        <ele>1196.97876</ele>
        <time>2014-06-24T08:00:58Z</time>
      </trkpt>
      <trkpt lat="42.11444" lon="9.11097">
        <ele>1196.97876</ele>
        <time>2014-06-24T08:01:10Z</time>
      </trkpt>
      <trkpt lat="42.11436" lon="9.11108">
        <ele>1199.862793</ele>
        <time>2014-06-24T08:01:21Z</time>
      </trkpt>
      <trkpt lat="42.11428" lon="9.11118">
        <ele>1202.746582</ele>
        <time>2014-06-24T08:01:37Z</time>
      </trkpt>
      <trkpt lat="42.11424" lon="9.11119">
        <ele>1204.669189</ele>
        <time>2014-06-24T08:01:48Z</time>
      </trkpt>
      <trkpt lat="42.11417" lon="9.11133">
        <ele>1207.07251</ele>
        <time>2014-06-24T08:02:03Z</time>
      </trkpt>
      <trkpt lat="42.11415" lon="9.11135">
        <ele>1207.553223</ele>
        <time>2014-06-24T08:02:05Z</time>
      </trkpt>
      <trkpt lat="42.11409" lon="9.1115">
        <ele>1209.956299</ele>
        <time>2014-06-24T08:02:20Z</time>
      </trkpt>
      <trkpt lat="42.11403" lon="9.11173">
        <ele>1212.840576</ele>
        <time>2014-06-24T08:02:38Z</time>
      </trkpt>
      <trkpt lat="42.11397" lon="9.11198">
        <ele>1211.398438</ele>
        <time>2014-06-24T08:02:54Z</time>
      </trkpt>
      <trkpt lat="42.11389" lon="9.11223">
        <ele>1211.398438</ele>
        <time>2014-06-24T08:03:11Z</time>
      </trkpt>
      <trkpt lat="42.11387" lon="9.11236">
        <ele>1210.917725</ele>
        <time>2014-06-24T08:03:21Z</time>
      </trkpt>
      <trkpt lat="42.11385" lon="9.11242">
        <ele>1210.437012</ele>
        <time>2014-06-24T08:03:38Z</time>
      </trkpt>
      <trkpt lat="42.11387" lon="9.11255">
        <ele>1208.514404</ele>
        <time>2014-06-24T08:04:07Z</time>
      </trkpt>
      <trkpt lat="42.11387" lon="9.11261">
        <ele>1208.514404</ele>
        <time>2014-06-24T08:04:13Z</time>
      </trkpt>
      <trkpt lat="42.11387" lon="9.1128">
        <ele>1207.07251</ele>
        <time>2014-06-24T08:04:28Z</time>
      </trkpt>
      <trkpt lat="42.1138" lon="9.11298">
        <ele>1208.995117</ele>
        <time>2014-06-24T08:04:42Z</time>
      </trkpt>
      <trkpt lat="42.11376" lon="9.1131">
        <ele>1208.995117</ele>
        <time>2014-06-24T08:04:56Z</time>
      </trkpt>
      <trkpt lat="42.11367" lon="9.11308">
        <ele>1209.47583</ele>
        <time>2014-06-24T08:05:09Z</time>
      </trkpt>
      <trkpt lat="42.11362" lon="9.11308">
        <ele>1209.47583</ele>
        <time>2014-06-24T08:05:24Z</time>
      </trkpt>
      <trkpt lat="42.11362" lon="9.11309">
        <ele>1209.47583</ele>
        <time>2014-06-24T08:05:53Z</time>
      </trkpt>
      <trkpt lat="42.11367" lon="9.1131">
        <ele>1209.47583</ele>
        <time>2014-06-24T08:06:01Z</time>
      </trkpt>
      <trkpt lat="42.11371" lon="9.11311">
        <ele>1209.47583</ele>
        <time>2014-06-24T08:06:05Z</time>
      </trkpt>
      <trkpt lat="42.11378" lon="9.11317">
        <ele>1208.514404</ele>
        <time>2014-06-24T08:06:13Z</time>
      </trkpt>
      <trkpt lat="42.11373" lon="9.1134">
        <ele>1208.514404</ele>
        <time>2014-06-24T08:06:30Z</time>
      </trkpt>
      <trkpt lat="42.11371" lon="9.11346">
        <ele>1208.995117</ele>
        <time>2014-06-24T08:06:35Z</time>
      </trkpt>
      <trkpt lat="42.11367" lon="9.11369">
        <ele>1209.47583</ele>
        <time>2014-06-24T08:06:52Z</time>
      </trkpt>
      <trkpt lat="42.11366" lon="9.1137">
        <ele>1208.995117</ele>
        <time>2014-06-24T08:07:11Z</time>
      </trkpt>
      <trkpt lat="42.11362" lon="9.11384">
        <ele>1208.514404</ele>
        <time>2014-06-24T08:07:33Z</time>
      </trkpt>
      <trkpt lat="42.11362" lon="9.11385">
        <ele>1208.033936</ele>
        <time>2014-06-24T08:07:34Z</time>
      </trkpt>
      <trkpt lat="42.11361" lon="9.11391">
        <ele>1208.995117</ele>
        <time>2014-06-24T08:07:38Z</time>
      </trkpt>
      <trkpt lat="42.11365" lon="9.11427">
        <ele>1207.07251</ele>
        <time>2014-06-24T08:08:00Z</time>
      </trkpt>
      <trkpt lat="42.11367" lon="9.11447">
        <ele>1205.630615</ele>
        <time>2014-06-24T08:08:13Z</time>
      </trkpt>
      <trkpt lat="42.11366" lon="9.11454">
        <ele>1204.669189</ele>
        <time>2014-06-24T08:08:18Z</time>
      </trkpt>
      <trkpt lat="42.11369" lon="9.11472">
        <ele>1203.708008</ele>
        <time>2014-06-24T08:08:30Z</time>
      </trkpt>
      <trkpt lat="42.11373" lon="9.11503">
        <ele>1202.265869</ele>
        <time>2014-06-24T08:08:50Z</time>
      </trkpt>
      <trkpt lat="42.11371" lon="9.11513">
        <ele>1201.7854</ele>
        <time>2014-06-24T08:08:57Z</time>
      </trkpt>
      <trkpt lat="42.11372" lon="9.11522">
        <ele>1201.304688</ele>
        <time>2014-06-24T08:09:04Z</time>
      </trkpt>
      <trkpt lat="42.11377" lon="9.11545">
        <ele>1200.823975</ele>
        <time>2014-06-24T08:09:23Z</time>
      </trkpt>
      <trkpt lat="42.11378" lon="9.11553">
        <ele>1199.862793</ele>
        <time>2014-06-24T08:09:30Z</time>
      </trkpt>
      <trkpt lat="42.11381" lon="9.11578">
        <ele>1198.420654</ele>
        <time>2014-06-24T08:09:49Z</time>
      </trkpt>
      <trkpt lat="42.11385" lon="9.11599">
        <ele>1198.420654</ele>
        <time>2014-06-24T08:10:04Z</time>
      </trkpt>
      <trkpt lat="42.11385" lon="9.11605">
        <ele>1197.940186</ele>
        <time>2014-06-24T08:10:08Z</time>
      </trkpt>
      <trkpt lat="42.11388" lon="9.11622">
        <ele>1196.498291</ele>
        <time>2014-06-24T08:10:22Z</time>
      </trkpt>
      <trkpt lat="42.11395" lon="9.11642">
        <ele>1196.498291</ele>
        <time>2014-06-24T08:10:39Z</time>
      </trkpt>
      <trkpt lat="42.11401" lon="9.11665">
        <ele>1195.536621</ele>
        <time>2014-06-24T08:10:57Z</time>
      </trkpt>
      <trkpt lat="42.11401" lon="9.11666">
        <ele>1196.017578</ele>
        <time>2014-06-24T08:10:58Z</time>
      </trkpt>
      <trkpt lat="42.11408" lon="9.11685">
        <ele>1192.652832</ele>
        <time>2014-06-24T08:11:16Z</time>
      </trkpt>
      <trkpt lat="42.1141" lon="9.11702">
        <ele>1190.72998</ele>
        <time>2014-06-24T08:11:29Z</time>
      </trkpt>
      <trkpt lat="42.11412" lon="9.11707">
        <ele>1190.72998</ele>
        <time>2014-06-24T08:11:33Z</time>
      </trkpt>
      <trkpt lat="42.11412" lon="9.11716">
        <ele>1189.768799</ele>
        <time>2014-06-24T08:11:40Z</time>
      </trkpt>
      <trkpt lat="42.11413" lon="9.11722">
        <ele>1189.288086</ele>
        <time>2014-06-24T08:11:44Z</time>
      </trkpt>
      <trkpt lat="42.11414" lon="9.11736">
        <ele>1187.846191</ele>
        <time>2014-06-24T08:11:56Z</time>
      </trkpt>
      <trkpt lat="42.11416" lon="9.11741">
        <ele>1187.365479</ele>
        <time>2014-06-24T08:12:00Z</time>
      </trkpt>
      <trkpt lat="42.11421" lon="9.1176">
        <ele>1184.962402</ele>
        <time>2014-06-24T08:12:18Z</time>
      </trkpt>
      <trkpt lat="42.11425" lon="9.11768">
        <ele>1184.481689</ele>
        <time>2014-06-24T08:12:27Z</time>
      </trkpt>
      <trkpt lat="42.11422" lon="9.11782">
        <ele>1183.520264</ele>
        <time>2014-06-24T08:12:41Z</time>
      </trkpt>
      <trkpt lat="42.1142" lon="9.11791">
        <ele>1182.078369</ele>
        <time>2014-06-24T08:12:54Z</time>
      </trkpt>
      <trkpt lat="42.11422" lon="9.11812">
        <ele>1179.194092</ele>
        <time>2014-06-24T08:13:14Z</time>
      </trkpt>
      <trkpt lat="42.11419" lon="9.1182">
        <ele>1175.82959</ele>
        <time>2014-06-24T08:13:31Z</time>
      </trkpt>
      <trkpt lat="42.11416" lon="9.11827">
        <ele>1172.465088</ele>
        <time>2014-06-24T08:13:45Z</time>
      </trkpt>
      <trkpt lat="42.11413" lon="9.11832">
        <ele>1171.503662</ele>
        <time>2014-06-24T08:14:00Z</time>
      </trkpt>
      <trkpt lat="42.11412" lon="9.11841">
        <ele>1169.100586</ele>
        <time>2014-06-24T08:14:16Z</time>
      </trkpt>
      <trkpt lat="42.1141" lon="9.11851">
        <ele>1167.177979</ele>
        <time>2014-06-24T08:14:31Z</time>
      </trkpt>
      <trkpt lat="42.11412" lon="9.11866">
        <ele>1165.255371</ele>
        <time>2014-06-24T08:14:45Z</time>
      </trkpt>
      <trkpt lat="42.11413" lon="9.11871">
        <ele>1164.293945</ele>
        <time>2014-06-24T08:14:52Z</time>
      </trkpt>
      <trkpt lat="42.11414" lon="9.11888">
        <ele>1161.409912</ele>
        <time>2014-06-24T08:15:10Z</time>
      </trkpt>
      <trkpt lat="42.11413" lon="9.119">
        <ele>1159.006592</ele>
        <time>2014-06-24T08:15:28Z</time>
      </trkpt>
      <trkpt lat="42.11413" lon="9.11914">
        <ele>1156.603271</ele>
        <time>2014-06-24T08:15:46Z</time>
      </trkpt>
      <trkpt lat="42.11415" lon="9.11921">
        <ele>1156.603271</ele>
        <time>2014-06-24T08:16:02Z</time>
      </trkpt>
      <trkpt lat="42.11414" lon="9.11925">
        <ele>1155.161377</ele>
        <time>2014-06-24T08:16:15Z</time>
      </trkpt>
      <trkpt lat="42.11412" lon="9.11928">
        <ele>1152.758057</ele>
        <time>2014-06-24T08:16:30Z</time>
      </trkpt>
      <trkpt lat="42.11408" lon="9.11935">
        <ele>1150.35498</ele>
        <time>2014-06-24T08:16:47Z</time>
      </trkpt>
      <trkpt lat="42.11403" lon="9.11923">
        <ele>1151.316162</ele>
        <time>2014-06-24T08:17:43Z</time>
      </trkpt>
      <trkpt lat="42.11401" lon="9.11913">
        <ele>1150.35498</ele>
        <time>2014-06-24T08:17:49Z</time>
      </trkpt>
      <trkpt lat="42.11394" lon="9.11892">
        <ele>1151.796875</ele>
        <time>2014-06-24T08:18:02Z</time>
      </trkpt>
      <trkpt lat="42.1138" lon="9.11876">
        <ele>1152.277344</ele>
        <time>2014-06-24T08:18:19Z</time>
      </trkpt>
      <trkpt lat="42.11378" lon="9.11856">
        <ele>1152.277344</ele>
        <time>2014-06-24T08:18:32Z</time>
      </trkpt>
      <trkpt lat="42.11367" lon="9.11834">
        <ele>1151.796875</ele>
        <time>2014-06-24T08:18:47Z</time>
      </trkpt>
      <trkpt lat="42.11364" lon="9.11827">
        <ele>1151.796875</ele>
        <time>2014-06-24T08:18:52Z</time>
      </trkpt>
      <trkpt lat="42.11355" lon="9.1181">
        <ele>1151.796875</ele>
        <time>2014-06-24T08:19:10Z</time>
      </trkpt>
      <trkpt lat="42.11336" lon="9.1182">
        <ele>1151.796875</ele>
        <time>2014-06-24T08:19:28Z</time>
      </trkpt>
      <trkpt lat="42.11333" lon="9.11818">
        <ele>1151.796875</ele>
        <time>2014-06-24T08:19:32Z</time>
      </trkpt>
      <trkpt lat="42.11327" lon="9.11802">
        <ele>1152.277344</ele>
        <time>2014-06-24T08:19:42Z</time>
      </trkpt>
      <trkpt lat="42.11324" lon="9.11792">
        <ele>1152.277344</ele>
        <time>2014-06-24T08:19:49Z</time>
      </trkpt>
      <trkpt lat="42.11324" lon="9.11787">
        <ele>1152.758057</ele>
        <time>2014-06-24T08:19:53Z</time>
      </trkpt>
      <trkpt lat="42.11321" lon="9.11779">
        <ele>1152.277344</ele>
        <time>2014-06-24T08:20:00Z</time>
      </trkpt>
      <trkpt lat="42.11324" lon="9.11766">
        <ele>1152.277344</ele>
        <time>2014-06-24T08:20:12Z</time>
      </trkpt>
      <trkpt lat="42.11324" lon="9.11751">
        <ele>1152.758057</ele>
        <time>2014-06-24T08:20:24Z</time>
      </trkpt>
      <trkpt lat="42.11324" lon="9.1175">
        <ele>1152.758057</ele>
        <time>2014-06-24T08:20:25Z</time>
      </trkpt>
      <trkpt lat="42.11324" lon="9.11747">
        <ele>1152.758057</ele>
        <time>2014-06-24T08:20:27Z</time>
      </trkpt>
      <trkpt lat="42.11321" lon="9.11732">
        <ele>1151.796875</ele>
        <time>2014-06-24T08:20:39Z</time>
      </trkpt>
      <trkpt lat="42.11319" lon="9.11713">
        <ele>1152.758057</ele>
        <time>2014-06-24T08:20:53Z</time>
      </trkpt>
      <trkpt lat="42.1131" lon="9.11694">
        <ele>1153.719482</ele>
        <time>2014-06-24T08:21:06Z</time>
      </trkpt>
      <trkpt lat="42.11301" lon="9.11679">
        <ele>1153.719482</ele>
        <time>2014-06-24T08:21:19Z</time>
      </trkpt>
      <trkpt lat="42.11299" lon="9.11664">
        <ele>1153.719482</ele>
        <time>2014-06-24T08:21:30Z</time>
      </trkpt>
      <trkpt lat="42.11295" lon="9.11649">
        <ele>1154.200195</ele>
        <time>2014-06-24T08:21:42Z</time>
      </trkpt>
      <trkpt lat="42.11286" lon="9.11632">
        <ele>1155.161377</ele>
        <time>2014-06-24T08:21:54Z</time>
      </trkpt>
      <trkpt lat="42.11279" lon="9.11609">
        <ele>1156.122559</ele>
        <time>2014-06-24T08:22:06Z</time>
      </trkpt>
      <trkpt lat="42.11269" lon="9.11595">
        <ele>1156.603271</ele>
        <time>2014-06-24T08:22:18Z</time>
      </trkpt>
      <trkpt lat="42.11266" lon="9.11576">
        <ele>1158.04541</ele>
        <time>2014-06-24T08:22:31Z</time>
      </trkpt>
      <trkpt lat="42.11263" lon="9.11557">
        <ele>1159.006592</ele>
        <time>2014-06-24T08:22:45Z</time>
      </trkpt>
      <trkpt lat="42.11257" lon="9.11535">
        <ele>1159.006592</ele>
        <time>2014-06-24T08:22:58Z</time>
      </trkpt>
      <trkpt lat="42.11251" lon="9.11515">
        <ele>1159.967773</ele>
        <time>2014-06-24T08:23:12Z</time>
      </trkpt>
      <trkpt lat="42.11248" lon="9.11493">
        <ele>1159.487305</ele>
        <time>2014-06-24T08:23:26Z</time>
      </trkpt>
      <trkpt lat="42.11249" lon="9.1147">
        <ele>1160.448486</ele>
        <time>2014-06-24T08:23:39Z</time>
      </trkpt>
      <trkpt lat="42.11239" lon="9.11453">
        <ele>1160.929199</ele>
        <time>2014-06-24T08:23:45Z</time>
      </trkpt>
      <trkpt lat="42.11226" lon="9.11434">
        <ele>1160.448486</ele>
        <time>2014-06-24T08:23:51Z</time>
      </trkpt>
      <trkpt lat="42.11212" lon="9.11394">
        <ele>1162.851807</ele>
        <time>2014-06-24T08:24:07Z</time>
      </trkpt>
      <trkpt lat="42.11219" lon="9.11388">
        <ele>1162.851807</ele>
        <time>2014-06-24T08:24:26Z</time>
      </trkpt>
      <trkpt lat="42.1122" lon="9.1137">
        <ele>1163.33252</ele>
        <time>2014-06-24T08:24:38Z</time>
      </trkpt>
      <trkpt lat="42.11214" lon="9.11347">
        <ele>1163.33252</ele>
        <time>2014-06-24T08:24:56Z</time>
      </trkpt>
      <trkpt lat="42.11205" lon="9.11325">
        <ele>1163.812988</ele>
        <time>2014-06-24T08:25:12Z</time>
      </trkpt>
      <trkpt lat="42.112" lon="9.11321">
        <ele>1164.293945</ele>
        <time>2014-06-24T08:25:17Z</time>
      </trkpt>
      <trkpt lat="42.1119" lon="9.11322">
        <ele>1164.774658</ele>
        <time>2014-06-24T08:25:35Z</time>
      </trkpt>
      <trkpt lat="42.11187" lon="9.11328">
        <ele>1164.774658</ele>
        <time>2014-06-24T08:25:53Z</time>
      </trkpt>
      <trkpt lat="42.1119" lon="9.1132">
        <ele>1165.255371</ele>
        <time>2014-06-24T08:26:14Z</time>
      </trkpt>
      <trkpt lat="42.11192" lon="9.11329">
        <ele>1164.774658</ele>
        <time>2014-06-24T08:26:31Z</time>
      </trkpt>
      <trkpt lat="42.11189" lon="9.11324">
        <ele>1165.255371</ele>
        <time>2014-06-24T08:26:51Z</time>
      </trkpt>
      <trkpt lat="42.11188" lon="9.11318">
        <ele>1166.216553</ele>
        <time>2014-06-24T08:27:19Z</time>
      </trkpt>
      <trkpt lat="42.11186" lon="9.11325">
        <ele>1168.13916</ele>
        <time>2014-06-24T08:28:00Z</time>
      </trkpt>
      <trkpt lat="42.11177" lon="9.11328">
        <ele>1169.581299</ele>
        <time>2014-06-24T08:28:10Z</time>
      </trkpt>
      <trkpt lat="42.11163" lon="9.1133">
        <ele>1171.503662</ele>
        <time>2014-06-24T08:28:21Z</time>
      </trkpt>
      <trkpt lat="42.11153" lon="9.11321">
        <ele>1171.984375</ele>
        <time>2014-06-24T08:28:32Z</time>
      </trkpt>
      <trkpt lat="42.11143" lon="9.11299">
        <ele>1172.465088</ele>
        <time>2014-06-24T08:28:48Z</time>
      </trkpt>
      <trkpt lat="42.11139" lon="9.11272">
        <ele>1173.906982</ele>
        <time>2014-06-24T08:29:07Z</time>
      </trkpt>
      <trkpt lat="42.11129" lon="9.11266">
        <ele>1174.868408</ele>
        <time>2014-06-24T08:29:22Z</time>
      </trkpt>
      <trkpt lat="42.11128" lon="9.11267">
        <ele>1175.82959</ele>
        <time>2014-06-24T08:29:25Z</time>
      </trkpt>
      <trkpt lat="42.11121" lon="9.11277">
        <ele>1177.271729</ele>
        <time>2014-06-24T08:29:40Z</time>
      </trkpt>
      <trkpt lat="42.11109" lon="9.11282">
        <ele>1179.194092</ele>
        <time>2014-06-24T08:29:53Z</time>
      </trkpt>
      <trkpt lat="42.11097" lon="9.11288">
        <ele>1182.078369</ele>
        <time>2014-06-24T08:30:06Z</time>
      </trkpt>
      <trkpt lat="42.11096" lon="9.11289">
        <ele>1182.078369</ele>
        <time>2014-06-24T08:30:07Z</time>
      </trkpt>
      <trkpt lat="42.11083" lon="9.11299">
        <ele>1184.962402</ele>
        <time>2014-06-24T08:30:23Z</time>
      </trkpt>
      <trkpt lat="42.11069" lon="9.1131">
        <ele>1187.365479</ele>
        <time>2014-06-24T08:30:37Z</time>
      </trkpt>
      <trkpt lat="42.11057" lon="9.11326">
        <ele>1189.768799</ele>
        <time>2014-06-24T08:30:51Z</time>
      </trkpt>
      <trkpt lat="42.11045" lon="9.11339">
        <ele>1193.133301</ele>
        <time>2014-06-24T08:31:07Z</time>
      </trkpt>
      <trkpt lat="42.11031" lon="9.11348">
        <ele>1195.055908</ele>
        <time>2014-06-24T08:31:22Z</time>
      </trkpt>
      <trkpt lat="42.11025" lon="9.11356">
        <ele>1195.536621</ele>
        <time>2014-06-24T08:31:30Z</time>
      </trkpt>
      <trkpt lat="42.11012" lon="9.11374">
        <ele>1198.420654</ele>
        <time>2014-06-24T08:31:48Z</time>
      </trkpt>
      <trkpt lat="42.10998" lon="9.1139">
        <ele>1200.343506</ele>
        <time>2014-06-24T08:32:03Z</time>
      </trkpt>
      <trkpt lat="42.10987" lon="9.11403">
        <ele>1201.304688</ele>
        <time>2014-06-24T08:32:17Z</time>
      </trkpt>
      <trkpt lat="42.10984" lon="9.11408">
        <ele>1201.7854</ele>
        <time>2014-06-24T08:32:21Z</time>
      </trkpt>
      <trkpt lat="42.10972" lon="9.11419">
        <ele>1203.708008</ele>
        <time>2014-06-24T08:32:35Z</time>
      </trkpt>
      <trkpt lat="42.1096" lon="9.11436">
        <ele>1206.111084</ele>
        <time>2014-06-24T08:32:49Z</time>
      </trkpt>
      <trkpt lat="42.10944" lon="9.11445">
        <ele>1208.033936</ele>
        <time>2014-06-24T08:33:05Z</time>
      </trkpt>
      <trkpt lat="42.10925" lon="9.11455">
        <ele>1209.956299</ele>
        <time>2014-06-24T08:33:24Z</time>
      </trkpt>
      <trkpt lat="42.1092" lon="9.11459">
        <ele>1211.398438</ele>
        <time>2014-06-24T08:33:30Z</time>
      </trkpt>
      <trkpt lat="42.10904" lon="9.11467">
        <ele>1214.282471</ele>
        <time>2014-06-24T08:33:49Z</time>
      </trkpt>
      <trkpt lat="42.10899" lon="9.1147">
        <ele>1216.205078</ele>
        <time>2014-06-24T08:34:03Z</time>
      </trkpt>
      <trkpt lat="42.10896" lon="9.11472">
        <ele>1216.205078</ele>
        <time>2014-06-24T08:34:23Z</time>
      </trkpt>
      <trkpt lat="42.10899" lon="9.11479">
        <ele>1216.685791</ele>
        <time>2014-06-24T08:34:38Z</time>
      </trkpt>
      <trkpt lat="42.1091" lon="9.11489">
        <ele>1219.089111</ele>
        <time>2014-06-24T08:34:53Z</time>
      </trkpt>
      <trkpt lat="42.10915" lon="9.11499">
        <ele>1220.531006</ele>
        <time>2014-06-24T08:35:07Z</time>
      </trkpt>
      <trkpt lat="42.10907" lon="9.11508">
        <ele>1222.934326</ele>
        <time>2014-06-24T08:35:23Z</time>
      </trkpt>
      <trkpt lat="42.10894" lon="9.11511">
        <ele>1226.298828</ele>
        <time>2014-06-24T08:35:37Z</time>
      </trkpt>
      <trkpt lat="42.10887" lon="9.11519">
        <ele>1227.740723</ele>
        <time>2014-06-24T08:35:49Z</time>
      </trkpt>
      <trkpt lat="42.10882" lon="9.11527">
        <ele>1230.144287</ele>
        <time>2014-06-24T08:36:03Z</time>
      </trkpt>
      <trkpt lat="42.10885" lon="9.11535">
        <ele>1231.105713</ele>
        <time>2014-06-24T08:36:14Z</time>
      </trkpt>
      <trkpt lat="42.10892" lon="9.11542">
        <ele>1233.028076</ele>
        <time>2014-06-24T08:36:27Z</time>
      </trkpt>
      <trkpt lat="42.10896" lon="9.11546">
        <ele>1233.989502</ele>
        <time>2014-06-24T08:36:48Z</time>
      </trkpt>
      <trkpt lat="42.1089" lon="9.11552">
        <ele>1235.431396</ele>
        <time>2014-06-24T08:37:01Z</time>
      </trkpt>
      <trkpt lat="42.10888" lon="9.11554">
        <ele>1236.392822</ele>
        <time>2014-06-24T08:37:03Z</time>
      </trkpt>
      <trkpt lat="42.1088" lon="9.11557">
        <ele>1239.276611</ele>
        <time>2014-06-24T08:37:15Z</time>
      </trkpt>
      <trkpt lat="42.10872" lon="9.1156">
        <ele>1240.718506</ele>
        <time>2014-06-24T08:37:27Z</time>
      </trkpt>
      <trkpt lat="42.10875" lon="9.1157">
        <ele>1243.121826</ele>
        <time>2014-06-24T08:37:42Z</time>
      </trkpt>
      <trkpt lat="42.10885" lon="9.11579">
        <ele>1244.563965</ele>
        <time>2014-06-24T08:37:56Z</time>
      </trkpt>
      <trkpt lat="42.10886" lon="9.11596">
        <ele>1246.967285</ele>
        <time>2014-06-24T08:38:10Z</time>
      </trkpt>
      <trkpt lat="42.10887" lon="9.11609">
        <ele>1249.370605</ele>
        <time>2014-06-24T08:38:23Z</time>
      </trkpt>
      <trkpt lat="42.10884" lon="9.11618">
        <ele>1251.773926</ele>
        <time>2014-06-24T08:38:37Z</time>
      </trkpt>
      <trkpt lat="42.10883" lon="9.11629">
        <ele>1254.177246</ele>
        <time>2014-06-24T08:38:50Z</time>
      </trkpt>
      <trkpt lat="42.10881" lon="9.11628">
        <ele>1255.619141</ele>
        <time>2014-06-24T08:39:00Z</time>
      </trkpt>
      <trkpt lat="42.10873" lon="9.11621">
        <ele>1257.541748</ele>
        <time>2014-06-24T08:39:17Z</time>
      </trkpt>
      <trkpt lat="42.10868" lon="9.1162">
        <ele>1260.425781</ele>
        <time>2014-06-24T08:39:31Z</time>
      </trkpt>
      <trkpt lat="42.10858" lon="9.11616">
        <ele>1263.790283</ele>
        <time>2014-06-24T08:39:48Z</time>
      </trkpt>
      <trkpt lat="42.10849" lon="9.11615">
        <ele>1265.232422</ele>
        <time>2014-06-24T08:40:05Z</time>
      </trkpt>
      <trkpt lat="42.10845" lon="9.11615">
        <ele>1268.596924</ele>
        <time>2014-06-24T08:40:14Z</time>
      </trkpt>
      <trkpt lat="42.10836" lon="9.11618">
        <ele>1270.519531</ele>
        <time>2014-06-24T08:40:27Z</time>
      </trkpt>
      <trkpt lat="42.10835" lon="9.11628">
        <ele>1271.961426</ele>
        <time>2014-06-24T08:40:41Z</time>
      </trkpt>
      <trkpt lat="42.10839" lon="9.11637">
        <ele>1274.845459</ele>
        <time>2014-06-24T08:40:54Z</time>
      </trkpt>
      <trkpt lat="42.10842" lon="9.11648">
        <ele>1276.287598</ele>
        <time>2014-06-24T08:41:07Z</time>
      </trkpt>
      <trkpt lat="42.10846" lon="9.11657">
        <ele>1276.287598</ele>
        <time>2014-06-24T08:41:18Z</time>
      </trkpt>
      <trkpt lat="42.10845" lon="9.1166">
        <ele>1279.6521</ele>
        <time>2014-06-24T08:41:30Z</time>
      </trkpt>
      <trkpt lat="42.10837" lon="9.11653">
        <ele>1282.05542</ele>
        <time>2014-06-24T08:41:45Z</time>
      </trkpt>
      <trkpt lat="42.10829" lon="9.1165">
        <ele>1283.978027</ele>
        <time>2014-06-24T08:42:01Z</time>
      </trkpt>
      <trkpt lat="42.10822" lon="9.11649">
        <ele>1285.419922</ele>
        <time>2014-06-24T08:42:13Z</time>
      </trkpt>
      <trkpt lat="42.10824" lon="9.11659">
        <ele>1288.784668</ele>
        <time>2014-06-24T08:42:26Z</time>
      </trkpt>
      <trkpt lat="42.10816" lon="9.11657">
        <ele>1291.187744</ele>
        <time>2014-06-24T08:42:42Z</time>
      </trkpt>
      <trkpt lat="42.10809" lon="9.11656">
        <ele>1292.630127</ele>
        <time>2014-06-24T08:42:57Z</time>
      </trkpt>
      <trkpt lat="42.10801" lon="9.11654">
        <ele>1293.110596</ele>
        <time>2014-06-24T08:43:10Z</time>
      </trkpt>
      <trkpt lat="42.10789" lon="9.1165">
        <ele>1296.475342</ele>
        <time>2014-06-24T08:43:28Z</time>
      </trkpt>
      <trkpt lat="42.10778" lon="9.11648">
        <ele>1298.878418</ele>
        <time>2014-06-24T08:43:44Z</time>
      </trkpt>
      <trkpt lat="42.10767" lon="9.11645">
        <ele>1300.320557</ele>
        <time>2014-06-24T08:43:57Z</time>
      </trkpt>
      <trkpt lat="42.10755" lon="9.11638">
        <ele>1300.801025</ele>
        <time>2014-06-24T08:44:12Z</time>
      </trkpt>
      <trkpt lat="42.10744" lon="9.11636">
        <ele>1304.165771</ele>
        <time>2014-06-24T08:44:27Z</time>
      </trkpt>
      <trkpt lat="42.10735" lon="9.11636">
        <ele>1306.088135</ele>
        <time>2014-06-24T08:44:40Z</time>
      </trkpt>
      <trkpt lat="42.10725" lon="9.11638">
        <ele>1307.530273</ele>
        <time>2014-06-24T08:44:54Z</time>
      </trkpt>
      <trkpt lat="42.10719" lon="9.11643">
        <ele>1309.453125</ele>
        <time>2014-06-24T08:45:05Z</time>
      </trkpt>
      <trkpt lat="42.10708" lon="9.11645">
        <ele>1311.856445</ele>
        <time>2014-06-24T08:45:20Z</time>
      </trkpt>
      <trkpt lat="42.10698" lon="9.11647">
        <ele>1314.259521</ele>
        <time>2014-06-24T08:45:36Z</time>
      </trkpt>
      <trkpt lat="42.10689" lon="9.11652">
        <ele>1317.143555</ele>
        <time>2014-06-24T08:45:52Z</time>
      </trkpt>
      <trkpt lat="42.1068" lon="9.11656">
        <ele>1319.066162</ele>
        <time>2014-06-24T08:46:05Z</time>
      </trkpt>
      <trkpt lat="42.10676" lon="9.11656">
        <ele>1322.430664</ele>
        <time>2014-06-24T08:46:22Z</time>
      </trkpt>
      <trkpt lat="42.10665" lon="9.1165">
        <ele>1323.39209</ele>
        <time>2014-06-24T08:46:38Z</time>
      </trkpt>
      <trkpt lat="42.10656" lon="9.11651">
        <ele>1324.353516</ele>
        <time>2014-06-24T08:46:53Z</time>
      </trkpt>
      <trkpt lat="42.10651" lon="9.11656">
        <ele>1325.79541</ele>
        <time>2014-06-24T08:47:06Z</time>
      </trkpt>
      <trkpt lat="42.10645" lon="9.11657">
        <ele>1327.718018</ele>
        <time>2014-06-24T08:47:17Z</time>
      </trkpt>
      <trkpt lat="42.10635" lon="9.11654">
        <ele>1329.640625</ele>
        <time>2014-06-24T08:47:29Z</time>
      </trkpt>
      <trkpt lat="42.10626" lon="9.11657">
        <ele>1331.082764</ele>
        <time>2014-06-24T08:47:43Z</time>
      </trkpt>
      <trkpt lat="42.10619" lon="9.11668">
        <ele>1333.48584</ele>
        <time>2014-06-24T08:47:56Z</time>
      </trkpt>
      <trkpt lat="42.10613" lon="9.11674">
        <ele>1336.850342</ele>
        <time>2014-06-24T08:48:08Z</time>
      </trkpt>
      <trkpt lat="42.10605" lon="9.11679">
        <ele>1340.215332</ele>
        <time>2014-06-24T08:48:25Z</time>
      </trkpt>
      <trkpt lat="42.10598" lon="9.11682">
        <ele>1343.099121</ele>
        <time>2014-06-24T08:48:41Z</time>
      </trkpt>
      <trkpt lat="42.1059" lon="9.11689">
        <ele>1344.541016</ele>
        <time>2014-06-24T08:48:55Z</time>
      </trkpt>
      <trkpt lat="42.10585" lon="9.11698">
        <ele>1346.463867</ele>
        <time>2014-06-24T08:49:09Z</time>
      </trkpt>
      <trkpt lat="42.10578" lon="9.11706">
        <ele>1347.425049</ele>
        <time>2014-06-24T08:49:24Z</time>
      </trkpt>
      <trkpt lat="42.1057" lon="9.11714">
        <ele>1348.38623</ele>
        <time>2014-06-24T08:49:37Z</time>
      </trkpt>
      <trkpt lat="42.10568" lon="9.11717">
        <ele>1349.828369</ele>
        <time>2014-06-24T08:49:40Z</time>
      </trkpt>
      <trkpt lat="42.10561" lon="9.11726">
        <ele>1352.231445</ele>
        <time>2014-06-24T08:49:53Z</time>
      </trkpt>
      <trkpt lat="42.10551" lon="9.11731">
        <ele>1354.634766</ele>
        <time>2014-06-24T08:50:12Z</time>
      </trkpt>
      <trkpt lat="42.1055" lon="9.11744">
        <ele>1356.076904</ele>
        <time>2014-06-24T08:50:25Z</time>
      </trkpt>
      <trkpt lat="42.10546" lon="9.1175">
        <ele>1359.44165</ele>
        <time>2014-06-24T08:50:39Z</time>
      </trkpt>
      <trkpt lat="42.10542" lon="9.11759">
        <ele>1361.844971</ele>
        <time>2014-06-24T08:50:53Z</time>
      </trkpt>
      <trkpt lat="42.10537" lon="9.1177">
        <ele>1364.248047</ele>
        <time>2014-06-24T08:51:08Z</time>
      </trkpt>
      <trkpt lat="42.10527" lon="9.11775">
        <ele>1367.13208</ele>
        <time>2014-06-24T08:51:28Z</time>
      </trkpt>
      <trkpt lat="42.10522" lon="9.11784">
        <ele>1368.573975</ele>
        <time>2014-06-24T08:51:45Z</time>
      </trkpt>
      <trkpt lat="42.10519" lon="9.11796">
        <ele>1370.496582</ele>
        <time>2014-06-24T08:51:59Z</time>
      </trkpt>
      <trkpt lat="42.10519" lon="9.11809">
        <ele>1373.380859</ele>
        <time>2014-06-24T08:52:14Z</time>
      </trkpt>
      <trkpt lat="42.10511" lon="9.11826">
        <ele>1374.342041</ele>
        <time>2014-06-24T08:52:30Z</time>
      </trkpt>
      <trkpt lat="42.10505" lon="9.1183">
        <ele>1375.783936</ele>
        <time>2014-06-24T08:52:42Z</time>
      </trkpt>
      <trkpt lat="42.10502" lon="9.11839">
        <ele>1377.226074</ele>
        <time>2014-06-24T08:52:56Z</time>
      </trkpt>
      <trkpt lat="42.10499" lon="9.11846">
        <ele>1378.667969</ele>
        <time>2014-06-24T08:53:09Z</time>
      </trkpt>
      <trkpt lat="42.10499" lon="9.11848">
        <ele>1377.226074</ele>
        <time>2014-06-24T08:53:14Z</time>
      </trkpt>
      <trkpt lat="42.10503" lon="9.1185">
        <ele>1377.706543</ele>
        <time>2014-06-24T08:53:48Z</time>
      </trkpt>
      <trkpt lat="42.105" lon="9.11851">
        <ele>1377.226074</ele>
        <time>2014-06-24T08:58:38Z</time>
      </trkpt>
      <trkpt lat="42.105" lon="9.11851">
        <ele>1377.706543</ele>
        <time>2014-06-24T08:58:40Z</time>
      </trkpt>
      <trkpt lat="42.10499" lon="9.11849">
        <ele>1374.822754</ele>
        <time>2014-06-24T08:59:42Z</time>
      </trkpt>
      <trkpt lat="42.10498" lon="9.11849">
        <ele>1379.148438</ele>
        <time>2014-06-24T08:59:43Z</time>
      </trkpt>
      <trkpt lat="42.10499" lon="9.11849">
        <ele>1378.187256</ele>
        <time>2014-06-24T08:59:44Z</time>
      </trkpt>
      <trkpt lat="42.10503" lon="9.11852">
        <ele>1379.148438</ele>
        <time>2014-06-24T09:00:26Z</time>
      </trkpt>
      <trkpt lat="42.10499" lon="9.1186">
        <ele>1381.071289</ele>
        <time>2014-06-24T09:00:39Z</time>
      </trkpt>
      <trkpt lat="42.10495" lon="9.11875">
        <ele>1380.590576</ele>
        <time>2014-06-24T09:00:55Z</time>
      </trkpt>
      <trkpt lat="42.1049" lon="9.11887">
        <ele>1381.551758</ele>
        <time>2014-06-24T09:01:11Z</time>
      </trkpt>
      <trkpt lat="42.10486" lon="9.11893">
        <ele>1383.474365</ele>
        <time>2014-06-24T09:01:25Z</time>
      </trkpt>
      <trkpt lat="42.10483" lon="9.11901">
        <ele>1385.396973</ele>
        <time>2014-06-24T09:01:36Z</time>
      </trkpt>
      <trkpt lat="42.10478" lon="9.11912">
        <ele>1387.800293</ele>
        <time>2014-06-24T09:01:51Z</time>
      </trkpt>
      <trkpt lat="42.1048" lon="9.11922">
        <ele>1389.723145</ele>
        <time>2014-06-24T09:02:08Z</time>
      </trkpt>
      <trkpt lat="42.10489" lon="9.11927">
        <ele>1390.203857</ele>
        <time>2014-06-24T09:02:26Z</time>
      </trkpt>
      <trkpt lat="42.10494" lon="9.11934">
        <ele>1392.607178</ele>
        <time>2014-06-24T09:02:44Z</time>
      </trkpt>
      <trkpt lat="42.10497" lon="9.1194">
        <ele>1395.490967</ele>
        <time>2014-06-24T09:02:59Z</time>
      </trkpt>
      <trkpt lat="42.105" lon="9.11942">
        <ele>1396.932861</ele>
        <time>2014-06-24T09:03:15Z</time>
      </trkpt>
      <trkpt lat="42.10506" lon="9.11943">
        <ele>1399.816895</ele>
        <time>2014-06-24T09:03:26Z</time>
      </trkpt>
      <trkpt lat="42.10509" lon="9.11946">
        <ele>1402.219971</ele>
        <time>2014-06-24T09:03:42Z</time>
      </trkpt>
      <trkpt lat="42.10513" lon="9.11952">
        <ele>1404.143066</ele>
        <time>2014-06-24T09:03:56Z</time>
      </trkpt>
      <trkpt lat="42.10516" lon="9.11957">
        <ele>1406.06543</ele>
        <time>2014-06-24T09:04:09Z</time>
      </trkpt>
      <trkpt lat="42.10517" lon="9.11962">
        <ele>1408.46875</ele>
        <time>2014-06-24T09:04:25Z</time>
      </trkpt>
      <trkpt lat="42.10524" lon="9.11964">
        <ele>1409.910645</ele>
        <time>2014-06-24T09:04:42Z</time>
      </trkpt>
      <trkpt lat="42.1053" lon="9.11965">
        <ele>1411.352783</ele>
        <time>2014-06-24T09:04:57Z</time>
      </trkpt>
      <trkpt lat="42.10534" lon="9.11969">
        <ele>1414.236572</ele>
        <time>2014-06-24T09:05:12Z</time>
      </trkpt>
      <trkpt lat="42.10536" lon="9.11975">
        <ele>1416.639893</ele>
        <time>2014-06-24T09:05:30Z</time>
      </trkpt>
      <trkpt lat="42.10539" lon="9.11979">
        <ele>1418.081787</ele>
        <time>2014-06-24T09:05:46Z</time>
      </trkpt>
      <trkpt lat="42.10536" lon="9.11984">
        <ele>1420.966064</ele>
        <time>2014-06-24T09:06:04Z</time>
      </trkpt>
      <trkpt lat="42.10539" lon="9.11988">
        <ele>1421.446533</ele>
        <time>2014-06-24T09:06:23Z</time>
      </trkpt>
      <trkpt lat="42.10537" lon="9.11994">
        <ele>1424.330566</ele>
        <time>2014-06-24T09:06:37Z</time>
      </trkpt>
      <trkpt lat="42.10542" lon="9.11996">
        <ele>1423.849854</ele>
        <time>2014-06-24T09:06:50Z</time>
      </trkpt>
      <trkpt lat="42.10546" lon="9.11999">
        <ele>1427.695068</ele>
        <time>2014-06-24T09:07:01Z</time>
      </trkpt>
      <trkpt lat="42.10546" lon="9.11999">
        <ele>1427.695068</ele>
        <time>2014-06-24T09:07:02Z</time>
      </trkpt>
      <trkpt lat="42.10548" lon="9.12001">
        <ele>1429.136963</ele>
        <time>2014-06-24T09:07:10Z</time>
      </trkpt>
      <trkpt lat="42.10553" lon="9.12005">
        <ele>1430.579102</ele>
        <time>2014-06-24T09:07:36Z</time>
      </trkpt>
      <trkpt lat="42.10559" lon="9.12006">
        <ele>1433.462891</ele>
        <time>2014-06-24T09:07:53Z</time>
      </trkpt>
      <trkpt lat="42.10564" lon="9.12011">
        <ele>1436.347168</ele>
        <time>2014-06-24T09:08:10Z</time>
      </trkpt>
      <trkpt lat="42.10566" lon="9.12014">
        <ele>1438.269775</ele>
        <time>2014-06-24T09:08:24Z</time>
      </trkpt>
      <trkpt lat="42.1057" lon="9.12018">
        <ele>1439.230957</ele>
        <time>2014-06-24T09:08:39Z</time>
      </trkpt>
      <trkpt lat="42.10575" lon="9.12023">
        <ele>1442.595703</ele>
        <time>2014-06-24T09:08:53Z</time>
      </trkpt>
      <trkpt lat="42.10581" lon="9.12027">
        <ele>1444.037598</ele>
        <time>2014-06-24T09:09:10Z</time>
      </trkpt>
      <trkpt lat="42.10587" lon="9.1203">
        <ele>1445.960205</ele>
        <time>2014-06-24T09:09:27Z</time>
      </trkpt>
      <trkpt lat="42.10588" lon="9.1203">
        <ele>1447.882813</ele>
        <time>2014-06-24T09:09:30Z</time>
      </trkpt>
      <trkpt lat="42.10593" lon="9.12035">
        <ele>1448.843994</ele>
        <time>2014-06-24T09:09:47Z</time>
      </trkpt>
      <trkpt lat="42.10592" lon="9.12043">
        <ele>1451.247314</ele>
        <time>2014-06-24T09:10:04Z</time>
      </trkpt>
      <trkpt lat="42.10596" lon="9.12049">
        <ele>1453.650879</ele>
        <time>2014-06-24T09:10:22Z</time>
      </trkpt>
      <trkpt lat="42.10598" lon="9.12049">
        <ele>1455.573486</ele>
        <time>2014-06-24T09:10:28Z</time>
      </trkpt>
      <trkpt lat="42.10604" lon="9.12054">
        <ele>1456.053955</ele>
        <time>2014-06-24T09:10:44Z</time>
      </trkpt>
      <trkpt lat="42.10607" lon="9.1206">
        <ele>1458.457275</ele>
        <time>2014-06-24T09:11:01Z</time>
      </trkpt>
      <trkpt lat="42.10614" lon="9.12063">
        <ele>1460.860596</ele>
        <time>2014-06-24T09:11:18Z</time>
      </trkpt>
      <trkpt lat="42.10622" lon="9.12067">
        <ele>1462.30249</ele>
        <time>2014-06-24T09:11:37Z</time>
      </trkpt>
      <trkpt lat="42.10623" lon="9.12074">
        <ele>1465.667236</ele>
        <time>2014-06-24T09:11:51Z</time>
      </trkpt>
      <trkpt lat="42.1063" lon="9.12077">
        <ele>1467.5896</ele>
        <time>2014-06-24T09:12:09Z</time>
      </trkpt>
      <trkpt lat="42.10632" lon="9.12083">
        <ele>1469.993164</ele>
        <time>2014-06-24T09:12:26Z</time>
      </trkpt>
      <trkpt lat="42.10638" lon="9.12083">
        <ele>1470.473877</ele>
        <time>2014-06-24T09:12:42Z</time>
      </trkpt>
      <trkpt lat="42.10641" lon="9.12085">
        <ele>1473.35791</ele>
        <time>2014-06-24T09:12:47Z</time>
      </trkpt>
      <trkpt lat="42.10643" lon="9.12094">
        <ele>1474.799805</ele>
        <time>2014-06-24T09:13:05Z</time>
      </trkpt>
      <trkpt lat="42.10643" lon="9.12106">
        <ele>1477.203125</ele>
        <time>2014-06-24T09:13:23Z</time>
      </trkpt>
      <trkpt lat="42.10644" lon="9.12119">
        <ele>1480.086914</ele>
        <time>2014-06-24T09:13:43Z</time>
      </trkpt>
      <trkpt lat="42.10646" lon="9.12131">
        <ele>1483.451416</ele>
        <time>2014-06-24T09:14:00Z</time>
      </trkpt>
      <trkpt lat="42.10647" lon="9.12131">
        <ele>1482.970703</ele>
        <time>2014-06-24T09:14:19Z</time>
      </trkpt>
      <trkpt lat="42.10648" lon="9.12132">
        <ele>1484.413086</ele>
        <time>2014-06-24T09:14:40Z</time>
      </trkpt>
      <trkpt lat="42.10647" lon="9.12148">
        <ele>1486.816162</ele>
        <time>2014-06-24T09:14:59Z</time>
      </trkpt>
      <trkpt lat="42.10642" lon="9.12164">
        <ele>1489.219482</ele>
        <time>2014-06-24T09:15:18Z</time>
      </trkpt>
      <trkpt lat="42.10645" lon="9.12175">
        <ele>1489.219482</ele>
        <time>2014-06-24T09:15:34Z</time>
      </trkpt>
      <trkpt lat="42.10646" lon="9.12182">
        <ele>1489.700195</ele>
        <time>2014-06-24T09:15:49Z</time>
      </trkpt>
      <trkpt lat="42.10646" lon="9.12186">
        <ele>1490.180908</ele>
        <time>2014-06-24T09:16:11Z</time>
      </trkpt>
      <trkpt lat="42.10645" lon="9.12198">
        <ele>1491.622803</ele>
        <time>2014-06-24T09:16:24Z</time>
      </trkpt>
      <trkpt lat="42.10647" lon="9.12206">
        <ele>1491.14209</ele>
        <time>2014-06-24T09:16:39Z</time>
      </trkpt>
      <trkpt lat="42.10646" lon="9.12215">
        <ele>1492.103516</ele>
        <time>2014-06-24T09:16:53Z</time>
      </trkpt>
      <trkpt lat="42.10646" lon="9.12225">
        <ele>1491.14209</ele>
        <time>2014-06-24T09:17:07Z</time>
      </trkpt>
      <trkpt lat="42.10643" lon="9.12237">
        <ele>1492.584229</ele>
        <time>2014-06-24T09:17:22Z</time>
      </trkpt>
      <trkpt lat="42.10641" lon="9.12252">
        <ele>1493.54541</ele>
        <time>2014-06-24T09:17:38Z</time>
      </trkpt>
      <trkpt lat="42.10638" lon="9.12265">
        <ele>1494.987305</ele>
        <time>2014-06-24T09:17:54Z</time>
      </trkpt>
      <trkpt lat="42.10637" lon="9.12281">
        <ele>1496.429443</ele>
        <time>2014-06-24T09:18:12Z</time>
      </trkpt>
      <trkpt lat="42.10637" lon="9.12293">
        <ele>1497.871338</ele>
        <time>2014-06-24T09:18:26Z</time>
      </trkpt>
      <trkpt lat="42.10639" lon="9.12305">
        <ele>1500.755371</ele>
        <time>2014-06-24T09:18:38Z</time>
      </trkpt>
      <trkpt lat="42.10637" lon="9.12318">
        <ele>1502.197266</ele>
        <time>2014-06-24T09:18:53Z</time>
      </trkpt>
      <trkpt lat="42.10636" lon="9.12326">
        <ele>1506.04248</ele>
        <time>2014-06-24T09:19:04Z</time>
      </trkpt>
      <trkpt lat="42.10635" lon="9.12334">
        <ele>1507.484619</ele>
        <time>2014-06-24T09:19:19Z</time>
      </trkpt>
      <trkpt lat="42.10637" lon="9.12341">
        <ele>1508.926514</ele>
        <time>2014-06-24T09:19:35Z</time>
      </trkpt>
      <trkpt lat="42.10639" lon="9.12351">
        <ele>1511.329834</ele>
        <time>2014-06-24T09:19:47Z</time>
      </trkpt>
      <trkpt lat="42.10636" lon="9.12361">
        <ele>1511.810547</ele>
        <time>2014-06-24T09:20:00Z</time>
      </trkpt>
      <trkpt lat="42.10637" lon="9.12372">
        <ele>1514.213623</ele>
        <time>2014-06-24T09:20:15Z</time>
      </trkpt>
      <trkpt lat="42.10637" lon="9.12379">
        <ele>1514.694336</ele>
        <time>2014-06-24T09:20:27Z</time>
      </trkpt>
      <trkpt lat="42.1064" lon="9.12388">
        <ele>1516.617188</ele>
        <time>2014-06-24T09:20:39Z</time>
      </trkpt>
      <trkpt lat="42.10641" lon="9.124">
        <ele>1517.578369</ele>
        <time>2014-06-24T09:20:54Z</time>
      </trkpt>
      <trkpt lat="42.10644" lon="9.12412">
        <ele>1517.578369</ele>
        <time>2014-06-24T09:21:07Z</time>
      </trkpt>
      <trkpt lat="42.10645" lon="9.12423">
        <ele>1520.943115</ele>
        <time>2014-06-24T09:21:23Z</time>
      </trkpt>
      <trkpt lat="42.10646" lon="9.12431">
        <ele>1522.865723</ele>
        <time>2014-06-24T09:21:36Z</time>
      </trkpt>
      <trkpt lat="42.10646" lon="9.1244">
        <ele>1525.268799</ele>
        <time>2014-06-24T09:21:50Z</time>
      </trkpt>
      <trkpt lat="42.10649" lon="9.12448">
        <ele>1527.672119</ele>
        <time>2014-06-24T09:22:03Z</time>
      </trkpt>
      <trkpt lat="42.10653" lon="9.12457">
        <ele>1528.152832</ele>
        <time>2014-06-24T09:22:15Z</time>
      </trkpt>
      <trkpt lat="42.10654" lon="9.12466">
        <ele>1530.075439</ele>
        <time>2014-06-24T09:22:29Z</time>
      </trkpt>
      <trkpt lat="42.10654" lon="9.1247">
        <ele>1531.998047</ele>
        <time>2014-06-24T09:22:36Z</time>
      </trkpt>
      <trkpt lat="42.10655" lon="9.12479">
        <ele>1533.920898</ele>
        <time>2014-06-24T09:22:49Z</time>
      </trkpt>
      <trkpt lat="42.10656" lon="9.1249">
        <ele>1534.401611</ele>
        <time>2014-06-24T09:23:04Z</time>
      </trkpt>
      <trkpt lat="42.10657" lon="9.12502">
        <ele>1536.324219</ele>
        <time>2014-06-24T09:23:20Z</time>
      </trkpt>
      <trkpt lat="42.10659" lon="9.12515">
        <ele>1538.727539</ele>
        <time>2014-06-24T09:23:36Z</time>
      </trkpt>
      <trkpt lat="42.10661" lon="9.12527">
        <ele>1540.169434</ele>
        <time>2014-06-24T09:23:51Z</time>
      </trkpt>
      <trkpt lat="42.10663" lon="9.12536">
        <ele>1542.092041</ele>
        <time>2014-06-24T09:24:04Z</time>
      </trkpt>
      <trkpt lat="42.10665" lon="9.12546">
        <ele>1544.014648</ele>
        <time>2014-06-24T09:24:20Z</time>
      </trkpt>
      <trkpt lat="42.10668" lon="9.1255">
        <ele>1540.649902</ele>
        <time>2014-06-24T09:24:26Z</time>
      </trkpt>
      <trkpt lat="42.10668" lon="9.12551">
        <ele>1544.495117</ele>
        <time>2014-06-24T09:24:27Z</time>
      </trkpt>
      <trkpt lat="42.10668" lon="9.12552">
        <ele>1544.97583</ele>
        <time>2014-06-24T09:24:29Z</time>
      </trkpt>
      <trkpt lat="42.10668" lon="9.12562">
        <ele>1545.937256</ele>
        <time>2014-06-24T09:24:44Z</time>
      </trkpt>
      <trkpt lat="42.10668" lon="9.12572">
        <ele>1546.417969</ele>
        <time>2014-06-24T09:24:59Z</time>
      </trkpt>
      <trkpt lat="42.1067" lon="9.12575">
        <ele>1546.898438</ele>
        <time>2014-06-24T09:25:29Z</time>
      </trkpt>
      <trkpt lat="42.10671" lon="9.12583">
        <ele>1548.821289</ele>
        <time>2014-06-24T09:25:43Z</time>
      </trkpt>
      <trkpt lat="42.10671" lon="9.12583">
        <ele>1548.340576</ele>
        <time>2014-06-24T09:25:44Z</time>
      </trkpt>
      <trkpt lat="42.10671" lon="9.12588">
        <ele>1548.340576</ele>
        <time>2014-06-24T09:26:17Z</time>
      </trkpt>
      <trkpt lat="42.10669" lon="9.12602">
        <ele>1550.263428</ele>
        <time>2014-06-24T09:26:33Z</time>
      </trkpt>
      <trkpt lat="42.10671" lon="9.12613">
        <ele>1552.185791</ele>
        <time>2014-06-24T09:26:49Z</time>
      </trkpt>
      <trkpt lat="42.10671" lon="9.12615">
        <ele>1552.185791</ele>
        <time>2014-06-24T09:27:02Z</time>
      </trkpt>
      <trkpt lat="42.1068" lon="9.12616">
        <ele>1551.224609</ele>
        <time>2014-06-24T09:27:34Z</time>
      </trkpt>
      <trkpt lat="42.10686" lon="9.12616">
        <ele>1551.705322</ele>
        <time>2014-06-24T09:27:49Z</time>
      </trkpt>
      <trkpt lat="42.10692" lon="9.12615">
        <ele>1551.705322</ele>
        <time>2014-06-24T09:28:06Z</time>
      </trkpt>
      <trkpt lat="42.10698" lon="9.12617">
        <ele>1549.782715</ele>
        <time>2014-06-24T09:28:20Z</time>
      </trkpt>
      <trkpt lat="42.10703" lon="9.1262">
        <ele>1549.782715</ele>
        <time>2014-06-24T09:28:33Z</time>
      </trkpt>
      <trkpt lat="42.1071" lon="9.12625">
        <ele>1548.821289</ele>
        <time>2014-06-24T09:28:59Z</time>
      </trkpt>
      <trkpt lat="42.10719" lon="9.12629">
        <ele>1548.340576</ele>
        <time>2014-06-24T09:29:15Z</time>
      </trkpt>
      <trkpt lat="42.10721" lon="9.12633">
        <ele>1549.302002</ele>
        <time>2014-06-24T09:29:33Z</time>
      </trkpt>
      <trkpt lat="42.10721" lon="9.12633">
        <ele>1548.821289</ele>
        <time>2014-06-24T09:30:09Z</time>
      </trkpt>
      <trkpt lat="42.10721" lon="9.12633">
        <ele>1550.263428</ele>
        <time>2014-06-24T09:31:11Z</time>
      </trkpt>
      <trkpt lat="42.10721" lon="9.12634">
        <ele>1550.263428</ele>
        <time>2014-06-24T09:33:41Z</time>
      </trkpt>
      <trkpt lat="42.10721" lon="9.12634">
        <ele>1551.705322</ele>
        <time>2014-06-24T09:40:42Z</time>
      </trkpt>
      <trkpt lat="42.10721" lon="9.12635">
        <ele>1554.589111</ele>
        <time>2014-06-24T09:48:11Z</time>
      </trkpt>
      <trkpt lat="42.10722" lon="9.12633">
        <ele>1554.589111</ele>
        <time>2014-06-24T09:49:40Z</time>
      </trkpt>
      <trkpt lat="42.10721" lon="9.12635">
        <ele>1553.62793</ele>
        <time>2014-06-24T09:51:42Z</time>
      </trkpt>
      <trkpt lat="42.10721" lon="9.12634">
        <ele>1553.62793</ele>
        <time>2014-06-24T10:02:06Z</time>
      </trkpt>
      <trkpt lat="42.10721" lon="9.12635">
        <ele>1554.589111</ele>
        <time>2014-06-24T10:04:31Z</time>
      </trkpt>
      <trkpt lat="42.10721" lon="9.12635">
        <ele>1555.550537</ele>
        <time>2014-06-24T10:07:11Z</time>
      </trkpt>
      <trkpt lat="42.10719" lon="9.12635">
        <ele>1554.108643</ele>
        <time>2014-06-24T10:07:36Z</time>
      </trkpt>
      <trkpt lat="42.10711" lon="9.12628">
        <ele>1554.108643</ele>
        <time>2014-06-24T10:07:53Z</time>
      </trkpt>
      <trkpt lat="42.10697" lon="9.1263">
        <ele>1554.108643</ele>
        <time>2014-06-24T10:08:11Z</time>
      </trkpt>
      <trkpt lat="42.10689" lon="9.12628">
        <ele>1554.589111</ele>
        <time>2014-06-24T10:08:21Z</time>
      </trkpt>
      <trkpt lat="42.10676" lon="9.1263">
        <ele>1554.589111</ele>
        <time>2014-06-24T10:08:38Z</time>
      </trkpt>
      <trkpt lat="42.10672" lon="9.12634">
        <ele>1554.108643</ele>
        <time>2014-06-24T10:08:53Z</time>
      </trkpt>
      <trkpt lat="42.10675" lon="9.12641">
        <ele>1552.185791</ele>
        <time>2014-06-24T10:09:11Z</time>
      </trkpt>
      <trkpt lat="42.1068" lon="9.12647">
        <ele>1550.263428</ele>
        <time>2014-06-24T10:09:28Z</time>
      </trkpt>
      <trkpt lat="42.10675" lon="9.12652">
        <ele>1547.859863</ele>
        <time>2014-06-24T10:09:44Z</time>
      </trkpt>
      <trkpt lat="42.1067" lon="9.12657">
        <ele>1546.417969</ele>
        <time>2014-06-24T10:09:59Z</time>
      </trkpt>
      <trkpt lat="42.10662" lon="9.12662">
        <ele>1544.014648</ele>
        <time>2014-06-24T10:10:15Z</time>
      </trkpt>
      <trkpt lat="42.1066" lon="9.12667">
        <ele>1541.611328</ele>
        <time>2014-06-24T10:10:31Z</time>
      </trkpt>
      <trkpt lat="42.10658" lon="9.12672">
        <ele>1539.208008</ele>
        <time>2014-06-24T10:10:39Z</time>
      </trkpt>
      <trkpt lat="42.10654" lon="9.12681">
        <ele>1537.2854</ele>
        <time>2014-06-24T10:10:59Z</time>
      </trkpt>
      <trkpt lat="42.10657" lon="9.12686">
        <ele>1535.843506</ele>
        <time>2014-06-24T10:11:13Z</time>
      </trkpt>
      <trkpt lat="42.10654" lon="9.12694">
        <ele>1533.440186</ele>
        <time>2014-06-24T10:11:28Z</time>
      </trkpt>
      <trkpt lat="42.10657" lon="9.127">
        <ele>1530.075439</ele>
        <time>2014-06-24T10:11:41Z</time>
      </trkpt>
      <trkpt lat="42.10661" lon="9.127">
        <ele>1530.556152</ele>
        <time>2014-06-24T10:11:48Z</time>
      </trkpt>
      <trkpt lat="42.10668" lon="9.12705">
        <ele>1527.19165</ele>
        <time>2014-06-24T10:12:01Z</time>
      </trkpt>
      <trkpt lat="42.10659" lon="9.12718">
        <ele>1525.749512</ele>
        <time>2014-06-24T10:12:19Z</time>
      </trkpt>
      <trkpt lat="42.10648" lon="9.12718">
        <ele>1524.78833</ele>
        <time>2014-06-24T10:12:33Z</time>
      </trkpt>
      <trkpt lat="42.10641" lon="9.1272">
        <ele>1521.423584</ele>
        <time>2014-06-24T10:12:46Z</time>
      </trkpt>
      <trkpt lat="42.10631" lon="9.12719">
        <ele>1522.38501</ele>
        <time>2014-06-24T10:12:59Z</time>
      </trkpt>
      <trkpt lat="42.10621" lon="9.12718">
        <ele>1519.020508</ele>
        <time>2014-06-24T10:13:14Z</time>
      </trkpt>
      <trkpt lat="42.10608" lon="9.12717">
        <ele>1517.578369</ele>
        <time>2014-06-24T10:13:32Z</time>
      </trkpt>
      <trkpt lat="42.10607" lon="9.12717">
        <ele>1516.136475</ele>
        <time>2014-06-24T10:13:35Z</time>
      </trkpt>
      <trkpt lat="42.10598" lon="9.12714">
        <ele>1514.694336</ele>
        <time>2014-06-24T10:13:49Z</time>
      </trkpt>
      <trkpt lat="42.10587" lon="9.12716">
        <ele>1512.771729</ele>
        <time>2014-06-24T10:14:02Z</time>
      </trkpt>
      <trkpt lat="42.10573" lon="9.12715">
        <ele>1509.887695</ele>
        <time>2014-06-24T10:14:19Z</time>
      </trkpt>
      <trkpt lat="42.10567" lon="9.12725">
        <ele>1507.484619</ele>
        <time>2014-06-24T10:14:31Z</time>
      </trkpt>
      <trkpt lat="42.10577" lon="9.12735">
        <ele>1504.120117</ele>
        <time>2014-06-24T10:14:59Z</time>
      </trkpt>
      <trkpt lat="42.10581" lon="9.12742">
        <ele>1503.639404</ele>
        <time>2014-06-24T10:15:17Z</time>
      </trkpt>
      <trkpt lat="42.10578" lon="9.12745">
        <ele>1500.274902</ele>
        <time>2014-06-24T10:15:29Z</time>
      </trkpt>
      <trkpt lat="42.10571" lon="9.1275">
        <ele>1496.909912</ele>
        <time>2014-06-24T10:15:41Z</time>
      </trkpt>
      <trkpt lat="42.10575" lon="9.12767">
        <ele>1494.026123</ele>
        <time>2014-06-24T10:16:00Z</time>
      </trkpt>
      <trkpt lat="42.10594" lon="9.12769">
        <ele>1490.180908</ele>
        <time>2014-06-24T10:16:26Z</time>
      </trkpt>
      <trkpt lat="42.10597" lon="9.12785">
        <ele>1488.258301</ele>
        <time>2014-06-24T10:16:36Z</time>
      </trkpt>
      <trkpt lat="42.10607" lon="9.12796">
        <ele>1484.413086</ele>
        <time>2014-06-24T10:16:52Z</time>
      </trkpt>
      <trkpt lat="42.10607" lon="9.12797">
        <ele>1484.413086</ele>
        <time>2014-06-24T10:16:53Z</time>
      </trkpt>
      <trkpt lat="42.10608" lon="9.12816">
        <ele>1481.528809</ele>
        <time>2014-06-24T10:17:07Z</time>
      </trkpt>
      <trkpt lat="42.10619" lon="9.12824">
        <ele>1478.164307</ele>
        <time>2014-06-24T10:17:27Z</time>
      </trkpt>
      <trkpt lat="42.10602" lon="9.12824">
        <ele>1474.799805</ele>
        <time>2014-06-24T10:17:49Z</time>
      </trkpt>
      <trkpt lat="42.10595" lon="9.1282">
        <ele>1471.435059</ele>
        <time>2014-06-24T10:18:01Z</time>
      </trkpt>
      <trkpt lat="42.1058" lon="9.12808">
        <ele>1471.435059</ele>
        <time>2014-06-24T10:18:23Z</time>
      </trkpt>
      <trkpt lat="42.10579" lon="9.12808">
        <ele>1471.435059</ele>
        <time>2014-06-24T10:18:24Z</time>
      </trkpt>
      <trkpt lat="42.10564" lon="9.12811">
        <ele>1469.031982</ele>
        <time>2014-06-24T10:18:45Z</time>
      </trkpt>
      <trkpt lat="42.10565" lon="9.12819">
        <ele>1466.147705</ele>
        <time>2014-06-24T10:18:58Z</time>
      </trkpt>
      <trkpt lat="42.10577" lon="9.12825">
        <ele>1464.225098</ele>
        <time>2014-06-24T10:19:14Z</time>
      </trkpt>
      <trkpt lat="42.10568" lon="9.12839">
        <ele>1460.860596</ele>
        <time>2014-06-24T10:19:24Z</time>
      </trkpt>
      <trkpt lat="42.10569" lon="9.12846">
        <ele>1457.976807</ele>
        <time>2014-06-24T10:19:43Z</time>
      </trkpt>
      <trkpt lat="42.10583" lon="9.12842">
        <ele>1455.573486</ele>
        <time>2014-06-24T10:20:03Z</time>
      </trkpt>
      <trkpt lat="42.10587" lon="9.12859">
        <ele>1452.689453</ele>
        <time>2014-06-24T10:20:20Z</time>
      </trkpt>
      <trkpt lat="42.10586" lon="9.12861">
        <ele>1452.20874</ele>
        <time>2014-06-24T10:20:21Z</time>
      </trkpt>
      <trkpt lat="42.10583" lon="9.12882">
        <ele>1451.728027</ele>
        <time>2014-06-24T10:20:30Z</time>
      </trkpt>
      <trkpt lat="42.10581" lon="9.12898">
        <ele>1448.843994</ele>
        <time>2014-06-24T10:20:45Z</time>
      </trkpt>
      <trkpt lat="42.10583" lon="9.12901">
        <ele>1446.921387</ele>
        <time>2014-06-24T10:21:01Z</time>
      </trkpt>
      <trkpt lat="42.10584" lon="9.12912">
        <ele>1444.037598</ele>
        <time>2014-06-24T10:21:14Z</time>
      </trkpt>
      <trkpt lat="42.10566" lon="9.12901">
        <ele>1440.672852</ele>
        <time>2014-06-24T10:21:41Z</time>
      </trkpt>
      <trkpt lat="42.10564" lon="9.12899">
        <ele>1439.71167</ele>
        <time>2014-06-24T10:21:46Z</time>
      </trkpt>
      <trkpt lat="42.10554" lon="9.12895">
        <ele>1437.30835</ele>
        <time>2014-06-24T10:22:13Z</time>
      </trkpt>
      <trkpt lat="42.10555" lon="9.12896">
        <ele>1436.347168</ele>
        <time>2014-06-24T10:22:15Z</time>
      </trkpt>
      <trkpt lat="42.10549" lon="9.12926">
        <ele>1435.385498</ele>
        <time>2014-06-24T10:22:46Z</time>
      </trkpt>
      <trkpt lat="42.10548" lon="9.12947">
        <ele>1432.501709</ele>
        <time>2014-06-24T10:23:00Z</time>
      </trkpt>
      <trkpt lat="42.10552" lon="9.12951">
        <ele>1430.098389</ele>
        <time>2014-06-24T10:23:19Z</time>
      </trkpt>
      <trkpt lat="42.10559" lon="9.12956">
        <ele>1428.656494</ele>
        <time>2014-06-24T10:23:37Z</time>
      </trkpt>
      <trkpt lat="42.10566" lon="9.1297">
        <ele>1425.291748</ele>
        <time>2014-06-24T10:24:01Z</time>
      </trkpt>
      <trkpt lat="42.10574" lon="9.12971">
        <ele>1421.927246</ele>
        <time>2014-06-24T10:24:13Z</time>
      </trkpt>
      <trkpt lat="42.10583" lon="9.12982">
        <ele>1420.004639</ele>
        <time>2014-06-24T10:24:36Z</time>
      </trkpt>
      <trkpt lat="42.10599" lon="9.12989">
        <ele>1416.639893</ele>
        <time>2014-06-24T10:24:58Z</time>
      </trkpt>
      <trkpt lat="42.10604" lon="9.12995">
        <ele>1415.197998</ele>
        <time>2014-06-24T10:25:09Z</time>
      </trkpt>
      <trkpt lat="42.10621" lon="9.13004">
        <ele>1413.275391</ele>
        <time>2014-06-24T10:25:34Z</time>
      </trkpt>
      <trkpt lat="42.10671" lon="9.13026">
        <ele>1414.236572</ele>
        <time>2014-06-24T10:26:46Z</time>
      </trkpt>
      <trkpt lat="42.10674" lon="9.13029">
        <ele>1412.794678</ele>
        <time>2014-06-24T10:26:49Z</time>
      </trkpt>
      <trkpt lat="42.10676" lon="9.13042">
        <ele>1411.352783</ele>
        <time>2014-06-24T10:26:58Z</time>
      </trkpt>
      <trkpt lat="42.10677" lon="9.13051">
        <ele>1411.352783</ele>
        <time>2014-06-24T10:27:06Z</time>
      </trkpt>
      <trkpt lat="42.10684" lon="9.13056">
        <ele>1408.46875</ele>
        <time>2014-06-24T10:27:18Z</time>
      </trkpt>
      <trkpt lat="42.10694" lon="9.13081">
        <ele>1405.104248</ele>
        <time>2014-06-24T10:27:42Z</time>
      </trkpt>
      <trkpt lat="42.10701" lon="9.13089">
        <ele>1403.662109</ele>
        <time>2014-06-24T10:27:52Z</time>
      </trkpt>
      <trkpt lat="42.10702" lon="9.13102">
        <ele>1401.258789</ele>
        <time>2014-06-24T10:28:05Z</time>
      </trkpt>
      <trkpt lat="42.107" lon="9.13122">
        <ele>1401.258789</ele>
        <time>2014-06-24T10:28:23Z</time>
      </trkpt>
      <trkpt lat="42.10689" lon="9.13115">
        <ele>1401.258789</ele>
        <time>2014-06-24T10:28:34Z</time>
      </trkpt>
      <trkpt lat="42.1068" lon="9.13106">
        <ele>1401.739502</ele>
        <time>2014-06-24T10:28:45Z</time>
      </trkpt>
      <trkpt lat="42.10672" lon="9.13096">
        <ele>1401.739502</ele>
        <time>2014-06-24T10:28:55Z</time>
      </trkpt>
      <trkpt lat="42.10653" lon="9.13085">
        <ele>1401.258789</ele>
        <time>2014-06-24T10:29:13Z</time>
      </trkpt>
      <trkpt lat="42.10651" lon="9.13083">
        <ele>1401.258789</ele>
        <time>2014-06-24T10:29:15Z</time>
      </trkpt>
      <trkpt lat="42.10638" lon="9.13077">
        <ele>1400.778076</ele>
        <time>2014-06-24T10:29:25Z</time>
      </trkpt>
      <trkpt lat="42.10635" lon="9.13085">
        <ele>1400.778076</ele>
        <time>2014-06-24T10:29:39Z</time>
      </trkpt>
      <trkpt lat="42.10627" lon="9.13108">
        <ele>1400.297607</ele>
        <time>2014-06-24T10:29:55Z</time>
      </trkpt>
      <trkpt lat="42.10629" lon="9.13126">
        <ele>1399.816895</ele>
        <time>2014-06-24T10:30:06Z</time>
      </trkpt>
      <trkpt lat="42.10634" lon="9.13142">
        <ele>1399.816895</ele>
        <time>2014-06-24T10:30:16Z</time>
      </trkpt>
      <trkpt lat="42.10643" lon="9.13154">
        <ele>1399.816895</ele>
        <time>2014-06-24T10:30:28Z</time>
      </trkpt>
      <trkpt lat="42.10643" lon="9.13161">
        <ele>1400.297607</ele>
        <time>2014-06-24T10:30:34Z</time>
      </trkpt>
      <trkpt lat="42.10632" lon="9.13162">
        <ele>1401.739502</ele>
        <time>2014-06-24T10:30:46Z</time>
      </trkpt>
      <trkpt lat="42.10621" lon="9.13165">
        <ele>1401.739502</ele>
        <time>2014-06-24T10:30:58Z</time>
      </trkpt>
      <trkpt lat="42.10612" lon="9.13167">
        <ele>1401.739502</ele>
        <time>2014-06-24T10:31:09Z</time>
      </trkpt>
      <trkpt lat="42.10598" lon="9.13164">
        <ele>1401.739502</ele>
        <time>2014-06-24T10:31:21Z</time>
      </trkpt>
      <trkpt lat="42.10595" lon="9.13164">
        <ele>1401.739502</ele>
        <time>2014-06-24T10:31:23Z</time>
      </trkpt>
      <trkpt lat="42.1058" lon="9.13158">
        <ele>1401.739502</ele>
        <time>2014-06-24T10:31:33Z</time>
      </trkpt>
      <trkpt lat="42.10575" lon="9.13158">
        <ele>1401.739502</ele>
        <time>2014-06-24T10:31:36Z</time>
      </trkpt>
      <trkpt lat="42.10571" lon="9.13158">
        <ele>1402.700684</ele>
        <time>2014-06-24T10:31:40Z</time>
      </trkpt>
      <trkpt lat="42.10563" lon="9.13154">
        <ele>1403.662109</ele>
        <time>2014-06-24T10:31:48Z</time>
      </trkpt>
      <trkpt lat="42.10553" lon="9.13154">
        <ele>1404.623535</ele>
        <time>2014-06-24T10:32:01Z</time>
      </trkpt>
      <trkpt lat="42.10545" lon="9.13143">
        <ele>1405.104248</ele>
        <time>2014-06-24T10:32:12Z</time>
      </trkpt>
      <trkpt lat="42.10533" lon="9.13135">
        <ele>1406.06543</ele>
        <time>2014-06-24T10:32:28Z</time>
      </trkpt>
      <trkpt lat="42.10519" lon="9.13137">
        <ele>1407.507568</ele>
        <time>2014-06-24T10:32:40Z</time>
      </trkpt>
      <trkpt lat="42.10513" lon="9.1314">
        <ele>1408.46875</ele>
        <time>2014-06-24T10:32:49Z</time>
      </trkpt>
      <trkpt lat="42.10508" lon="9.1314">
        <ele>1407.988281</ele>
        <time>2014-06-24T10:32:56Z</time>
      </trkpt>
      <trkpt lat="42.10499" lon="9.13152">
        <ele>1408.46875</ele>
        <time>2014-06-24T10:33:06Z</time>
      </trkpt>
      <trkpt lat="42.10492" lon="9.13165">
        <ele>1411.833496</ele>
        <time>2014-06-24T10:33:16Z</time>
      </trkpt>
      <trkpt lat="42.10492" lon="9.13165">
        <ele>1411.833496</ele>
        <time>2014-06-24T10:33:17Z</time>
      </trkpt>
      <trkpt lat="42.10486" lon="9.13167">
        <ele>1411.352783</ele>
        <time>2014-06-24T10:33:25Z</time>
      </trkpt>
      <trkpt lat="42.10478" lon="9.13171">
        <ele>1411.352783</ele>
        <time>2014-06-24T10:33:35Z</time>
      </trkpt>
      <trkpt lat="42.10469" lon="9.1318">
        <ele>1410.391357</ele>
        <time>2014-06-24T10:33:46Z</time>
      </trkpt>
      <trkpt lat="42.10461" lon="9.13193">
        <ele>1407.026855</ele>
        <time>2014-06-24T10:34:02Z</time>
      </trkpt>
      <trkpt lat="42.10453" lon="9.13211">
        <ele>1407.507568</ele>
        <time>2014-06-24T10:34:30Z</time>
      </trkpt>
      <trkpt lat="42.10458" lon="9.13213">
        <ele>1407.988281</ele>
        <time>2014-06-24T10:34:55Z</time>
      </trkpt>
      <trkpt lat="42.10467" lon="9.13224">
        <ele>1407.026855</ele>
        <time>2014-06-24T10:35:06Z</time>
      </trkpt>
      <trkpt lat="42.10474" lon="9.13242">
        <ele>1407.507568</ele>
        <time>2014-06-24T10:35:19Z</time>
      </trkpt>
      <trkpt lat="42.10478" lon="9.13248">
        <ele>1407.988281</ele>
        <time>2014-06-24T10:35:26Z</time>
      </trkpt>
      <trkpt lat="42.10488" lon="9.13247">
        <ele>1407.988281</ele>
        <time>2014-06-24T10:35:36Z</time>
      </trkpt>
      <trkpt lat="42.10497" lon="9.13244">
        <ele>1407.507568</ele>
        <time>2014-06-24T10:35:45Z</time>
      </trkpt>
      <trkpt lat="42.10506" lon="9.13259">
        <ele>1407.507568</ele>
        <time>2014-06-24T10:35:59Z</time>
      </trkpt>
      <trkpt lat="42.10514" lon="9.13262">
        <ele>1406.06543</ele>
        <time>2014-06-24T10:36:08Z</time>
      </trkpt>
      <trkpt lat="42.10527" lon="9.13257">
        <ele>1403.662109</ele>
        <time>2014-06-24T10:36:20Z</time>
      </trkpt>
      <trkpt lat="42.10539" lon="9.13253">
        <ele>1403.181396</ele>
        <time>2014-06-24T10:36:35Z</time>
      </trkpt>
      <trkpt lat="42.10545" lon="9.13258">
        <ele>1402.700684</ele>
        <time>2014-06-24T10:36:45Z</time>
      </trkpt>
      <trkpt lat="42.10545" lon="9.13259">
        <ele>1402.700684</ele>
        <time>2014-06-24T10:36:46Z</time>
      </trkpt>
      <trkpt lat="42.10553" lon="9.13276">
        <ele>1401.739502</ele>
        <time>2014-06-24T10:37:00Z</time>
      </trkpt>
      <trkpt lat="42.10557" lon="9.13285">
        <ele>1401.258789</ele>
        <time>2014-06-24T10:37:07Z</time>
      </trkpt>
      <trkpt lat="42.10562" lon="9.1329">
        <ele>1401.258789</ele>
        <time>2014-06-24T10:37:13Z</time>
      </trkpt>
      <trkpt lat="42.10574" lon="9.13298">
        <ele>1398.855469</ele>
        <time>2014-06-24T10:37:28Z</time>
      </trkpt>
      <trkpt lat="42.10585" lon="9.13305">
        <ele>1397.413574</ele>
        <time>2014-06-24T10:37:42Z</time>
      </trkpt>
      <trkpt lat="42.10592" lon="9.13308">
        <ele>1395.97168</ele>
        <time>2014-06-24T10:37:53Z</time>
      </trkpt>
      <trkpt lat="42.10588" lon="9.13293">
        <ele>1393.568359</ele>
        <time>2014-06-24T10:38:08Z</time>
      </trkpt>
      <trkpt lat="42.10592" lon="9.13298">
        <ele>1392.607178</ele>
        <time>2014-06-24T10:38:20Z</time>
      </trkpt>
      <trkpt lat="42.10604" lon="9.13303">
        <ele>1390.203857</ele>
        <time>2014-06-24T10:38:35Z</time>
      </trkpt>
      <trkpt lat="42.10611" lon="9.13305">
        <ele>1388.761963</ele>
        <time>2014-06-24T10:38:50Z</time>
      </trkpt>
      <trkpt lat="42.10616" lon="9.13309">
        <ele>1386.358398</ele>
        <time>2014-06-24T10:39:01Z</time>
      </trkpt>
      <trkpt lat="42.10617" lon="9.13313">
        <ele>1384.435791</ele>
        <time>2014-06-24T10:39:14Z</time>
      </trkpt>
      <trkpt lat="42.10625" lon="9.13311">
        <ele>1382.032471</ele>
        <time>2014-06-24T10:39:30Z</time>
      </trkpt>
      <trkpt lat="42.1062" lon="9.13319">
        <ele>1380.590576</ele>
        <time>2014-06-24T10:39:41Z</time>
      </trkpt>
      <trkpt lat="42.10611" lon="9.13326">
        <ele>1379.62915</ele>
        <time>2014-06-24T10:39:53Z</time>
      </trkpt>
      <trkpt lat="42.10605" lon="9.13332">
        <ele>1378.187256</ele>
        <time>2014-06-24T10:40:03Z</time>
      </trkpt>
      <trkpt lat="42.10604" lon="9.13348">
        <ele>1375.783936</ele>
        <time>2014-06-24T10:40:25Z</time>
      </trkpt>
      <trkpt lat="42.10603" lon="9.13355">
        <ele>1375.783936</ele>
        <time>2014-06-24T10:40:43Z</time>
      </trkpt>
      <trkpt lat="42.10608" lon="9.13359">
        <ele>1375.303223</ele>
        <time>2014-06-24T10:40:55Z</time>
      </trkpt>
      <trkpt lat="42.10621" lon="9.13362">
        <ele>1374.822754</ele>
        <time>2014-06-24T10:41:09Z</time>
      </trkpt>
      <trkpt lat="42.10629" lon="9.13368">
        <ele>1374.822754</ele>
        <time>2014-06-24T10:41:18Z</time>
      </trkpt>
      <trkpt lat="42.10635" lon="9.13373">
        <ele>1374.822754</ele>
        <time>2014-06-24T10:41:25Z</time>
      </trkpt>
      <trkpt lat="42.10646" lon="9.1338">
        <ele>1373.380859</ele>
        <time>2014-06-24T10:41:37Z</time>
      </trkpt>
      <trkpt lat="42.10654" lon="9.13388">
        <ele>1371.938477</ele>
        <time>2014-06-24T10:41:51Z</time>
      </trkpt>
      <trkpt lat="42.10664" lon="9.134">
        <ele>1370.496582</ele>
        <time>2014-06-24T10:42:06Z</time>
      </trkpt>
      <trkpt lat="42.10667" lon="9.13402">
        <ele>1370.496582</ele>
        <time>2014-06-24T10:42:09Z</time>
      </trkpt>
      <trkpt lat="42.10671" lon="9.13405">
        <ele>1369.5354</ele>
        <time>2014-06-24T10:42:13Z</time>
      </trkpt>
      <trkpt lat="42.1068" lon="9.13417">
        <ele>1368.573975</ele>
        <time>2014-06-24T10:42:26Z</time>
      </trkpt>
      <trkpt lat="42.10682" lon="9.13423">
        <ele>1368.573975</ele>
        <time>2014-06-24T10:42:30Z</time>
      </trkpt>
      <trkpt lat="42.10689" lon="9.13442">
        <ele>1367.13208</ele>
        <time>2014-06-24T10:42:45Z</time>
      </trkpt>
      <trkpt lat="42.10692" lon="9.13447">
        <ele>1366.651367</ele>
        <time>2014-06-24T10:42:50Z</time>
      </trkpt>
      <trkpt lat="42.10695" lon="9.13451">
        <ele>1366.651367</ele>
        <time>2014-06-24T10:42:53Z</time>
      </trkpt>
      <trkpt lat="42.10706" lon="9.13457">
        <ele>1365.690186</ele>
        <time>2014-06-24T10:43:01Z</time>
      </trkpt>
      <trkpt lat="42.10709" lon="9.13468">
        <ele>1366.170654</ele>
        <time>2014-06-24T10:43:09Z</time>
      </trkpt>
      <trkpt lat="42.10711" lon="9.13489">
        <ele>1364.248047</ele>
        <time>2014-06-24T10:43:24Z</time>
      </trkpt>
      <trkpt lat="42.10715" lon="9.13506">
        <ele>1362.806152</ele>
        <time>2014-06-24T10:43:37Z</time>
      </trkpt>
      <trkpt lat="42.10715" lon="9.13507">
        <ele>1361.844971</ele>
        <time>2014-06-24T10:43:38Z</time>
      </trkpt>
      <trkpt lat="42.10716" lon="9.13513">
        <ele>1361.844971</ele>
        <time>2014-06-24T10:43:42Z</time>
      </trkpt>
      <trkpt lat="42.10725" lon="9.13528">
        <ele>1359.922119</ele>
        <time>2014-06-24T10:43:56Z</time>
      </trkpt>
      <trkpt lat="42.10728" lon="9.13533">
        <ele>1359.922119</ele>
        <time>2014-06-24T10:44:00Z</time>
      </trkpt>
      <trkpt lat="42.10741" lon="9.13549">
        <ele>1357.03833</ele>
        <time>2014-06-24T10:44:16Z</time>
      </trkpt>
      <trkpt lat="42.10744" lon="9.13551">
        <ele>1356.557617</ele>
        <time>2014-06-24T10:44:18Z</time>
      </trkpt>
      <trkpt lat="42.10748" lon="9.13566">
        <ele>1355.115479</ele>
        <time>2014-06-24T10:44:31Z</time>
      </trkpt>
      <trkpt lat="42.1075" lon="9.1357">
        <ele>1354.634766</ele>
        <time>2014-06-24T10:44:34Z</time>
      </trkpt>
      <trkpt lat="42.1075" lon="9.13577">
        <ele>1354.154297</ele>
        <time>2014-06-24T10:44:38Z</time>
      </trkpt>
      <trkpt lat="42.10758" lon="9.13593">
        <ele>1351.750977</ele>
        <time>2014-06-24T10:44:52Z</time>
      </trkpt>
      <trkpt lat="42.10761" lon="9.13613">
        <ele>1350.309082</ele>
        <time>2014-06-24T10:45:07Z</time>
      </trkpt>
      <trkpt lat="42.10762" lon="9.1363">
        <ele>1349.347656</ele>
        <time>2014-06-24T10:45:21Z</time>
      </trkpt>
      <trkpt lat="42.10763" lon="9.13645">
        <ele>1347.425049</ele>
        <time>2014-06-24T10:45:33Z</time>
      </trkpt>
      <trkpt lat="42.10773" lon="9.13654">
        <ele>1345.502441</ele>
        <time>2014-06-24T10:45:45Z</time>
      </trkpt>
      <trkpt lat="42.10773" lon="9.13658">
        <ele>1345.502441</ele>
        <time>2014-06-24T10:45:48Z</time>
      </trkpt>
      <trkpt lat="42.10777" lon="9.13671">
        <ele>1345.502441</ele>
        <time>2014-06-24T10:46:01Z</time>
      </trkpt>
      <trkpt lat="42.10784" lon="9.13687">
        <ele>1345.502441</ele>
        <time>2014-06-24T10:46:15Z</time>
      </trkpt>
      <trkpt lat="42.10787" lon="9.13699">
        <ele>1344.060547</ele>
        <time>2014-06-24T10:46:26Z</time>
      </trkpt>
      <trkpt lat="42.10794" lon="9.13707">
        <ele>1340.695801</ele>
        <time>2014-06-24T10:46:35Z</time>
      </trkpt>
      <trkpt lat="42.10795" lon="9.13708">
        <ele>1340.695801</ele>
        <time>2014-06-24T10:46:36Z</time>
      </trkpt>
      <trkpt lat="42.10796" lon="9.13721">
        <ele>1337.811768</ele>
        <time>2014-06-24T10:46:49Z</time>
      </trkpt>
      <trkpt lat="42.10788" lon="9.13736">
        <ele>1337.811768</ele>
        <time>2014-06-24T10:47:02Z</time>
      </trkpt>
      <trkpt lat="42.10784" lon="9.13744">
        <ele>1336.850342</ele>
        <time>2014-06-24T10:47:11Z</time>
      </trkpt>
      <trkpt lat="42.10775" lon="9.13755">
        <ele>1335.408447</ele>
        <time>2014-06-24T10:47:24Z</time>
      </trkpt>
      <trkpt lat="42.10771" lon="9.13763">
        <ele>1334.927979</ele>
        <time>2014-06-24T10:47:31Z</time>
      </trkpt>
      <trkpt lat="42.10775" lon="9.13784">
        <ele>1334.447266</ele>
        <time>2014-06-24T10:47:46Z</time>
      </trkpt>
      <trkpt lat="42.10783" lon="9.13793">
        <ele>1331.563232</ele>
        <time>2014-06-24T10:47:56Z</time>
      </trkpt>
      <trkpt lat="42.1079" lon="9.13804">
        <ele>1328.679443</ele>
        <time>2014-06-24T10:48:10Z</time>
      </trkpt>
      <trkpt lat="42.1079" lon="9.13815">
        <ele>1328.19873</ele>
        <time>2014-06-24T10:48:22Z</time>
      </trkpt>
      <trkpt lat="42.10797" lon="9.13825">
        <ele>1326.756836</ele>
        <time>2014-06-24T10:48:36Z</time>
      </trkpt>
      <trkpt lat="42.10799" lon="9.13829">
        <ele>1324.353516</ele>
        <time>2014-06-24T10:49:15Z</time>
      </trkpt>
      <trkpt lat="42.10805" lon="9.13836">
        <ele>1324.834229</ele>
        <time>2014-06-24T10:49:28Z</time>
      </trkpt>
      <trkpt lat="42.10818" lon="9.13843">
        <ele>1322.911377</ele>
        <time>2014-06-24T10:49:44Z</time>
      </trkpt>
      <trkpt lat="42.10824" lon="9.13853">
        <ele>1320.98877</ele>
        <time>2014-06-24T10:49:56Z</time>
      </trkpt>
      <trkpt lat="42.10828" lon="9.13862">
        <ele>1320.508057</ele>
        <time>2014-06-24T10:50:05Z</time>
      </trkpt>
      <trkpt lat="42.10833" lon="9.13866">
        <ele>1319.546875</ele>
        <time>2014-06-24T10:50:17Z</time>
      </trkpt>
      <trkpt lat="42.10844" lon="9.1387">
        <ele>1317.624023</ele>
        <time>2014-06-24T10:50:29Z</time>
      </trkpt>
      <trkpt lat="42.10854" lon="9.13875">
        <ele>1316.182129</ele>
        <time>2014-06-24T10:50:41Z</time>
      </trkpt>
      <trkpt lat="42.10861" lon="9.13877">
        <ele>1313.778809</ele>
        <time>2014-06-24T10:50:53Z</time>
      </trkpt>
      <trkpt lat="42.10869" lon="9.13879">
        <ele>1311.375732</ele>
        <time>2014-06-24T10:51:06Z</time>
      </trkpt>
      <trkpt lat="42.1088" lon="9.13882">
        <ele>1309.933594</ele>
        <time>2014-06-24T10:51:21Z</time>
      </trkpt>
      <trkpt lat="42.10886" lon="9.13885">
        <ele>1308.01123</ele>
        <time>2014-06-24T10:51:28Z</time>
      </trkpt>
      <trkpt lat="42.10895" lon="9.13893">
        <ele>1305.607666</ele>
        <time>2014-06-24T10:51:39Z</time>
      </trkpt>
      <trkpt lat="42.1091" lon="9.13899">
        <ele>1305.126953</ele>
        <time>2014-06-24T10:51:54Z</time>
      </trkpt>
      <trkpt lat="42.10918" lon="9.13897">
        <ele>1303.204346</ele>
        <time>2014-06-24T10:52:07Z</time>
      </trkpt>
      <trkpt lat="42.10925" lon="9.13888">
        <ele>1300.801025</ele>
        <time>2014-06-24T10:52:22Z</time>
      </trkpt>
      <trkpt lat="42.10925" lon="9.13879">
        <ele>1298.397705</ele>
        <time>2014-06-24T10:52:36Z</time>
      </trkpt>
      <trkpt lat="42.10916" lon="9.13866">
        <ele>1296.475342</ele>
        <time>2014-06-24T10:52:49Z</time>
      </trkpt>
      <trkpt lat="42.10923" lon="9.13858">
        <ele>1294.55249</ele>
        <time>2014-06-24T10:53:01Z</time>
      </trkpt>
      <trkpt lat="42.10933" lon="9.13853">
        <ele>1292.149414</ele>
        <time>2014-06-24T10:53:14Z</time>
      </trkpt>
      <trkpt lat="42.10943" lon="9.13853">
        <ele>1290.226563</ele>
        <time>2014-06-24T10:53:27Z</time>
      </trkpt>
      <trkpt lat="42.10951" lon="9.13852">
        <ele>1288.784668</ele>
        <time>2014-06-24T10:53:39Z</time>
      </trkpt>
      <trkpt lat="42.10965" lon="9.13855">
        <ele>1287.823242</ele>
        <time>2014-06-24T10:53:55Z</time>
      </trkpt>
      <trkpt lat="42.10972" lon="9.13871">
        <ele>1285.419922</ele>
        <time>2014-06-24T10:54:09Z</time>
      </trkpt>
      <trkpt lat="42.10975" lon="9.13884">
        <ele>1283.497314</ele>
        <time>2014-06-24T10:54:22Z</time>
      </trkpt>
      <trkpt lat="42.10976" lon="9.13892">
        <ele>1282.536133</ele>
        <time>2014-06-24T10:54:35Z</time>
      </trkpt>
      <trkpt lat="42.10984" lon="9.13889">
        <ele>1282.536133</ele>
        <time>2014-06-24T10:54:54Z</time>
      </trkpt>
      <trkpt lat="42.10994" lon="9.13888">
        <ele>1282.536133</ele>
        <time>2014-06-24T10:55:08Z</time>
      </trkpt>
      <trkpt lat="42.11006" lon="9.13892">
        <ele>1281.574707</ele>
        <time>2014-06-24T10:55:21Z</time>
      </trkpt>
      <trkpt lat="42.11007" lon="9.13892">
        <ele>1281.574707</ele>
        <time>2014-06-24T10:55:22Z</time>
      </trkpt>
      <trkpt lat="42.1102" lon="9.13894">
        <ele>1281.094238</ele>
        <time>2014-06-24T10:55:32Z</time>
      </trkpt>
      <trkpt lat="42.11023" lon="9.13897">
        <ele>1280.132813</ele>
        <time>2014-06-24T10:55:37Z</time>
      </trkpt>
      <trkpt lat="42.11035" lon="9.139">
        <ele>1282.05542</ele>
        <time>2014-06-24T10:55:47Z</time>
      </trkpt>
      <trkpt lat="42.11043" lon="9.13909">
        <ele>1281.574707</ele>
        <time>2014-06-24T10:55:58Z</time>
      </trkpt>
      <trkpt lat="42.11052" lon="9.13912">
        <ele>1281.574707</ele>
        <time>2014-06-24T10:56:06Z</time>
      </trkpt>
      <trkpt lat="42.11067" lon="9.13918">
        <ele>1282.536133</ele>
        <time>2014-06-24T10:56:20Z</time>
      </trkpt>
      <trkpt lat="42.11068" lon="9.13918">
        <ele>1282.536133</ele>
        <time>2014-06-24T10:56:21Z</time>
      </trkpt>
      <trkpt lat="42.11083" lon="9.13922">
        <ele>1281.574707</ele>
        <time>2014-06-24T10:56:35Z</time>
      </trkpt>
      <trkpt lat="42.11106" lon="9.13918">
        <ele>1281.574707</ele>
        <time>2014-06-24T10:56:52Z</time>
      </trkpt>
      <trkpt lat="42.11122" lon="9.13923">
        <ele>1281.094238</ele>
        <time>2014-06-24T10:57:09Z</time>
      </trkpt>
      <trkpt lat="42.1114" lon="9.13924">
        <ele>1279.6521</ele>
        <time>2014-06-24T10:57:29Z</time>
      </trkpt>
      <trkpt lat="42.11144" lon="9.13925">
        <ele>1280.132813</ele>
        <time>2014-06-24T10:57:43Z</time>
      </trkpt>
      <trkpt lat="42.11148" lon="9.13927">
        <ele>1280.132813</ele>
        <time>2014-06-24T10:57:58Z</time>
      </trkpt>
      <trkpt lat="42.11153" lon="9.13927">
        <ele>1279.6521</ele>
        <time>2014-06-24T10:58:11Z</time>
      </trkpt>
      <trkpt lat="42.11164" lon="9.13929">
        <ele>1280.132813</ele>
        <time>2014-06-24T10:58:21Z</time>
      </trkpt>
      <trkpt lat="42.1118" lon="9.13933">
        <ele>1282.05542</ele>
        <time>2014-06-24T10:58:35Z</time>
      </trkpt>
      <trkpt lat="42.11188" lon="9.13939">
        <ele>1282.536133</ele>
        <time>2014-06-24T10:58:44Z</time>
      </trkpt>
      <trkpt lat="42.1119" lon="9.13941">
        <ele>1283.016602</ele>
        <time>2014-06-24T10:58:46Z</time>
      </trkpt>
      <trkpt lat="42.112" lon="9.13955">
        <ele>1283.978027</ele>
        <time>2014-06-24T10:59:00Z</time>
      </trkpt>
      <trkpt lat="42.11207" lon="9.13975">
        <ele>1285.419922</ele>
        <time>2014-06-24T10:59:16Z</time>
      </trkpt>
      <trkpt lat="42.11211" lon="9.13993">
        <ele>1286.861816</ele>
        <time>2014-06-24T10:59:30Z</time>
      </trkpt>
      <trkpt lat="42.11218" lon="9.14008">
        <ele>1287.342529</ele>
        <time>2014-06-24T10:59:43Z</time>
      </trkpt>
      <trkpt lat="42.1122" lon="9.14012">
        <ele>1287.823242</ele>
        <time>2014-06-24T10:59:47Z</time>
      </trkpt>
      <trkpt lat="42.1122" lon="9.14029">
        <ele>1289.265137</ele>
        <time>2014-06-24T11:00:00Z</time>
      </trkpt>
      <trkpt lat="42.11224" lon="9.14049">
        <ele>1289.74585</ele>
        <time>2014-06-24T11:00:13Z</time>
      </trkpt>
      <trkpt lat="42.11232" lon="9.14063">
        <ele>1289.265137</ele>
        <time>2014-06-24T11:00:25Z</time>
      </trkpt>
      <trkpt lat="42.11235" lon="9.14075">
        <ele>1289.265137</ele>
        <time>2014-06-24T11:00:38Z</time>
      </trkpt>
      <trkpt lat="42.11242" lon="9.14076">
        <ele>1288.303955</ele>
        <time>2014-06-24T11:00:47Z</time>
      </trkpt>
      <trkpt lat="42.11261" lon="9.14071">
        <ele>1288.303955</ele>
        <time>2014-06-24T11:01:00Z</time>
      </trkpt>
      <trkpt lat="42.11278" lon="9.14063">
        <ele>1287.342529</ele>
        <time>2014-06-24T11:01:15Z</time>
      </trkpt>
      <trkpt lat="42.11281" lon="9.14064">
        <ele>1287.823242</ele>
        <time>2014-06-24T11:01:17Z</time>
      </trkpt>
      <trkpt lat="42.11295" lon="9.14068">
        <ele>1286.861816</ele>
        <time>2014-06-24T11:01:29Z</time>
      </trkpt>
      <trkpt lat="42.11305" lon="9.14075">
        <ele>1288.303955</ele>
        <time>2014-06-24T11:01:43Z</time>
      </trkpt>
      <trkpt lat="42.11319" lon="9.14082">
        <ele>1286.861816</ele>
        <time>2014-06-24T11:01:59Z</time>
      </trkpt>
      <trkpt lat="42.1133" lon="9.1409">
        <ele>1286.381348</ele>
        <time>2014-06-24T11:02:09Z</time>
      </trkpt>
      <trkpt lat="42.11342" lon="9.14096">
        <ele>1285.419922</ele>
        <time>2014-06-24T11:02:21Z</time>
      </trkpt>
      <trkpt lat="42.11356" lon="9.14102">
        <ele>1283.978027</ele>
        <time>2014-06-24T11:02:34Z</time>
      </trkpt>
      <trkpt lat="42.11367" lon="9.14108">
        <ele>1282.536133</ele>
        <time>2014-06-24T11:02:45Z</time>
      </trkpt>
      <trkpt lat="42.11372" lon="9.14113">
        <ele>1281.574707</ele>
        <time>2014-06-24T11:02:53Z</time>
      </trkpt>
      <trkpt lat="42.11377" lon="9.14111">
        <ele>1281.094238</ele>
        <time>2014-06-24T11:03:03Z</time>
      </trkpt>
      <trkpt lat="42.11388" lon="9.14115">
        <ele>1279.6521</ele>
        <time>2014-06-24T11:03:16Z</time>
      </trkpt>
      <trkpt lat="42.11392" lon="9.14115">
        <ele>1279.171387</ele>
        <time>2014-06-24T11:03:20Z</time>
      </trkpt>
      <trkpt lat="42.1141" lon="9.14115">
        <ele>1277.249023</ele>
        <time>2014-06-24T11:03:33Z</time>
      </trkpt>
      <trkpt lat="42.11419" lon="9.14108">
        <ele>1275.806641</ele>
        <time>2014-06-24T11:03:49Z</time>
      </trkpt>
      <trkpt lat="42.11428" lon="9.14097">
        <ele>1274.364746</ele>
        <time>2014-06-24T11:04:07Z</time>
      </trkpt>
      <trkpt lat="42.11436" lon="9.14094">
        <ele>1272.442139</ele>
        <time>2014-06-24T11:04:21Z</time>
      </trkpt>
      <trkpt lat="42.11442" lon="9.14088">
        <ele>1270.519531</ele>
        <time>2014-06-24T11:04:34Z</time>
      </trkpt>
      <trkpt lat="42.1145" lon="9.14082">
        <ele>1269.077637</ele>
        <time>2014-06-24T11:04:47Z</time>
      </trkpt>
      <trkpt lat="42.11456" lon="9.1408">
        <ele>1268.596924</ele>
        <time>2014-06-24T11:05:02Z</time>
      </trkpt>
      <trkpt lat="42.11461" lon="9.1408">
        <ele>1267.635498</ele>
        <time>2014-06-24T11:05:19Z</time>
      </trkpt>
      <trkpt lat="42.11467" lon="9.14064">
        <ele>1266.193604</ele>
        <time>2014-06-24T11:05:32Z</time>
      </trkpt>
      <trkpt lat="42.11468" lon="9.14053">
        <ele>1265.232422</ele>
        <time>2014-06-24T11:05:42Z</time>
      </trkpt>
      <trkpt lat="42.1147" lon="9.1404">
        <ele>1263.309814</ele>
        <time>2014-06-24T11:05:53Z</time>
      </trkpt>
      <trkpt lat="42.11475" lon="9.14025">
        <ele>1260.906494</ele>
        <time>2014-06-24T11:06:09Z</time>
      </trkpt>
      <trkpt lat="42.1148" lon="9.14017">
        <ele>1259.464355</ele>
        <time>2014-06-24T11:06:19Z</time>
      </trkpt>
      <trkpt lat="42.11481" lon="9.14015">
        <ele>1258.983643</ele>
        <time>2014-06-24T11:06:21Z</time>
      </trkpt>
      <trkpt lat="42.11486" lon="9.14006">
        <ele>1257.061035</ele>
        <time>2014-06-24T11:06:32Z</time>
      </trkpt>
      <trkpt lat="42.11493" lon="9.13999">
        <ele>1255.619141</ele>
        <time>2014-06-24T11:06:42Z</time>
      </trkpt>
      <trkpt lat="42.11497" lon="9.1399">
        <ele>1254.177246</ele>
        <time>2014-06-24T11:06:55Z</time>
      </trkpt>
      <trkpt lat="42.11501" lon="9.13982">
        <ele>1253.21582</ele>
        <time>2014-06-24T11:07:09Z</time>
      </trkpt>
      <trkpt lat="42.11506" lon="9.13975">
        <ele>1251.773926</ele>
        <time>2014-06-24T11:07:23Z</time>
      </trkpt>
      <trkpt lat="42.11514" lon="9.13965">
        <ele>1249.851318</ele>
        <time>2014-06-24T11:07:37Z</time>
      </trkpt>
      <trkpt lat="42.11523" lon="9.1396">
        <ele>1247.447998</ele>
        <time>2014-06-24T11:07:50Z</time>
      </trkpt>
      <trkpt lat="42.1153" lon="9.13959">
        <ele>1246.006104</ele>
        <time>2014-06-24T11:07:59Z</time>
      </trkpt>
      <trkpt lat="42.11539" lon="9.13956">
        <ele>1244.563965</ele>
        <time>2014-06-24T11:08:11Z</time>
      </trkpt>
      <trkpt lat="42.1155" lon="9.13959">
        <ele>1242.641357</ele>
        <time>2014-06-24T11:08:22Z</time>
      </trkpt>
      <trkpt lat="42.11561" lon="9.13959">
        <ele>1241.199219</ele>
        <time>2014-06-24T11:08:33Z</time>
      </trkpt>
      <trkpt lat="42.11573" lon="9.13975">
        <ele>1240.718506</ele>
        <time>2014-06-24T11:08:56Z</time>
      </trkpt>
      <trkpt lat="42.11581" lon="9.13982">
        <ele>1238.796143</ele>
        <time>2014-06-24T11:09:03Z</time>
      </trkpt>
      <trkpt lat="42.11596" lon="9.13988">
        <ele>1235.431396</ele>
        <time>2014-06-24T11:09:22Z</time>
      </trkpt>
      <trkpt lat="42.11611" lon="9.13992">
        <ele>1234.950928</ele>
        <time>2014-06-24T11:09:35Z</time>
      </trkpt>
      <trkpt lat="42.11622" lon="9.13998">
        <ele>1233.989502</ele>
        <time>2014-06-24T11:09:49Z</time>
      </trkpt>
      <trkpt lat="42.1163" lon="9.13997">
        <ele>1231.586182</ele>
        <time>2014-06-24T11:09:59Z</time>
      </trkpt>
      <trkpt lat="42.11651" lon="9.13996">
        <ele>1231.105713</ele>
        <time>2014-06-24T11:10:21Z</time>
      </trkpt>
      <trkpt lat="42.11654" lon="9.13985">
        <ele>1230.625</ele>
        <time>2014-06-24T11:10:43Z</time>
      </trkpt>
      <trkpt lat="42.11662" lon="9.13972">
        <ele>1227.260254</ele>
        <time>2014-06-24T11:11:00Z</time>
      </trkpt>
      <trkpt lat="42.1167" lon="9.13962">
        <ele>1225.818115</ele>
        <time>2014-06-24T11:11:12Z</time>
      </trkpt>
      <trkpt lat="42.1168" lon="9.13949">
        <ele>1222.934326</ele>
        <time>2014-06-24T11:11:29Z</time>
      </trkpt>
      <trkpt lat="42.11691" lon="9.13928">
        <ele>1221.9729</ele>
        <time>2014-06-24T11:11:45Z</time>
      </trkpt>
      <trkpt lat="42.11693" lon="9.13921">
        <ele>1221.011719</ele>
        <time>2014-06-24T11:11:51Z</time>
      </trkpt>
      <trkpt lat="42.11706" lon="9.13907">
        <ele>1218.608398</ele>
        <time>2014-06-24T11:12:06Z</time>
      </trkpt>
      <trkpt lat="42.11715" lon="9.13896">
        <ele>1218.127686</ele>
        <time>2014-06-24T11:12:17Z</time>
      </trkpt>
      <trkpt lat="42.11724" lon="9.13892">
        <ele>1215.724609</ele>
        <time>2014-06-24T11:12:26Z</time>
      </trkpt>
      <trkpt lat="42.11736" lon="9.13885">
        <ele>1213.801758</ele>
        <time>2014-06-24T11:12:39Z</time>
      </trkpt>
      <trkpt lat="42.11751" lon="9.1387">
        <ele>1210.917725</ele>
        <time>2014-06-24T11:12:56Z</time>
      </trkpt>
      <trkpt lat="42.11752" lon="9.13869">
        <ele>1210.917725</ele>
        <time>2014-06-24T11:12:57Z</time>
      </trkpt>
      <trkpt lat="42.11767" lon="9.13857">
        <ele>1208.995117</ele>
        <time>2014-06-24T11:13:11Z</time>
      </trkpt>
      <trkpt lat="42.11779" lon="9.13853">
        <ele>1204.669189</ele>
        <time>2014-06-24T11:13:25Z</time>
      </trkpt>
      <trkpt lat="42.11785" lon="9.13854">
        <ele>1204.188721</ele>
        <time>2014-06-24T11:13:35Z</time>
      </trkpt>
      <trkpt lat="42.11795" lon="9.13854">
        <ele>1203.227295</ele>
        <time>2014-06-24T11:13:47Z</time>
      </trkpt>
      <trkpt lat="42.11798" lon="9.13849">
        <ele>1201.304688</ele>
        <time>2014-06-24T11:14:01Z</time>
      </trkpt>
      <trkpt lat="42.11804" lon="9.13848">
        <ele>1199.862793</ele>
        <time>2014-06-24T11:14:15Z</time>
      </trkpt>
      <trkpt lat="42.11803" lon="9.13854">
        <ele>1199.38208</ele>
        <time>2014-06-24T11:14:30Z</time>
      </trkpt>
      <trkpt lat="42.11819" lon="9.13861">
        <ele>1199.862793</ele>
        <time>2014-06-24T11:14:41Z</time>
      </trkpt>
      <trkpt lat="42.11835" lon="9.13868">
        <ele>1200.823975</ele>
        <time>2014-06-24T11:14:52Z</time>
      </trkpt>
      <trkpt lat="42.11836" lon="9.13868">
        <ele>1197.940186</ele>
        <time>2014-06-24T11:15:09Z</time>
      </trkpt>
      <trkpt lat="42.11844" lon="9.13869">
        <ele>1196.017578</ele>
        <time>2014-06-24T11:15:26Z</time>
      </trkpt>
      <trkpt lat="42.11859" lon="9.13874">
        <ele>1194.094727</ele>
        <time>2014-06-24T11:15:42Z</time>
      </trkpt>
      <trkpt lat="42.11874" lon="9.13876">
        <ele>1192.172119</ele>
        <time>2014-06-24T11:15:54Z</time>
      </trkpt>
      <trkpt lat="42.11883" lon="9.13875">
        <ele>1191.691406</ele>
        <time>2014-06-24T11:16:09Z</time>
      </trkpt>
      <trkpt lat="42.11893" lon="9.13874">
        <ele>1189.768799</ele>
        <time>2014-06-24T11:16:20Z</time>
      </trkpt>
      <trkpt lat="42.11899" lon="9.13872">
        <ele>1189.768799</ele>
        <time>2014-06-24T11:16:25Z</time>
      </trkpt>
      <trkpt lat="42.11908" lon="9.13868">
        <ele>1189.768799</ele>
        <time>2014-06-24T11:16:38Z</time>
      </trkpt>
      <trkpt lat="42.11923" lon="9.13866">
        <ele>1188.807617</ele>
        <time>2014-06-24T11:16:51Z</time>
      </trkpt>
      <trkpt lat="42.11931" lon="9.13867">
        <ele>1186.884766</ele>
        <time>2014-06-24T11:17:00Z</time>
      </trkpt>
      <trkpt lat="42.11935" lon="9.13861">
        <ele>1186.884766</ele>
        <time>2014-06-24T11:17:05Z</time>
      </trkpt>
      <trkpt lat="42.11944" lon="9.13853">
        <ele>1184.962402</ele>
        <time>2014-06-24T11:17:14Z</time>
      </trkpt>
      <trkpt lat="42.11949" lon="9.13847">
        <ele>1183.039551</ele>
        <time>2014-06-24T11:17:22Z</time>
      </trkpt>
      <trkpt lat="42.11964" lon="9.13842">
        <ele>1181.117188</ele>
        <time>2014-06-24T11:17:38Z</time>
      </trkpt>
      <trkpt lat="42.11973" lon="9.13838">
        <ele>1179.194092</ele>
        <time>2014-06-24T11:17:49Z</time>
      </trkpt>
      <trkpt lat="42.11987" lon="9.13833">
        <ele>1178.23291</ele>
        <time>2014-06-24T11:17:59Z</time>
      </trkpt>
      <trkpt lat="42.12001" lon="9.13831">
        <ele>1176.791016</ele>
        <time>2014-06-24T11:18:09Z</time>
      </trkpt>
      <trkpt lat="42.12008" lon="9.13826">
        <ele>1174.868408</ele>
        <time>2014-06-24T11:18:17Z</time>
      </trkpt>
      <trkpt lat="42.12025" lon="9.13824">
        <ele>1172.945801</ele>
        <time>2014-06-24T11:18:32Z</time>
      </trkpt>
      <trkpt lat="42.12037" lon="9.1382">
        <ele>1171.503662</ele>
        <time>2014-06-24T11:18:45Z</time>
      </trkpt>
      <trkpt lat="42.1203" lon="9.13815">
        <ele>1171.023193</ele>
        <time>2014-06-24T11:19:02Z</time>
      </trkpt>
      <trkpt lat="42.12013" lon="9.13826">
        <ele>1170.54248</ele>
        <time>2014-06-24T11:19:14Z</time>
      </trkpt>
      <trkpt lat="42.11984" lon="9.13816">
        <ele>1170.54248</ele>
        <time>2014-06-24T11:19:31Z</time>
      </trkpt>
      <trkpt lat="42.11979" lon="9.13819">
        <ele>1170.54248</ele>
        <time>2014-06-24T11:19:45Z</time>
      </trkpt>
      <trkpt lat="42.11985" lon="9.13816">
        <ele>1170.54248</ele>
        <time>2014-06-24T11:19:50Z</time>
      </trkpt>
      <trkpt lat="42.12003" lon="9.13818">
        <ele>1170.54248</ele>
        <time>2014-06-24T11:20:01Z</time>
      </trkpt>
      <trkpt lat="42.12014" lon="9.1382">
        <ele>1169.581299</ele>
        <time>2014-06-24T11:20:08Z</time>
      </trkpt>
      <trkpt lat="42.12016" lon="9.13819">
        <ele>1169.581299</ele>
        <time>2014-06-24T11:20:11Z</time>
      </trkpt>
      <trkpt lat="42.12039" lon="9.1382">
        <ele>1169.581299</ele>
        <time>2014-06-24T11:20:27Z</time>
      </trkpt>
      <trkpt lat="42.12066" lon="9.13828">
        <ele>1170.061768</ele>
        <time>2014-06-24T11:20:45Z</time>
      </trkpt>
      <trkpt lat="42.12073" lon="9.13831">
        <ele>1167.658447</ele>
        <time>2014-06-24T11:20:59Z</time>
      </trkpt>
      <trkpt lat="42.12084" lon="9.1384">
        <ele>1165.736084</ele>
        <time>2014-06-24T11:21:13Z</time>
      </trkpt>
      <trkpt lat="42.12082" lon="9.13832">
        <ele>1163.812988</ele>
        <time>2014-06-24T11:21:22Z</time>
      </trkpt>
      <trkpt lat="42.1207" lon="9.13819">
        <ele>1161.890625</ele>
        <time>2014-06-24T11:21:38Z</time>
      </trkpt>
      <trkpt lat="42.12057" lon="9.13809">
        <ele>1160.929199</ele>
        <time>2014-06-24T11:21:50Z</time>
      </trkpt>
      <trkpt lat="42.12054" lon="9.13806">
        <ele>1159.487305</ele>
        <time>2014-06-24T11:21:53Z</time>
      </trkpt>
      <trkpt lat="42.12039" lon="9.13792">
        <ele>1157.564697</ele>
        <time>2014-06-24T11:22:07Z</time>
      </trkpt>
      <trkpt lat="42.12021" lon="9.13782">
        <ele>1156.122559</ele>
        <time>2014-06-24T11:22:21Z</time>
      </trkpt>
      <trkpt lat="42.12018" lon="9.1378">
        <ele>1156.603271</ele>
        <time>2014-06-24T11:22:24Z</time>
      </trkpt>
      <trkpt lat="42.12004" lon="9.13774">
        <ele>1153.719482</ele>
        <time>2014-06-24T11:22:37Z</time>
      </trkpt>
      <trkpt lat="42.1198" lon="9.13763">
        <ele>1152.277344</ele>
        <time>2014-06-24T11:22:52Z</time>
      </trkpt>
      <trkpt lat="42.11958" lon="9.13754">
        <ele>1149.874268</ele>
        <time>2014-06-24T11:23:08Z</time>
      </trkpt>
      <trkpt lat="42.11944" lon="9.13754">
        <ele>1148.912842</ele>
        <time>2014-06-24T11:23:20Z</time>
      </trkpt>
      <trkpt lat="42.11934" lon="9.13748">
        <ele>1146.509521</ele>
        <time>2014-06-24T11:23:30Z</time>
      </trkpt>
      <trkpt lat="42.11919" lon="9.13732">
        <ele>1144.58667</ele>
        <time>2014-06-24T11:23:45Z</time>
      </trkpt>
      <trkpt lat="42.11913" lon="9.13718">
        <ele>1142.183594</ele>
        <time>2014-06-24T11:24:05Z</time>
      </trkpt>
      <trkpt lat="42.11898" lon="9.13708">
        <ele>1140.260986</ele>
        <time>2014-06-24T11:24:15Z</time>
      </trkpt>
      <trkpt lat="42.11888" lon="9.13714">
        <ele>1138.338379</ele>
        <time>2014-06-24T11:24:26Z</time>
      </trkpt>
      <trkpt lat="42.11876" lon="9.13709">
        <ele>1135.454346</ele>
        <time>2014-06-24T11:24:34Z</time>
      </trkpt>
      <trkpt lat="42.11877" lon="9.13703">
        <ele>1133.531738</ele>
        <time>2014-06-24T11:24:46Z</time>
      </trkpt>
      <trkpt lat="42.11888" lon="9.13703">
        <ele>1132.089844</ele>
        <time>2014-06-24T11:24:58Z</time>
      </trkpt>
      <trkpt lat="42.119" lon="9.13695">
        <ele>1131.128418</ele>
        <time>2014-06-24T11:25:09Z</time>
      </trkpt>
      <trkpt lat="42.11909" lon="9.13691">
        <ele>1129.205566</ele>
        <time>2014-06-24T11:25:17Z</time>
      </trkpt>
      <trkpt lat="42.11918" lon="9.13687">
        <ele>1128.244385</ele>
        <time>2014-06-24T11:25:26Z</time>
      </trkpt>
      <trkpt lat="42.11926" lon="9.13677">
        <ele>1125.360352</ele>
        <time>2014-06-24T11:25:36Z</time>
      </trkpt>
      <trkpt lat="42.11933" lon="9.13668">
        <ele>1124.879883</ele>
        <time>2014-06-24T11:25:44Z</time>
      </trkpt>
      <trkpt lat="42.11937" lon="9.13662">
        <ele>1123.437988</ele>
        <time>2014-06-24T11:25:49Z</time>
      </trkpt>
      <trkpt lat="42.11945" lon="9.13656">
        <ele>1121.99585</ele>
        <time>2014-06-24T11:25:54Z</time>
      </trkpt>
      <trkpt lat="42.11956" lon="9.13646">
        <ele>1120.073242</ele>
        <time>2014-06-24T11:26:07Z</time>
      </trkpt>
      <trkpt lat="42.11964" lon="9.13635">
        <ele>1118.150635</ele>
        <time>2014-06-24T11:26:20Z</time>
      </trkpt>
      <trkpt lat="42.11967" lon="9.13624">
        <ele>1116.228027</ele>
        <time>2014-06-24T11:26:30Z</time>
      </trkpt>
      <trkpt lat="42.11979" lon="9.13614">
        <ele>1114.785889</ele>
        <time>2014-06-24T11:26:42Z</time>
      </trkpt>
      <trkpt lat="42.11984" lon="9.13599">
        <ele>1113.343994</ele>
        <time>2014-06-24T11:26:55Z</time>
      </trkpt>
      <trkpt lat="42.11985" lon="9.13592">
        <ele>1111.9021</ele>
        <time>2014-06-24T11:27:02Z</time>
      </trkpt>
      <trkpt lat="42.11998" lon="9.13585">
        <ele>1109.979248</ele>
        <time>2014-06-24T11:27:11Z</time>
      </trkpt>
      <trkpt lat="42.12009" lon="9.13577">
        <ele>1108.537354</ele>
        <time>2014-06-24T11:27:21Z</time>
      </trkpt>
      <trkpt lat="42.12022" lon="9.13564">
        <ele>1106.134033</ele>
        <time>2014-06-24T11:27:34Z</time>
      </trkpt>
      <trkpt lat="42.1203" lon="9.13559">
        <ele>1103.730957</ele>
        <time>2014-06-24T11:27:44Z</time>
      </trkpt>
      <trkpt lat="42.12041" lon="9.13556">
        <ele>1102.288818</ele>
        <time>2014-06-24T11:28:00Z</time>
      </trkpt>
      <trkpt lat="42.12053" lon="9.13552">
        <ele>1100.846924</ele>
        <time>2014-06-24T11:28:11Z</time>
      </trkpt>
      <trkpt lat="42.12063" lon="9.13547">
        <ele>1098.924072</ele>
        <time>2014-06-24T11:28:24Z</time>
      </trkpt>
      <trkpt lat="42.12076" lon="9.1354">
        <ele>1096.520996</ele>
        <time>2014-06-24T11:28:35Z</time>
      </trkpt>
      <trkpt lat="42.12092" lon="9.13539">
        <ele>1093.636963</ele>
        <time>2014-06-24T11:28:53Z</time>
      </trkpt>
      <trkpt lat="42.12094" lon="9.13542">
        <ele>1091.233643</ele>
        <time>2014-06-24T11:29:03Z</time>
      </trkpt>
      <trkpt lat="42.12103" lon="9.13546">
        <ele>1090.272461</ele>
        <time>2014-06-24T11:29:11Z</time>
      </trkpt>
      <trkpt lat="42.12121" lon="9.1355">
        <ele>1088.349854</ele>
        <time>2014-06-24T11:29:22Z</time>
      </trkpt>
      <trkpt lat="42.12132" lon="9.1356">
        <ele>1086.427246</ele>
        <time>2014-06-24T11:29:36Z</time>
      </trkpt>
      <trkpt lat="42.12133" lon="9.13561">
        <ele>1085.946533</ele>
        <time>2014-06-24T11:29:37Z</time>
      </trkpt>
      <trkpt lat="42.12149" lon="9.1357">
        <ele>1083.542969</ele>
        <time>2014-06-24T11:29:52Z</time>
      </trkpt>
      <trkpt lat="42.12155" lon="9.13581">
        <ele>1082.101074</ele>
        <time>2014-06-24T11:30:05Z</time>
      </trkpt>
      <trkpt lat="42.12162" lon="9.13588">
        <ele>1080.178467</ele>
        <time>2014-06-24T11:30:15Z</time>
      </trkpt>
      <trkpt lat="42.12175" lon="9.13591">
        <ele>1076.813965</ele>
        <time>2014-06-24T11:30:27Z</time>
      </trkpt>
      <trkpt lat="42.12188" lon="9.1359">
        <ele>1075.852539</ele>
        <time>2014-06-24T11:30:36Z</time>
      </trkpt>
      <trkpt lat="42.12201" lon="9.13589">
        <ele>1073.929932</ele>
        <time>2014-06-24T11:30:47Z</time>
      </trkpt>
      <trkpt lat="42.1221" lon="9.13589">
        <ele>1072.007324</ele>
        <time>2014-06-24T11:30:56Z</time>
      </trkpt>
      <trkpt lat="42.12223" lon="9.13589">
        <ele>1071.046143</ele>
        <time>2014-06-24T11:31:06Z</time>
      </trkpt>
      <trkpt lat="42.12238" lon="9.13589">
        <ele>1068.642822</ele>
        <time>2014-06-24T11:31:16Z</time>
      </trkpt>
      <trkpt lat="42.12249" lon="9.13587">
        <ele>1067.681152</ele>
        <time>2014-06-24T11:31:26Z</time>
      </trkpt>
      <trkpt lat="42.12266" lon="9.13588">
        <ele>1064.31665</ele>
        <time>2014-06-24T11:31:46Z</time>
      </trkpt>
      <trkpt lat="42.12275" lon="9.13572">
        <ele>1061.432861</ele>
        <time>2014-06-24T11:32:01Z</time>
      </trkpt>
      <trkpt lat="42.1229" lon="9.13559">
        <ele>1059.029541</ele>
        <time>2014-06-24T11:32:13Z</time>
      </trkpt>
      <trkpt lat="42.12297" lon="9.13549">
        <ele>1057.106934</ele>
        <time>2014-06-24T11:32:26Z</time>
      </trkpt>
      <trkpt lat="42.12306" lon="9.13545">
        <ele>1054.223145</ele>
        <time>2014-06-24T11:32:48Z</time>
      </trkpt>
      <trkpt lat="42.12306" lon="9.13531">
        <ele>1052.781006</ele>
        <time>2014-06-24T11:33:01Z</time>
      </trkpt>
      <trkpt lat="42.12318" lon="9.13519">
        <ele>1049.41626</ele>
        <time>2014-06-24T11:33:17Z</time>
      </trkpt>
      <trkpt lat="42.12336" lon="9.13508">
        <ele>1046.532471</ele>
        <time>2014-06-24T11:33:29Z</time>
      </trkpt>
      <trkpt lat="42.12339" lon="9.13497">
        <ele>1044.609619</ele>
        <time>2014-06-24T11:33:42Z</time>
      </trkpt>
      <trkpt lat="42.12349" lon="9.13485">
        <ele>1042.206543</ele>
        <time>2014-06-24T11:33:54Z</time>
      </trkpt>
      <trkpt lat="42.12354" lon="9.13472">
        <ele>1038.842041</ele>
        <time>2014-06-24T11:34:07Z</time>
      </trkpt>
      <trkpt lat="42.12354" lon="9.13461">
        <ele>1037.880615</ele>
        <time>2014-06-24T11:34:15Z</time>
      </trkpt>
      <trkpt lat="42.12359" lon="9.13448">
        <ele>1035.957764</ele>
        <time>2014-06-24T11:34:25Z</time>
      </trkpt>
      <trkpt lat="42.12361" lon="9.13443">
        <ele>1035.957764</ele>
        <time>2014-06-24T11:34:29Z</time>
      </trkpt>
      <trkpt lat="42.1237" lon="9.13436">
        <ele>1034.996582</ele>
        <time>2014-06-24T11:34:39Z</time>
      </trkpt>
      <trkpt lat="42.1237" lon="9.13435">
        <ele>1034.996582</ele>
        <time>2014-06-24T11:34:40Z</time>
      </trkpt>
      <trkpt lat="42.12388" lon="9.13411">
        <ele>1032.112549</ele>
        <time>2014-06-24T11:34:58Z</time>
      </trkpt>
      <trkpt lat="42.12393" lon="9.13416">
        <ele>1030.189941</ele>
        <time>2014-06-24T11:35:10Z</time>
      </trkpt>
      <trkpt lat="42.12401" lon="9.1342">
        <ele>1026.344727</ele>
        <time>2014-06-24T11:35:21Z</time>
      </trkpt>
      <trkpt lat="42.12402" lon="9.1342">
        <ele>1026.825439</ele>
        <time>2014-06-24T11:35:22Z</time>
      </trkpt>
      <trkpt lat="42.12404" lon="9.13425">
        <ele>1024.422119</ele>
        <time>2014-06-24T11:35:26Z</time>
      </trkpt>
      <trkpt lat="42.12403" lon="9.13428">
        <ele>1023.941406</ele>
        <time>2014-06-24T11:35:29Z</time>
      </trkpt>
      <trkpt lat="42.12395" lon="9.13441">
        <ele>1023.460938</ele>
        <time>2014-06-24T11:35:39Z</time>
      </trkpt>
      <trkpt lat="42.12396" lon="9.13463">
        <ele>1022.018799</ele>
        <time>2014-06-24T11:35:53Z</time>
      </trkpt>
      <trkpt lat="42.12387" lon="9.1348">
        <ele>1019.134766</ele>
        <time>2014-06-24T11:36:09Z</time>
      </trkpt>
      <trkpt lat="42.12377" lon="9.13491">
        <ele>1017.212158</ele>
        <time>2014-06-24T11:36:21Z</time>
      </trkpt>
      <trkpt lat="42.12384" lon="9.13495">
        <ele>1014.808838</ele>
        <time>2014-06-24T11:36:40Z</time>
      </trkpt>
      <trkpt lat="42.12401" lon="9.13503">
        <ele>1014.328125</ele>
        <time>2014-06-24T11:36:52Z</time>
      </trkpt>
      <trkpt lat="42.12413" lon="9.13516">
        <ele>1012.88623</ele>
        <time>2014-06-24T11:37:02Z</time>
      </trkpt>
      <trkpt lat="42.1243" lon="9.13532">
        <ele>1012.88623</ele>
        <time>2014-06-24T11:37:15Z</time>
      </trkpt>
      <trkpt lat="42.12442" lon="9.13528">
        <ele>1011.925049</ele>
        <time>2014-06-24T11:37:27Z</time>
      </trkpt>
      <trkpt lat="42.12451" lon="9.13521">
        <ele>1008.560303</ele>
        <time>2014-06-24T11:37:40Z</time>
      </trkpt>
      <trkpt lat="42.1246" lon="9.13507">
        <ele>1005.676514</ele>
        <time>2014-06-24T11:37:50Z</time>
      </trkpt>
      <trkpt lat="42.12468" lon="9.13503">
        <ele>1004.715088</ele>
        <time>2014-06-24T11:38:01Z</time>
      </trkpt>
      <trkpt lat="42.12483" lon="9.13496">
        <ele>1003.272949</ele>
        <time>2014-06-24T11:38:14Z</time>
      </trkpt>
      <trkpt lat="42.12488" lon="9.13483">
        <ele>999.908447</ele>
        <time>2014-06-24T11:38:27Z</time>
      </trkpt>
      <trkpt lat="42.12497" lon="9.13482">
        <ele>997.98584</ele>
        <time>2014-06-24T11:38:39Z</time>
      </trkpt>
      <trkpt lat="42.12508" lon="9.13476">
        <ele>996.543945</ele>
        <time>2014-06-24T11:38:48Z</time>
      </trkpt>
      <trkpt lat="42.12518" lon="9.13479">
        <ele>995.58252</ele>
        <time>2014-06-24T11:38:57Z</time>
      </trkpt>
      <trkpt lat="42.12523" lon="9.13481">
        <ele>994.140625</ele>
        <time>2014-06-24T11:39:07Z</time>
      </trkpt>
      <trkpt lat="42.1253" lon="9.13472">
        <ele>992.218018</ele>
        <time>2014-06-24T11:39:24Z</time>
      </trkpt>
      <trkpt lat="42.12541" lon="9.13472">
        <ele>990.775879</ele>
        <time>2014-06-24T11:39:35Z</time>
      </trkpt>
      <trkpt lat="42.12551" lon="9.13474">
        <ele>987.891846</ele>
        <time>2014-06-24T11:39:46Z</time>
      </trkpt>
      <trkpt lat="42.12562" lon="9.1347">
        <ele>985.008057</ele>
        <time>2014-06-24T11:39:57Z</time>
      </trkpt>
      <trkpt lat="42.12576" lon="9.13471">
        <ele>983.085205</ele>
        <time>2014-06-24T11:40:12Z</time>
      </trkpt>
      <trkpt lat="42.12591" lon="9.13461">
        <ele>981.162842</ele>
        <time>2014-06-24T11:40:25Z</time>
      </trkpt>
      <trkpt lat="42.12596" lon="9.13459">
        <ele>979.23999</ele>
        <time>2014-06-24T11:40:32Z</time>
      </trkpt>
      <trkpt lat="42.12605" lon="9.13457">
        <ele>977.798096</ele>
        <time>2014-06-24T11:40:43Z</time>
      </trkpt>
      <trkpt lat="42.12618" lon="9.13449">
        <ele>974.914307</ele>
        <time>2014-06-24T11:40:59Z</time>
      </trkpt>
      <trkpt lat="42.12626" lon="9.13445">
        <ele>973.952881</ele>
        <time>2014-06-24T11:41:09Z</time>
      </trkpt>
      <trkpt lat="42.12632" lon="9.1345">
        <ele>972.510986</ele>
        <time>2014-06-24T11:41:21Z</time>
      </trkpt>
      <trkpt lat="42.12636" lon="9.13452">
        <ele>972.991699</ele>
        <time>2014-06-24T11:41:25Z</time>
      </trkpt>
      <trkpt lat="42.12642" lon="9.13458">
        <ele>970.588135</ele>
        <time>2014-06-24T11:41:36Z</time>
      </trkpt>
      <trkpt lat="42.12661" lon="9.13457">
        <ele>970.588135</ele>
        <time>2014-06-24T11:41:48Z</time>
      </trkpt>
      <trkpt lat="42.12658" lon="9.13464">
        <ele>970.588135</ele>
        <time>2014-06-24T11:41:56Z</time>
      </trkpt>
      <trkpt lat="42.12645" lon="9.13459">
        <ele>971.068848</ele>
        <time>2014-06-24T11:42:08Z</time>
      </trkpt>
      <trkpt lat="42.12635" lon="9.13442">
        <ele>971.068848</ele>
        <time>2014-06-24T11:42:19Z</time>
      </trkpt>
      <trkpt lat="42.12627" lon="9.13429">
        <ele>970.107422</ele>
        <time>2014-06-24T11:42:29Z</time>
      </trkpt>
      <trkpt lat="42.12627" lon="9.13419">
        <ele>969.626953</ele>
        <time>2014-06-24T11:42:39Z</time>
      </trkpt>
      <trkpt lat="42.12631" lon="9.13415">
        <ele>969.626953</ele>
        <time>2014-06-24T11:42:44Z</time>
      </trkpt>
      <trkpt lat="42.12635" lon="9.134">
        <ele>970.107422</ele>
        <time>2014-06-24T11:42:54Z</time>
      </trkpt>
      <trkpt lat="42.12637" lon="9.13375">
        <ele>971.068848</ele>
        <time>2014-06-24T11:43:06Z</time>
      </trkpt>
      <trkpt lat="42.12648" lon="9.13356">
        <ele>970.588135</ele>
        <time>2014-06-24T11:43:18Z</time>
      </trkpt>
      <trkpt lat="42.12662" lon="9.13341">
        <ele>970.107422</ele>
        <time>2014-06-24T11:43:30Z</time>
      </trkpt>
      <trkpt lat="42.12679" lon="9.13336">
        <ele>969.626953</ele>
        <time>2014-06-24T11:43:41Z</time>
      </trkpt>
      <trkpt lat="42.12685" lon="9.13328">
        <ele>968.184814</ele>
        <time>2014-06-24T11:43:47Z</time>
      </trkpt>
      <trkpt lat="42.12688" lon="9.13323">
        <ele>967.704102</ele>
        <time>2014-06-24T11:43:50Z</time>
      </trkpt>
      <trkpt lat="42.12692" lon="9.13313">
        <ele>966.74292</ele>
        <time>2014-06-24T11:43:56Z</time>
      </trkpt>
      <trkpt lat="42.12695" lon="9.1331">
        <ele>965.781738</ele>
        <time>2014-06-24T11:43:59Z</time>
      </trkpt>
      <trkpt lat="42.12708" lon="9.13294">
        <ele>964.3396</ele>
        <time>2014-06-24T11:44:13Z</time>
      </trkpt>
      <trkpt lat="42.1271" lon="9.13292">
        <ele>963.858887</ele>
        <time>2014-06-24T11:44:15Z</time>
      </trkpt>
      <trkpt lat="42.12714" lon="9.1328">
        <ele>962.897705</ele>
        <time>2014-06-24T11:44:22Z</time>
      </trkpt>
      <trkpt lat="42.12725" lon="9.13249">
        <ele>960.013672</ele>
        <time>2014-06-24T11:44:40Z</time>
      </trkpt>
      <trkpt lat="42.12727" lon="9.13233">
        <ele>960.013672</ele>
        <time>2014-06-24T11:44:49Z</time>
      </trkpt>
      <trkpt lat="42.12733" lon="9.13228">
        <ele>958.091309</ele>
        <time>2014-06-24T11:44:54Z</time>
      </trkpt>
      <trkpt lat="42.12741" lon="9.13247">
        <ele>956.64917</ele>
        <time>2014-06-24T11:45:06Z</time>
      </trkpt>
      <trkpt lat="42.12736" lon="9.13255">
        <ele>956.168457</ele>
        <time>2014-06-24T11:45:14Z</time>
      </trkpt>
      <trkpt lat="42.1274" lon="9.13266">
        <ele>954.726318</ele>
        <time>2014-06-24T11:45:24Z</time>
      </trkpt>
      <trkpt lat="42.12747" lon="9.13283">
        <ele>954.24585</ele>
        <time>2014-06-24T11:45:33Z</time>
      </trkpt>
      <trkpt lat="42.12749" lon="9.13291">
        <ele>953.765137</ele>
        <time>2014-06-24T11:45:36Z</time>
      </trkpt>
      <trkpt lat="42.12767" lon="9.1333">
        <ele>950.881104</ele>
        <time>2014-06-24T11:45:49Z</time>
      </trkpt>
      <trkpt lat="42.12773" lon="9.13325">
        <ele>948.477783</ele>
        <time>2014-06-24T11:46:04Z</time>
      </trkpt>
      <trkpt lat="42.12781" lon="9.13314">
        <ele>947.516602</ele>
        <time>2014-06-24T11:46:12Z</time>
      </trkpt>
      <trkpt lat="42.12785" lon="9.13317">
        <ele>945.593994</ele>
        <time>2014-06-24T11:46:16Z</time>
      </trkpt>
      <trkpt lat="42.12786" lon="9.13325">
        <ele>946.074707</ele>
        <time>2014-06-24T11:46:20Z</time>
      </trkpt>
      <trkpt lat="42.12777" lon="9.13349">
        <ele>943.190674</ele>
        <time>2014-06-24T11:46:35Z</time>
      </trkpt>
      <trkpt lat="42.12777" lon="9.1335">
        <ele>943.671387</ele>
        <time>2014-06-24T11:46:36Z</time>
      </trkpt>
      <trkpt lat="42.12778" lon="9.13353">
        <ele>943.190674</ele>
        <time>2014-06-24T11:46:38Z</time>
      </trkpt>
      <trkpt lat="42.12792" lon="9.13369">
        <ele>941.268066</ele>
        <time>2014-06-24T11:46:52Z</time>
      </trkpt>
      <trkpt lat="42.12809" lon="9.13384">
        <ele>938.864746</ele>
        <time>2014-06-24T11:47:08Z</time>
      </trkpt>
      <trkpt lat="42.12829" lon="9.13385">
        <ele>935.980713</ele>
        <time>2014-06-24T11:47:24Z</time>
      </trkpt>
      <trkpt lat="42.12847" lon="9.13398">
        <ele>936.461426</ele>
        <time>2014-06-24T11:47:40Z</time>
      </trkpt>
      <trkpt lat="42.12859" lon="9.13413">
        <ele>936.461426</ele>
        <time>2014-06-24T11:47:54Z</time>
      </trkpt>
    </trkseg>
  </trk>
</gpx>